Time,TemperatureF,DewpointF,PressureIn,WindDirection,WindDirectionDegrees,WindSpeedMPH,WindSpeedGustMPH,Humidity,HourlyPrecipIn,Conditions,Clouds,dailyrainin,SoftwareType,DateUTC
2013-02-04 00:00:00,76.8,65.9,29.96,South,180,0.0,1.3,69,0.00,,---,0.82,VWS V13.01,2013-02-04 04:00:00,
2013-02-04 00:01:00,76.8,65.9,29.96,ESE,112,0.0,0.0,69,0.00,,---,0.00,VWS V13.01,2013-02-04 04:01:00,
2013-02-04 00:02:00,76.6,66.1,29.96,SSE,158,2.2,2.2,70,0.00,,---,0.00,VWS V13.01,2013-02-04 04:02:00,
2013-02-04 00:03:00,76.6,66.1,29.96,SSW,202,1.3,2.2,70,0.00,,---,0.00,VWS V13.01,2013-02-04 04:03:00,
2013-02-04 00:04:00,76.6,66.1,29.96,SSW,202,0.0,1.3,70,0.00,,---,0.00,VWS V13.01,2013-02-04 04:04:00,
2013-02-04 00:05:00,76.6,66.1,29.96,SSE,158,0.0,0.0,70,0.00,,---,0.00,VWS V13.01,2013-02-04 04:05:00,
2013-02-04 00:06:00,76.6,66.1,29.96,SE,135,0.0,0.0,70,0.00,,---,0.00,VWS V13.01,2013-02-04 04:06:00,
2013-02-04 00:07:00,76.6,66.1,29.96,SE,135,0.0,0.0,70,0.00,,---,0.00,VWS V13.01,2013-02-04 04:07:00,
2013-02-04 00:08:00,76.6,66.1,29.96,SE,135,0.0,0.0,70,0.00,,---,0.00,VWS V13.01,2013-02-04 04:08:00,
2013-02-04 00:09:00,76.6,66.1,29.96,South,180,0.0,0.0,70,0.00,,---,0.00,VWS V13.01,2013-02-04 04:09:00,
2013-02-04 00:10:00,76.6,66.1,29.96,SE,135,0.0,0.0,70,0.00,,---,0.00,VWS V13.01,2013-02-04 04:10:00,
2013-02-04 00:11:00,76.6,66.1,29.96,SSE,158,2.2,2.2,70,0.00,,---,0.00,VWS V13.01,2013-02-04 04:11:00,
2013-02-04 00:12:00,76.6,66.1,29.96,South,180,1.7,1.7,70,0.00,,---,0.00,VWS V13.01,2013-02-04 04:12:00,
2013-02-04 00:13:00,76.6,66.1,29.96,SSE,158,0.0,1.7,70,0.00,,---,0.00,VWS V13.01,2013-02-04 04:13:00,
2013-02-04 00:14:00,76.6,66.1,29.96,South,180,0.0,0.0,70,0.00,,---,0.00,VWS V13.01,2013-02-04 04:14:00,
2013-02-04 00:15:00,76.6,66.1,29.96,South,180,0.0,0.0,70,0.00,,---,0.00,VWS V13.01,2013-02-04 04:15:00,
2013-02-04 00:16:00,76.6,66.1,29.96,ESE,112,0.0,0.0,70,0.00,,---,0.00,VWS V13.01,2013-02-04 04:16:00,
2013-02-04 00:17:00,76.6,66.1,29.96,SE,135,0.0,0.0,70,0.00,,---,0.00,VWS V13.01,2013-02-04 04:17:00,
2013-02-04 00:18:00,76.6,66.1,29.96,SSE,158,0.0,0.0,70,0.00,,---,0.00,VWS V13.01,2013-02-04 04:18:00,
2013-02-04 00:19:00,76.6,66.1,29.96,South,180,0.0,0.0,70,0.00,,---,0.00,VWS V13.01,2013-02-04 04:19:00,
2013-02-04 00:20:00,76.6,66.1,29.96,South,180,0.0,0.0,70,0.00,,---,0.00,VWS V13.01,2013-02-04 04:20:00,
2013-02-04 00:21:00,76.6,66.1,29.96,SSW,202,0.0,0.0,70,0.00,,---,0.00,VWS V13.01,2013-02-04 04:21:00,
2013-02-04 00:22:00,76.6,66.1,29.96,South,180,0.0,0.0,70,0.00,,---,0.00,VWS V13.01,2013-02-04 04:22:00,
2013-02-04 00:23:00,76.4,65.9,29.95,SE,135,0.0,0.0,70,0.00,,---,0.00,VWS V13.01,2013-02-04 04:23:00,
2013-02-04 00:24:00,76.4,65.9,29.95,South,180,0.0,0.0,70,0.00,,---,0.00,VWS V13.01,2013-02-04 04:24:00,
2013-02-04 00:25:00,76.4,65.9,29.95,SE,135,0.0,0.0,70,0.00,,---,0.00,VWS V13.01,2013-02-04 04:25:00,
2013-02-04 00:26:00,76.4,65.9,29.95,SE,135,0.0,0.0,70,0.00,,---,0.00,VWS V13.01,2013-02-04 04:26:00,
2013-02-04 00:27:00,76.4,65.9,29.95,SE,135,0.0,0.0,70,0.00,,---,0.00,VWS V13.01,2013-02-04 04:27:00,
2013-02-04 00:28:00,76.4,65.9,29.96,SE,135,0.0,0.0,70,0.00,,---,0.00,VWS V13.01,2013-02-04 04:28:00,
2013-02-04 00:29:00,76.4,65.9,29.96,ESE,112,0.0,0.0,70,0.00,,---,0.00,VWS V13.01,2013-02-04 04:29:00,
2013-02-04 00:30:00,76.4,65.9,29.96,SSE,158,0.0,0.0,70,0.00,,---,0.00,VWS V13.01,2013-02-04 04:30:00,
2013-02-04 00:31:00,76.4,65.9,29.95,East,90,0.0,0.0,70,0.00,,---,0.00,VWS V13.01,2013-02-04 04:31:00,
2013-02-04 00:32:00,76.4,65.9,29.95,SE,135,0.0,0.0,70,0.00,,---,0.00,VWS V13.01,2013-02-04 04:32:00,
2013-02-04 00:33:00,76.2,65.7,29.95,SE,135,0.0,0.0,70,0.00,,---,0.00,VWS V13.01,2013-02-04 04:33:00,
2013-02-04 00:34:00,76.4,65.9,29.95,ESE,112,0.0,0.0,70,0.00,,---,0.00,VWS V13.01,2013-02-04 04:34:00,
2013-02-04 00:35:00,76.2,65.7,29.95,ESE,112,0.0,0.0,70,0.00,,---,0.00,VWS V13.01,2013-02-04 04:35:00,
2013-02-04 00:36:00,76.2,65.7,29.95,South,180,0.0,0.0,70,0.00,,---,0.00,VWS V13.01,2013-02-04 04:36:00,
2013-02-04 00:37:00,76.2,65.7,29.95,South,180,0.0,0.0,70,0.00,,---,0.00,VWS V13.01,2013-02-04 04:37:00,
2013-02-04 00:38:00,76.2,65.7,29.95,South,180,0.0,0.0,70,0.00,,---,0.00,VWS V13.01,2013-02-04 04:38:00,
2013-02-04 00:39:00,76.2,65.7,29.95,South,180,0.0,0.0,70,0.00,,---,0.00,VWS V13.01,2013-02-04 04:39:00,
2013-02-04 00:40:00,76.2,65.7,29.95,SSE,158,0.0,0.0,70,0.00,,---,0.00,VWS V13.01,2013-02-04 04:40:00,
2013-02-04 00:41:00,76.2,65.7,29.95,SSE,158,0.0,0.0,70,0.00,,---,0.00,VWS V13.01,2013-02-04 04:41:00,
2013-02-04 00:42:00,76.2,65.7,29.95,South,180,0.0,0.0,70,0.00,,---,0.00,VWS V13.01,2013-02-04 04:42:00,
2013-02-04 00:43:00,76.2,65.7,29.95,SSE,158,0.0,0.0,70,0.00,,---,0.00,VWS V13.01,2013-02-04 04:43:00,
2013-02-04 00:44:00,76.2,65.7,29.95,SE,135,0.0,0.0,70,0.00,,---,0.00,VWS V13.01,2013-02-04 04:44:00,
2013-02-04 00:45:00,76.2,65.7,29.94,South,180,0.0,0.0,70,0.00,,---,0.00,VWS V13.01,2013-02-04 04:45:00,
2013-02-04 00:46:00,76.2,65.7,29.95,South,180,0.0,0.0,70,0.00,,---,0.00,VWS V13.01,2013-02-04 04:46:00,
2013-02-04 00:47:00,76.2,65.7,29.94,South,180,0.0,0.0,70,0.00,,---,0.00,VWS V13.01,2013-02-04 04:47:00,
2013-02-04 00:48:00,76.2,65.7,29.95,South,180,0.0,0.0,70,0.00,,---,0.00,VWS V13.01,2013-02-04 04:48:00,
2013-02-04 00:49:00,76.2,65.7,29.95,South,180,0.0,0.0,70,0.00,,---,0.00,VWS V13.01,2013-02-04 04:49:00,
2013-02-04 00:50:00,76.2,65.7,29.95,SSE,158,0.0,0.0,70,0.00,,---,0.00,VWS V13.01,2013-02-04 04:50:00,
2013-02-04 00:51:00,76.1,65.6,29.95,South,180,0.0,0.0,70,0.00,,---,0.00,VWS V13.01,2013-02-04 04:51:00,
2013-02-04 00:52:00,76.1,65.6,29.95,SE,135,0.0,0.0,70,0.00,,---,0.00,VWS V13.01,2013-02-04 04:52:00,
2013-02-04 00:53:00,76.1,65.6,29.94,SSW,202,0.0,0.0,70,0.00,,---,0.00,VWS V13.01,2013-02-04 04:53:00,
2013-02-04 00:54:00,75.9,65.4,29.94,South,180,0.0,0.0,70,0.00,,---,0.00,VWS V13.01,2013-02-04 04:54:00,
2013-02-04 00:55:00,76.1,65.6,29.94,South,180,0.0,0.0,70,0.00,,---,0.00,VWS V13.01,2013-02-04 04:55:00,
2013-02-04 00:56:00,75.9,65.4,29.94,South,180,0.0,0.0,70,0.00,,---,0.00,VWS V13.01,2013-02-04 04:56:00,
2013-02-04 00:57:00,75.9,65.4,29.94,South,180,0.0,0.0,70,0.00,,---,0.00,VWS V13.01,2013-02-04 04:57:00,
2013-02-04 00:58:00,75.9,65.4,29.94,South,180,0.0,0.0,70,0.00,,---,0.00,VWS V13.01,2013-02-04 04:58:00,
2013-02-04 00:59:00,75.9,65.4,29.94,SSE,158,0.0,0.0,70,0.00,,---,0.00,VWS V13.01,2013-02-04 04:59:00,
2013-02-04 01:00:00,75.9,65.4,29.94,South,180,0.0,0.0,70,0.00,,---,0.82,VWS V13.01,2013-02-04 05:00:00,
2013-02-04 01:01:00,75.9,65.4,29.94,SSE,158,0.0,0.0,70,0.00,,---,0.00,VWS V13.01,2013-02-04 05:01:00,
2013-02-04 01:02:00,75.9,65.4,29.94,South,180,0.0,0.0,70,0.00,,---,0.00,VWS V13.01,2013-02-04 05:02:00,
2013-02-04 01:03:00,75.9,65.8,29.94,South,180,0.0,0.0,71,0.00,,---,0.00,VWS V13.01,2013-02-04 05:03:00,
2013-02-04 01:04:00,75.9,65.8,29.94,South,180,0.0,0.0,71,0.00,,---,0.00,VWS V13.01,2013-02-04 05:04:00,
2013-02-04 01:05:00,75.9,65.8,29.94,South,180,0.0,0.0,71,0.00,,---,0.00,VWS V13.01,2013-02-04 05:05:00,
2013-02-04 01:06:00,75.9,65.8,29.94,South,180,0.0,0.0,71,0.00,,---,0.00,VWS V13.01,2013-02-04 05:06:00,
2013-02-04 01:07:00,75.9,65.8,29.94,SSE,158,0.0,0.0,71,0.00,,---,0.00,VWS V13.01,2013-02-04 05:07:00,
2013-02-04 01:08:00,75.9,65.8,29.94,SSE,158,0.0,0.0,71,0.00,,---,0.00,VWS V13.01,2013-02-04 05:08:00,
2013-02-04 01:09:00,75.9,65.8,29.94,SE,135,0.0,0.0,71,0.00,,---,0.00,VWS V13.01,2013-02-04 05:09:00,
2013-02-04 01:10:00,75.9,65.8,29.94,SE,135,0.0,0.0,71,0.00,,---,0.00,VWS V13.01,2013-02-04 05:10:00,
2013-02-04 01:11:00,75.9,65.8,29.94,SE,135,0.0,0.0,71,0.00,,---,0.00,VWS V13.01,2013-02-04 05:11:00,
2013-02-04 01:12:00,75.9,65.8,29.94,SE,135,0.0,0.0,71,0.00,,---,0.00,VWS V13.01,2013-02-04 05:12:00,
2013-02-04 01:13:00,75.7,65.6,29.93,SE,135,0.0,0.0,71,0.00,,---,0.00,VWS V13.01,2013-02-04 05:13:00,
2013-02-04 01:14:00,75.7,65.6,29.93,SSE,158,0.0,0.0,71,0.00,,---,0.00,VWS V13.01,2013-02-04 05:14:00,
2013-02-04 01:15:00,75.7,65.6,29.93,SSE,158,0.0,0.0,71,0.00,,---,0.00,VWS V13.01,2013-02-04 05:15:00,
2013-02-04 01:16:00,75.7,65.6,29.94,SSE,158,0.0,0.0,71,0.00,,---,0.00,VWS V13.01,2013-02-04 05:16:00,
2013-02-04 01:17:00,75.7,65.6,29.93,SSE,158,0.0,0.0,71,0.00,,---,0.00,VWS V13.01,2013-02-04 05:17:00,
2013-02-04 01:18:00,75.7,65.6,29.94,South,180,0.0,0.0,71,0.00,,---,0.00,VWS V13.01,2013-02-04 05:18:00,
2013-02-04 01:19:00,75.7,65.6,29.93,SE,135,0.0,0.0,71,0.00,,---,0.00,VWS V13.01,2013-02-04 05:19:00,
2013-02-04 01:20:00,75.7,65.6,29.93,SE,135,0.0,0.0,71,0.00,,---,0.00,VWS V13.01,2013-02-04 05:20:00,
2013-02-04 01:21:00,75.7,65.6,29.94,SE,135,0.0,0.0,71,0.00,,---,0.00,VWS V13.01,2013-02-04 05:21:00,
2013-02-04 01:22:00,75.7,65.6,29.94,SSE,158,0.0,0.0,71,0.00,,---,0.00,VWS V13.01,2013-02-04 05:22:00,
2013-02-04 01:23:00,75.7,65.6,29.94,SE,135,0.0,0.0,71,0.00,,---,0.00,VWS V13.01,2013-02-04 05:23:00,
2013-02-04 01:24:00,75.7,65.6,29.93,South,180,0.0,0.0,71,0.00,,---,0.00,VWS V13.01,2013-02-04 05:24:00,
2013-02-04 01:25:00,75.7,65.6,29.93,SE,135,0.0,0.0,71,0.00,,---,0.00,VWS V13.01,2013-02-04 05:25:00,
2013-02-04 01:26:00,75.7,65.6,29.93,South,180,0.0,0.0,71,0.00,,---,0.00,VWS V13.01,2013-02-04 05:26:00,
2013-02-04 01:27:00,75.7,65.6,29.93,SSE,158,0.0,0.0,71,0.00,,---,0.00,VWS V13.01,2013-02-04 05:27:00,
2013-02-04 01:28:00,75.7,65.6,29.93,SE,135,0.6,0.6,71,0.00,,---,0.00,VWS V13.01,2013-02-04 05:28:00,
2013-02-04 01:29:00,75.7,65.6,29.93,SSE,158,0.0,0.6,71,0.00,,---,0.00,VWS V13.01,2013-02-04 05:29:00,
2013-02-04 01:30:00,75.7,65.6,29.93,SE,135,0.0,0.0,71,0.00,,---,0.00,VWS V13.01,2013-02-04 05:30:00,
2013-02-04 01:31:00,75.7,65.6,29.92,SE,135,1.5,1.5,71,0.00,,---,0.00,VWS V13.01,2013-02-04 05:31:00,
2013-02-04 01:32:00,75.7,65.6,29.92,SE,135,0.0,0.0,71,0.00,,---,0.00,VWS V13.01,2013-02-04 05:32:00,
2013-02-04 01:33:00,75.7,65.6,29.92,SE,135,0.0,0.0,71,0.00,,---,0.00,VWS V13.01,2013-02-04 05:33:00,
2013-02-04 01:34:00,75.7,65.6,29.92,SE,135,2.2,2.2,71,0.00,,---,0.00,VWS V13.01,2013-02-04 05:34:00,
2013-02-04 01:35:00,75.7,65.6,29.92,SE,135,2.2,2.2,71,0.00,,---,0.00,VWS V13.01,2013-02-04 05:35:00,
2013-02-04 01:36:00,75.7,65.6,29.91,SSE,158,0.0,2.2,71,0.00,,---,0.00,VWS V13.01,2013-02-04 05:36:00,
2013-02-04 01:37:00,75.7,65.6,29.92,SE,135,1.5,1.5,71,0.00,,---,0.00,VWS V13.01,2013-02-04 05:37:00,
2013-02-04 01:38:00,75.5,65.4,29.92,SE,135,3.8,3.8,71,0.00,,---,0.00,VWS V13.01,2013-02-04 05:38:00,
2013-02-04 01:39:00,75.5,65.4,29.92,SSE,158,1.3,3.8,71,0.00,,---,0.00,VWS V13.01,2013-02-04 05:39:00,
2013-02-04 01:40:00,75.5,65.4,29.92,SSE,158,2.9,2.9,71,0.00,,---,0.00,VWS V13.01,2013-02-04 05:40:00,
2013-02-04 01:41:00,75.5,65.4,29.92,SSE,158,2.0,2.9,71,0.00,,---,0.00,VWS V13.01,2013-02-04 05:41:00,
2013-02-04 01:42:00,75.5,65.4,29.92,SSE,158,2.4,2.4,71,0.00,,---,0.00,VWS V13.01,2013-02-04 05:42:00,
2013-02-04 01:43:00,75.5,65.4,29.92,SSE,158,0.8,2.4,71,0.00,,---,0.00,VWS V13.01,2013-02-04 05:43:00,
2013-02-04 01:44:00,75.5,65.4,29.92,SE,135,0.0,0.8,71,0.00,,---,0.00,VWS V13.01,2013-02-04 05:44:00,
2013-02-04 01:45:00,75.5,65.8,29.91,SSE,158,2.0,2.0,72,0.00,,---,0.00,VWS V13.01,2013-02-04 05:45:00,
2013-02-04 01:46:00,75.5,65.8,29.91,SSE,158,0.0,2.0,72,0.00,,---,0.00,VWS V13.01,2013-02-04 05:46:00,
2013-02-04 01:47:00,75.3,65.7,29.91,SSE,158,1.3,1.3,72,0.00,,---,0.00,VWS V13.01,2013-02-04 05:47:00,
2013-02-04 01:48:00,75.3,65.7,29.91,SSE,158,2.0,2.0,72,0.00,,---,0.00,VWS V13.01,2013-02-04 05:48:00,
2013-02-04 01:49:00,75.3,65.7,29.91,SSE,158,2.0,2.0,72,0.00,,---,0.00,VWS V13.01,2013-02-04 05:49:00,
2013-02-04 01:50:00,75.3,65.7,29.91,SE,135,2.0,2.0,72,0.00,,---,0.00,VWS V13.01,2013-02-04 05:50:00,
2013-02-04 01:51:00,75.3,65.7,29.91,SSE,158,2.4,2.4,72,0.00,,---,0.00,VWS V13.01,2013-02-04 05:51:00,
2013-02-04 01:52:00,75.3,65.7,29.91,SSE,158,5.1,5.1,72,0.00,,---,0.00,VWS V13.01,2013-02-04 05:52:00,
2013-02-04 01:53:00,75.3,65.7,29.91,SSE,158,3.1,5.1,72,0.00,,---,0.00,VWS V13.01,2013-02-04 05:53:00,
2013-02-04 01:54:00,75.3,65.7,29.91,South,180,3.8,3.8,72,0.00,,---,0.00,VWS V13.01,2013-02-04 05:54:00,
2013-02-04 01:55:00,75.3,65.7,29.91,SE,135,2.4,2.4,72,0.00,,---,0.00,VWS V13.01,2013-02-04 05:55:00,
2013-02-04 01:56:00,75.3,65.7,29.91,SSE,158,2.2,2.4,72,0.00,,---,0.00,VWS V13.01,2013-02-04 05:56:00,
2013-02-04 01:57:00,75.0,65.4,29.91,SSW,202,0.0,0.0,72,0.00,,---,0.00,VWS V13.01,2013-02-04 05:57:00,
2013-02-04 01:58:00,75.0,65.4,29.91,SE,135,2.4,2.4,72,0.00,,---,0.00,VWS V13.01,2013-02-04 05:58:00,
2013-02-04 01:59:00,75.0,65.4,29.91,SE,135,0.6,2.4,72,0.00,,---,0.00,VWS V13.01,2013-02-04 05:59:00,
2013-02-04 02:00:00,75.0,65.4,29.91,SSE,158,2.4,2.4,72,0.00,,---,0.00,VWS V13.01,2013-02-04 06:00:00,
2013-02-04 02:01:00,75.0,65.4,29.91,SSE,158,0.0,0.0,72,0.00,,---,0.00,VWS V13.01,2013-02-04 06:01:00,
2013-02-04 02:02:00,75.0,65.4,29.91,SSE,158,2.0,2.0,72,0.00,,---,0.00,VWS V13.01,2013-02-04 06:02:00,
2013-02-04 02:03:00,75.0,65.4,29.91,South,180,1.5,2.0,72,0.00,,---,0.00,VWS V13.01,2013-02-04 06:03:00,
2013-02-04 02:04:00,75.0,65.4,29.91,South,180,1.3,1.5,72,0.00,,---,0.00,VWS V13.01,2013-02-04 06:04:00,
2013-02-04 02:05:00,75.0,65.4,29.91,South,180,2.9,2.9,72,0.00,,---,0.00,VWS V13.01,2013-02-04 06:05:00,
2013-02-04 02:06:00,75.0,65.8,29.91,SE,135,5.3,5.3,73,0.00,,---,0.00,VWS V13.01,2013-02-04 06:06:00,
2013-02-04 02:07:00,75.0,65.8,29.91,SE,135,2.9,5.3,73,0.00,,---,0.00,VWS V13.01,2013-02-04 06:07:00,
2013-02-04 02:08:00,75.0,65.8,29.91,South,180,3.3,3.3,73,0.00,,---,0.00,VWS V13.01,2013-02-04 06:08:00,
2013-02-04 02:09:00,74.8,65.6,29.91,SE,135,2.0,2.0,73,0.00,,---,0.00,VWS V13.01,2013-02-04 06:09:00,
2013-02-04 02:10:00,75.0,65.8,29.91,SSE,158,3.1,3.1,73,0.00,,---,0.00,VWS V13.01,2013-02-04 06:10:00,
2013-02-04 02:11:00,74.8,65.6,29.91,SSE,158,4.0,4.0,73,0.00,,---,0.00,VWS V13.01,2013-02-04 06:11:00,
2013-02-04 02:12:00,74.8,65.6,29.91,South,180,0.0,0.0,73,0.00,,---,0.00,VWS V13.01,2013-02-04 06:12:00,
2013-02-04 02:13:00,74.8,65.6,29.90,SE,135,1.7,1.7,73,0.00,,---,0.00,VWS V13.01,2013-02-04 06:13:00,
2013-02-04 02:14:00,74.8,65.6,29.91,South,180,0.8,1.7,73,0.00,,---,0.00,VWS V13.01,2013-02-04 06:14:00,
2013-02-04 02:15:00,74.8,65.6,29.90,SSE,158,0.0,0.8,73,0.00,,---,0.00,VWS V13.01,2013-02-04 06:15:00,
2013-02-04 02:16:00,74.8,65.6,29.90,South,180,1.7,1.7,73,0.00,,---,0.00,VWS V13.01,2013-02-04 06:16:00,
2013-02-04 02:17:00,74.8,65.6,29.90,ESE,112,1.1,1.1,73,0.00,,---,0.00,VWS V13.01,2013-02-04 06:17:00,
2013-02-04 02:18:00,74.8,65.6,29.90,South,180,2.6,2.6,73,0.00,,---,0.00,VWS V13.01,2013-02-04 06:18:00,
2013-02-04 02:19:00,74.8,65.6,29.90,SSW,202,0.0,2.6,73,0.00,,---,0.00,VWS V13.01,2013-02-04 06:19:00,
2013-02-04 02:20:00,74.8,65.6,29.90,South,180,2.2,2.2,73,0.00,,---,0.00,VWS V13.01,2013-02-04 06:20:00,
2013-02-04 02:21:00,74.8,65.6,29.90,SSW,202,0.0,0.0,73,0.00,,---,0.00,VWS V13.01,2013-02-04 06:21:00,
2013-02-04 02:22:00,74.8,65.6,29.90,South,180,0.0,0.0,73,0.00,,---,0.00,VWS V13.01,2013-02-04 06:22:00,
2013-02-04 02:23:00,74.8,65.6,29.90,South,180,1.5,1.5,73,0.00,,---,0.00,VWS V13.01,2013-02-04 06:23:00,
2013-02-04 02:24:00,74.8,65.6,29.90,South,180,3.3,3.3,73,0.00,,---,0.00,VWS V13.01,2013-02-04 06:24:00,
2013-02-04 02:25:00,74.8,65.6,29.90,South,180,1.5,3.3,73,0.00,,---,0.00,VWS V13.01,2013-02-04 06:25:00,
2013-02-04 02:26:00,74.8,65.6,29.90,SSE,158,2.0,2.0,73,0.00,,---,0.00,VWS V13.01,2013-02-04 06:26:00,
2013-02-04 02:27:00,74.8,65.6,29.90,SSE,158,3.5,3.5,73,0.00,,---,0.00,VWS V13.01,2013-02-04 06:27:00,
2013-02-04 02:28:00,74.6,65.4,29.90,SSE,158,0.0,3.5,73,0.00,,---,0.00,VWS V13.01,2013-02-04 06:28:00,
2013-02-04 02:29:00,74.6,65.4,29.90,SE,135,0.0,0.0,73,0.00,,---,0.00,VWS V13.01,2013-02-04 06:29:00,
2013-02-04 02:30:00,74.6,65.4,29.90,South,180,1.5,1.5,73,0.00,,---,0.00,VWS V13.01,2013-02-04 06:30:00,
2013-02-04 02:31:00,74.6,65.4,29.90,South,180,0.0,1.5,73,0.00,,---,0.00,VWS V13.01,2013-02-04 06:31:00,
2013-02-04 02:32:00,74.4,65.2,29.90,SSE,158,0.0,0.0,73,0.00,,---,0.00,VWS V13.01,2013-02-04 06:32:00,
2013-02-04 02:33:00,74.4,65.2,29.90,SSE,158,1.3,1.3,73,0.00,,---,0.00,VWS V13.01,2013-02-04 06:33:00,
2013-02-04 02:34:00,74.4,65.2,29.90,SSE,158,1.5,1.5,73,0.00,,---,0.00,VWS V13.01,2013-02-04 06:34:00,
2013-02-04 02:35:00,74.4,65.2,29.90,SSE,158,0.0,1.5,73,0.00,,---,0.00,VWS V13.01,2013-02-04 06:35:00,
2013-02-04 02:36:00,74.4,65.2,29.90,South,180,0.0,0.0,73,0.00,,---,0.00,VWS V13.01,2013-02-04 06:36:00,
2013-02-04 02:37:00,74.4,65.2,29.90,SE,135,0.0,0.0,73,0.00,,---,0.00,VWS V13.01,2013-02-04 06:37:00,
2013-02-04 02:38:00,74.4,65.2,29.90,SSE,158,0.0,0.0,73,0.00,,---,0.00,VWS V13.01,2013-02-04 06:38:00,
2013-02-04 02:39:00,74.4,65.2,29.90,South,180,0.0,0.0,73,0.00,,---,0.00,VWS V13.01,2013-02-04 06:39:00,
2013-02-04 02:40:00,74.4,65.2,29.90,SE,135,0.0,0.0,73,0.00,,---,0.00,VWS V13.01,2013-02-04 06:40:00,
2013-02-04 02:41:00,74.4,65.2,29.90,SE,135,0.0,0.0,73,0.00,,---,0.00,VWS V13.01,2013-02-04 06:41:00,
2013-02-04 02:42:00,74.4,65.2,29.90,SSE,158,1.5,1.5,73,0.00,,---,0.00,VWS V13.01,2013-02-04 06:42:00,
2013-02-04 02:43:00,74.4,65.2,29.90,SSE,158,1.5,1.5,73,0.00,,---,0.00,VWS V13.01,2013-02-04 06:43:00,
2013-02-04 02:44:00,74.4,65.2,29.90,SSE,158,0.0,0.0,73,0.00,,---,0.00,VWS V13.01,2013-02-04 06:44:00,
2013-02-04 02:45:00,74.4,65.2,29.90,SE,135,1.3,1.3,73,0.00,,---,0.00,VWS V13.01,2013-02-04 06:45:00,
2013-02-04 02:46:00,74.4,65.2,29.90,SSW,202,0.0,0.0,73,0.00,,---,0.00,VWS V13.01,2013-02-04 06:46:00,
2013-02-04 02:47:00,74.4,65.2,29.90,SE,135,3.5,3.5,73,0.00,,---,0.00,VWS V13.01,2013-02-04 06:47:00,
2013-02-04 02:48:00,74.4,65.2,29.90,South,180,0.0,3.5,73,0.00,,---,0.00,VWS V13.01,2013-02-04 06:48:00,
2013-02-04 02:49:00,74.4,65.2,29.90,South,180,0.0,0.0,73,0.00,,---,0.00,VWS V13.01,2013-02-04 06:49:00,
2013-02-04 02:50:00,74.4,65.2,29.90,SE,135,4.0,4.0,73,0.00,,---,0.00,VWS V13.01,2013-02-04 06:50:00,
2013-02-04 02:51:00,74.3,65.1,29.90,ESE,112,2.9,2.9,73,0.00,,---,0.00,VWS V13.01,2013-02-04 06:51:00,
2013-02-04 02:52:00,74.3,65.1,29.90,SSE,158,1.1,2.9,73,0.00,,---,0.00,VWS V13.01,2013-02-04 06:52:00,
2013-02-04 02:53:00,74.3,65.1,29.90,South,180,3.1,3.1,73,0.00,,---,0.00,VWS V13.01,2013-02-04 06:53:00,
2013-02-04 02:54:00,74.3,65.1,29.90,SE,135,0.0,0.0,73,0.00,,---,0.00,VWS V13.01,2013-02-04 06:54:00,
2013-02-04 02:55:00,74.3,65.1,29.90,SSE,158,2.2,2.2,73,0.00,,---,0.00,VWS V13.01,2013-02-04 06:55:00,
2013-02-04 02:56:00,74.3,65.1,29.90,SE,135,1.3,2.2,73,0.00,,---,0.00,VWS V13.01,2013-02-04 06:56:00,
2013-02-04 02:57:00,74.1,64.9,29.90,SSE,158,0.0,0.0,73,0.00,,---,0.00,VWS V13.01,2013-02-04 06:57:00,
2013-02-04 02:58:00,74.1,64.9,29.90,SE,135,0.0,0.0,73,0.00,,---,0.00,VWS V13.01,2013-02-04 06:58:00,
2013-02-04 02:59:00,74.1,64.9,29.90,SSW,202,1.7,1.7,73,0.00,,---,0.00,VWS V13.01,2013-02-04 06:59:00,
2013-02-04 03:00:00,74.1,64.9,29.90,SE,135,0.0,1.7,73,0.00,,---,0.82,VWS V13.01,2013-02-04 07:00:00,
2013-02-04 03:01:00,74.1,64.9,29.90,SSE,158,0.0,0.0,73,0.00,,---,0.00,VWS V13.01,2013-02-04 07:01:00,
2013-02-04 03:02:00,74.1,64.9,29.90,South,180,0.0,0.0,73,0.00,,---,0.00,VWS V13.01,2013-02-04 07:02:00,
2013-02-04 03:03:00,74.1,64.9,29.90,South,180,0.0,0.0,73,0.00,,---,0.00,VWS V13.01,2013-02-04 07:03:00,
2013-02-04 03:04:00,74.1,64.9,29.90,South,180,0.0,0.0,73,0.00,,---,0.00,VWS V13.01,2013-02-04 07:04:00,
2013-02-04 03:05:00,74.1,64.9,29.90,SSW,202,0.0,0.0,73,0.00,,---,0.00,VWS V13.01,2013-02-04 07:05:00,
2013-02-04 03:06:00,74.1,64.9,29.89,SSE,158,0.0,0.0,73,0.00,,---,0.00,VWS V13.01,2013-02-04 07:06:00,
2013-02-04 03:07:00,74.1,64.9,29.89,SSE,158,0.0,0.0,73,0.00,,---,0.00,VWS V13.01,2013-02-04 07:07:00,
2013-02-04 03:08:00,74.1,64.9,29.90,SSE,158,0.0,0.0,73,0.00,,---,0.00,VWS V13.01,2013-02-04 07:08:00,
2013-02-04 03:09:00,74.1,64.9,29.90,South,180,0.0,0.0,73,0.00,,---,0.00,VWS V13.01,2013-02-04 07:09:00,
2013-02-04 03:10:00,74.1,64.9,29.89,South,180,0.0,0.0,73,0.00,,---,0.00,VWS V13.01,2013-02-04 07:10:00,
2013-02-04 03:11:00,74.1,64.9,29.89,South,180,0.0,0.0,73,0.00,,---,0.00,VWS V13.01,2013-02-04 07:11:00,
2013-02-04 03:12:00,74.1,64.9,29.89,South,180,0.0,0.0,73,0.00,,---,0.00,VWS V13.01,2013-02-04 07:12:00,
2013-02-04 03:13:00,74.1,64.9,29.89,South,180,0.0,0.0,73,0.00,,---,0.00,VWS V13.01,2013-02-04 07:13:00,
2013-02-04 03:14:00,74.1,64.9,29.89,SSW,202,2.0,2.0,73,0.00,,---,0.00,VWS V13.01,2013-02-04 07:14:00,
2013-02-04 03:15:00,73.9,64.7,29.89,SSE,158,0.0,2.0,73,0.00,,---,0.00,VWS V13.01,2013-02-04 07:15:00,
2013-02-04 03:16:00,73.9,64.7,29.90,South,180,0.0,0.0,73,0.00,,---,0.00,VWS V13.01,2013-02-04 07:16:00,
2013-02-04 03:17:00,73.9,64.7,29.90,SSE,158,0.0,0.0,73,0.00,,---,0.00,VWS V13.01,2013-02-04 07:17:00,
2013-02-04 03:18:00,73.9,64.7,29.90,SSE,158,0.0,0.0,73,0.00,,---,0.00,VWS V13.01,2013-02-04 07:18:00,
2013-02-04 03:19:00,73.9,64.7,29.90,SE,135,0.0,0.0,73,0.00,,---,0.00,VWS V13.01,2013-02-04 07:19:00,
2013-02-04 03:20:00,73.9,64.7,29.90,SE,135,0.0,0.0,73,0.00,,---,0.00,VWS V13.01,2013-02-04 07:20:00,
2013-02-04 03:21:00,73.9,64.7,29.90,South,180,0.0,0.0,73,0.00,,---,0.00,VWS V13.01,2013-02-04 07:21:00,
2013-02-04 03:22:00,73.9,64.7,29.90,SSE,158,0.0,0.0,73,0.00,,---,0.00,VWS V13.01,2013-02-04 07:22:00,
2013-02-04 03:23:00,73.9,64.7,29.90,South,180,0.0,0.0,73,0.00,,---,0.00,VWS V13.01,2013-02-04 07:23:00,
2013-02-04 03:24:00,73.9,64.7,29.90,SE,135,0.8,0.8,73,0.00,,---,0.00,VWS V13.01,2013-02-04 07:24:00,
2013-02-04 03:25:00,73.9,64.7,29.90,South,180,0.0,0.8,73,0.00,,---,0.00,VWS V13.01,2013-02-04 07:25:00,
2013-02-04 03:26:00,73.9,64.7,29.90,South,180,0.0,0.0,73,0.00,,---,0.00,VWS V13.01,2013-02-04 07:26:00,
2013-02-04 03:27:00,73.9,64.7,29.90,South,180,1.5,1.5,73,0.00,,---,0.00,VWS V13.01,2013-02-04 07:27:00,
2013-02-04 03:28:00,73.9,64.7,29.90,South,180,0.0,1.5,73,0.00,,---,0.00,VWS V13.01,2013-02-04 07:28:00,
2013-02-04 03:29:00,73.9,64.7,29.90,SSE,158,0.0,0.0,73,0.00,,---,0.00,VWS V13.01,2013-02-04 07:29:00,
2013-02-04 03:30:00,73.9,64.7,29.90,South,180,0.0,0.0,73,0.00,,---,0.00,VWS V13.01,2013-02-04 07:30:00,
2013-02-04 03:31:00,73.7,64.5,29.90,SSE,158,2.4,2.4,73,0.00,,---,0.00,VWS V13.01,2013-02-04 07:31:00,
2013-02-04 03:32:00,73.7,64.5,29.90,South,180,1.3,2.4,73,0.00,,---,0.00,VWS V13.01,2013-02-04 07:32:00,
2013-02-04 03:33:00,73.7,64.5,29.90,SSW,202,2.4,2.4,73,0.00,,---,0.00,VWS V13.01,2013-02-04 07:33:00,
2013-02-04 03:34:00,73.7,64.5,29.90,South,180,0.0,2.4,73,0.00,,---,0.00,VWS V13.01,2013-02-04 07:34:00,
2013-02-04 03:35:00,73.7,64.5,29.90,SE,135,0.0,0.0,73,0.00,,---,0.00,VWS V13.01,2013-02-04 07:35:00,
2013-02-04 03:36:00,73.7,64.5,29.90,South,180,0.0,0.0,73,0.00,,---,0.00,VWS V13.01,2013-02-04 07:36:00,
2013-02-04 03:37:00,73.7,64.5,29.90,South,180,0.0,0.0,73,0.00,,---,0.00,VWS V13.01,2013-02-04 07:37:00,
2013-02-04 03:38:00,73.7,64.5,29.90,South,180,0.8,0.8,73,0.00,,---,0.00,VWS V13.01,2013-02-04 07:38:00,
2013-02-04 03:39:00,73.7,64.5,29.90,South,180,0.0,0.8,73,0.00,,---,0.00,VWS V13.01,2013-02-04 07:39:00,
2013-02-04 03:40:00,73.7,64.5,29.90,South,180,0.0,0.0,73,0.00,,---,0.00,VWS V13.01,2013-02-04 07:40:00,
2013-02-04 03:41:00,73.7,64.5,29.90,SSW,202,0.0,0.0,73,0.00,,---,0.00,VWS V13.01,2013-02-04 07:41:00,
2013-02-04 03:42:00,73.7,64.5,29.90,SSE,158,0.0,0.0,73,0.00,,---,0.00,VWS V13.01,2013-02-04 07:42:00,
2013-02-04 03:43:00,73.7,64.5,29.90,SSE,158,0.0,0.0,73,0.00,,---,0.00,VWS V13.01,2013-02-04 07:43:00,
2013-02-04 03:44:00,73.7,64.5,29.90,South,180,0.0,0.0,73,0.00,,---,0.00,VWS V13.01,2013-02-04 07:44:00,
2013-02-04 03:45:00,73.7,64.5,29.89,South,180,0.0,0.0,73,0.00,,---,0.00,VWS V13.01,2013-02-04 07:45:00,
2013-02-04 03:46:00,73.7,64.5,29.89,SSE,158,1.1,1.1,73,0.00,,---,0.00,VWS V13.01,2013-02-04 07:46:00,
2013-02-04 03:47:00,73.7,64.5,29.89,South,180,0.0,1.1,73,0.00,,---,0.00,VWS V13.01,2013-02-04 07:47:00,
2013-02-04 03:48:00,73.5,64.3,29.89,South,180,0.0,0.0,73,0.00,,---,0.00,VWS V13.01,2013-02-04 07:48:00,
2013-02-04 03:49:00,73.5,64.3,29.89,South,180,0.0,0.0,73,0.00,,---,0.00,VWS V13.01,2013-02-04 07:49:00,
2013-02-04 03:50:00,73.7,64.5,29.89,SSE,158,0.0,0.0,73,0.00,,---,0.00,VWS V13.01,2013-02-04 07:50:00,
2013-02-04 03:51:00,73.5,64.3,29.89,SSW,202,0.0,0.0,73,0.00,,---,0.00,VWS V13.01,2013-02-04 07:51:00,
2013-02-04 03:52:00,73.5,64.3,29.90,South,180,0.0,0.0,73,0.00,,---,0.00,VWS V13.01,2013-02-04 07:52:00,
2013-02-04 03:53:00,73.5,64.3,29.89,SSW,202,0.0,0.0,73,0.00,,---,0.00,VWS V13.01,2013-02-04 07:53:00,
2013-02-04 03:54:00,73.5,64.3,29.89,SSW,202,0.0,0.0,73,0.00,,---,0.00,VWS V13.01,2013-02-04 07:54:00,
2013-02-04 03:55:00,73.5,64.3,29.89,South,180,0.0,0.0,73,0.00,,---,0.00,VWS V13.01,2013-02-04 07:55:00,
2013-02-04 03:56:00,73.5,64.3,29.90,South,180,0.0,0.0,73,0.00,,---,0.00,VWS V13.01,2013-02-04 07:56:00,
2013-02-04 03:57:00,73.5,64.3,29.90,South,180,0.0,0.0,73,0.00,,---,0.00,VWS V13.01,2013-02-04 07:57:00,
2013-02-04 03:58:00,73.5,64.3,29.90,SSW,202,0.0,0.0,73,0.00,,---,0.00,VWS V13.01,2013-02-04 07:58:00,
2013-02-04 03:59:00,73.5,64.3,29.90,SW,225,0.0,0.0,73,0.00,,---,0.00,VWS V13.01,2013-02-04 07:59:00,
2013-02-04 04:00:00,73.5,64.3,29.90,South,180,0.0,0.0,73,0.00,,---,0.00,VWS V13.01,2013-02-04 08:00:00,
2013-02-04 04:01:00,73.5,64.3,29.90,South,180,0.0,0.0,73,0.00,,---,0.00,VWS V13.01,2013-02-04 08:01:00,
2013-02-04 04:02:00,73.5,64.3,29.90,South,180,0.0,0.0,73,0.00,,---,0.00,VWS V13.01,2013-02-04 08:02:00,
2013-02-04 04:03:00,73.5,64.7,29.90,South,180,0.0,0.0,74,0.00,,---,0.00,VWS V13.01,2013-02-04 08:03:00,
2013-02-04 04:04:00,73.5,64.3,29.90,South,180,0.0,0.0,73,0.00,,---,0.00,VWS V13.01,2013-02-04 08:04:00,
2013-02-04 04:05:00,73.5,64.7,29.90,South,180,0.0,0.0,74,0.00,,---,0.00,VWS V13.01,2013-02-04 08:05:00,
2013-02-04 04:06:00,73.5,64.7,29.90,South,180,0.0,0.0,74,0.00,,---,0.00,VWS V13.01,2013-02-04 08:06:00,
2013-02-04 04:07:00,73.5,64.7,29.90,SSE,158,0.0,0.0,74,0.00,,---,0.00,VWS V13.01,2013-02-04 08:07:00,
2013-02-04 04:08:00,73.5,64.7,29.90,South,180,0.0,0.0,74,0.00,,---,0.00,VWS V13.01,2013-02-04 08:08:00,
2013-02-04 04:09:00,73.4,64.6,29.90,South,180,0.0,0.0,74,0.00,,---,0.00,VWS V13.01,2013-02-04 08:09:00,
2013-02-04 04:10:00,73.4,64.6,29.90,WSW,248,0.0,0.0,74,0.00,,---,0.00,VWS V13.01,2013-02-04 08:10:00,
2013-02-04 04:11:00,73.4,64.6,29.90,WSW,248,0.0,0.0,74,0.00,,---,0.00,VWS V13.01,2013-02-04 08:11:00,
2013-02-04 04:12:00,73.4,64.6,29.90,SW,225,0.0,0.0,74,0.00,,---,0.00,VWS V13.01,2013-02-04 08:12:00,
2013-02-04 04:13:00,73.4,64.6,29.90,SSW,202,0.0,0.0,74,0.00,,---,0.00,VWS V13.01,2013-02-04 08:13:00,
2013-02-04 04:14:00,73.4,64.6,29.90,SSW,202,0.0,0.0,74,0.00,,---,0.00,VWS V13.01,2013-02-04 08:14:00,
2013-02-04 04:15:00,73.4,64.6,29.90,South,180,0.0,0.0,74,0.00,,---,0.00,VWS V13.01,2013-02-04 08:15:00,
2013-02-04 04:16:00,73.4,64.6,29.90,SSW,202,0.0,0.0,74,0.00,,---,0.00,VWS V13.01,2013-02-04 08:16:00,
2013-02-04 04:17:00,73.4,64.6,29.90,South,180,0.0,0.0,74,0.00,,---,0.00,VWS V13.01,2013-02-04 08:17:00,
2013-02-04 04:18:00,73.2,64.4,29.90,SSW,202,0.0,0.0,74,0.00,,---,0.00,VWS V13.01,2013-02-04 08:18:00,
2013-02-04 04:19:00,73.2,64.4,29.90,South,180,0.0,0.0,74,0.00,,---,0.00,VWS V13.01,2013-02-04 08:19:00,
2013-02-04 04:20:00,73.2,64.4,29.90,SW,225,0.0,0.0,74,0.00,,---,0.00,VWS V13.01,2013-02-04 08:20:00,
2013-02-04 04:21:00,73.2,64.4,29.90,SSW,202,0.0,0.0,74,0.00,,---,0.00,VWS V13.01,2013-02-04 08:21:00,
2013-02-04 04:22:00,73.2,64.4,29.90,SSW,202,0.0,0.0,74,0.00,,---,0.00,VWS V13.01,2013-02-04 08:22:00,
2013-02-04 04:23:00,73.2,64.4,29.90,SSW,202,0.0,0.0,74,0.00,,---,0.00,VWS V13.01,2013-02-04 08:23:00,
2013-02-04 04:24:00,73.2,64.4,29.90,South,180,0.0,0.0,74,0.00,,---,0.00,VWS V13.01,2013-02-04 08:24:00,
2013-02-04 04:25:00,73.2,64.4,29.90,SSW,202,0.0,0.0,74,0.00,,---,0.00,VWS V13.01,2013-02-04 08:25:00,
2013-02-04 04:26:00,73.2,64.4,29.90,South,180,0.0,0.0,74,0.00,,---,0.00,VWS V13.01,2013-02-04 08:26:00,
2013-02-04 04:27:00,73.2,64.4,29.90,SSW,202,0.0,0.0,74,0.00,,---,0.00,VWS V13.01,2013-02-04 08:27:00,
2013-02-04 04:28:00,73.2,64.4,29.90,SSW,202,0.0,0.0,74,0.00,,---,0.00,VWS V13.01,2013-02-04 08:28:00,
2013-02-04 04:29:00,73.2,64.4,29.90,South,180,0.0,0.0,74,0.00,,---,0.00,VWS V13.01,2013-02-04 08:29:00,
2013-02-04 04:30:00,73.2,64.4,29.90,SSW,202,0.0,0.0,74,0.00,,---,0.00,VWS V13.01,2013-02-04 08:30:00,
2013-02-04 04:31:00,73.2,64.4,29.90,SSW,202,0.0,0.0,74,0.00,,---,0.00,VWS V13.01,2013-02-04 08:31:00,
2013-02-04 04:32:00,73.2,64.4,29.90,SSW,202,0.0,0.0,74,0.00,,---,0.00,VWS V13.01,2013-02-04 08:32:00,
2013-02-04 04:33:00,73.2,64.4,29.90,South,180,0.0,0.0,74,0.00,,---,0.00,VWS V13.01,2013-02-04 08:33:00,
2013-02-04 04:34:00,73.2,64.4,29.91,SSE,158,0.0,0.0,74,0.00,,---,0.00,VWS V13.01,2013-02-04 08:34:00,
2013-02-04 04:35:00,73.2,64.4,29.90,WSW,248,0.0,0.0,74,0.00,,---,0.00,VWS V13.01,2013-02-04 08:35:00,
2013-02-04 04:36:00,73.2,64.4,29.91,WSW,248,0.0,0.0,74,0.00,,---,0.00,VWS V13.01,2013-02-04 08:36:00,
2013-02-04 04:37:00,73.2,64.4,29.91,SSW,202,0.0,0.0,74,0.00,,---,0.00,VWS V13.01,2013-02-04 08:37:00,
2013-02-04 04:38:00,73.2,64.4,29.90,South,180,0.0,0.0,74,0.00,,---,0.00,VWS V13.01,2013-02-04 08:38:00,
2013-02-04 04:39:00,73.2,64.4,29.90,WSW,248,0.0,0.0,74,0.00,,---,0.00,VWS V13.01,2013-02-04 08:39:00,
2013-02-04 04:40:00,73.2,64.4,29.90,SSE,158,0.0,0.0,74,0.00,,---,0.00,VWS V13.01,2013-02-04 08:40:00,
2013-02-04 04:41:00,73.2,64.4,29.90,SSW,202,0.0,0.0,74,0.00,,---,0.00,VWS V13.01,2013-02-04 08:41:00,
2013-02-04 04:42:00,73.2,64.4,29.90,SSW,202,0.0,0.0,74,0.00,,---,0.00,VWS V13.01,2013-02-04 08:42:00,
2013-02-04 04:43:00,73.2,64.4,29.90,SW,225,0.0,0.0,74,0.00,,---,0.00,VWS V13.01,2013-02-04 08:43:00,
2013-02-04 04:44:00,73.2,64.4,29.90,SW,225,0.0,0.0,74,0.00,,---,0.00,VWS V13.01,2013-02-04 08:44:00,
2013-02-04 04:45:00,73.2,64.4,29.91,WSW,248,0.0,0.0,74,0.00,,---,0.00,VWS V13.01,2013-02-04 08:45:00,
2013-02-04 04:46:00,73.2,64.4,29.91,WSW,248,0.0,0.0,74,0.00,,---,0.00,VWS V13.01,2013-02-04 08:46:00,
2013-02-04 04:47:00,73.2,64.4,29.91,SSW,202,0.0,0.0,74,0.00,,---,0.00,VWS V13.01,2013-02-04 08:47:00,
2013-02-04 04:48:00,73.2,64.4,29.91,West,270,0.0,0.0,74,0.00,,---,0.00,VWS V13.01,2013-02-04 08:48:00,
2013-02-04 04:49:00,73.2,64.4,29.91,West,270,0.0,0.0,74,0.00,,---,0.00,VWS V13.01,2013-02-04 08:49:00,
2013-02-04 04:50:00,73.2,64.4,29.91,West,270,0.0,0.0,74,0.00,,---,0.00,VWS V13.01,2013-02-04 08:50:00,
2013-02-04 04:51:00,73.0,64.2,29.91,West,270,0.0,0.0,74,0.00,,---,0.00,VWS V13.01,2013-02-04 08:51:00,
2013-02-04 04:52:00,73.0,64.2,29.91,West,270,0.0,0.0,74,0.00,,---,0.00,VWS V13.01,2013-02-04 08:52:00,
2013-02-04 04:53:00,73.0,64.2,29.91,West,270,0.0,0.0,74,0.00,,---,0.00,VWS V13.01,2013-02-04 08:53:00,
2013-02-04 04:54:00,73.0,64.2,29.91,WNW,292,0.0,0.0,74,0.00,,---,0.00,VWS V13.01,2013-02-04 08:54:00,
2013-02-04 04:55:00,73.0,64.2,29.91,SSW,202,0.0,0.0,74,0.00,,---,0.00,VWS V13.01,2013-02-04 08:55:00,
2013-02-04 04:56:00,73.0,64.2,29.91,SSW,202,0.0,0.0,74,0.00,,---,0.00,VWS V13.01,2013-02-04 08:56:00,
2013-02-04 04:57:00,73.0,64.2,29.91,SW,225,0.0,0.0,74,0.00,,---,0.00,VWS V13.01,2013-02-04 08:57:00,
2013-02-04 04:58:00,73.0,64.2,29.91,SSW,202,0.0,0.0,74,0.00,,---,0.00,VWS V13.01,2013-02-04 08:58:00,
2013-02-04 04:59:00,73.0,64.2,29.91,SSW,202,0.0,0.0,74,0.00,,---,0.00,VWS V13.01,2013-02-04 08:59:00,
2013-02-04 05:00:00,73.0,64.2,29.91,South,180,0.0,0.0,74,0.00,,---,0.82,VWS V13.01,2013-02-04 09:00:00,
2013-02-04 05:01:00,73.0,64.2,29.91,SSW,202,0.0,0.0,74,0.00,,---,0.00,VWS V13.01,2013-02-04 09:01:00,
2013-02-04 05:02:00,72.8,64.0,29.91,WSW,248,0.0,0.0,74,0.00,,---,0.00,VWS V13.01,2013-02-04 09:02:00,
2013-02-04 05:03:00,73.0,64.2,29.91,WSW,248,0.0,0.0,74,0.00,,---,0.00,VWS V13.01,2013-02-04 09:03:00,
2013-02-04 05:04:00,73.0,64.2,29.91,SSW,202,0.0,0.0,74,0.00,,---,0.00,VWS V13.01,2013-02-04 09:04:00,
2013-02-04 05:05:00,73.0,64.2,29.91,West,270,0.0,0.0,74,0.00,,---,0.00,VWS V13.01,2013-02-04 09:05:00,
2013-02-04 05:06:00,73.0,64.2,29.91,SW,225,0.0,0.0,74,0.00,,---,0.00,VWS V13.01,2013-02-04 09:06:00,
2013-02-04 05:07:00,73.0,64.2,29.91,West,270,0.0,0.0,74,0.00,,---,0.00,VWS V13.01,2013-02-04 09:07:00,
2013-02-04 05:08:00,73.0,64.2,29.91,SW,225,0.0,0.0,74,0.00,,---,0.00,VWS V13.01,2013-02-04 09:08:00,
2013-02-04 05:09:00,73.0,64.2,29.91,WSW,248,0.0,0.0,74,0.00,,---,0.00,VWS V13.01,2013-02-04 09:09:00,
2013-02-04 05:10:00,73.0,64.2,29.91,West,270,0.0,0.0,74,0.00,,---,0.00,VWS V13.01,2013-02-04 09:10:00,
2013-02-04 05:11:00,72.8,64.0,29.91,WSW,248,0.0,0.0,74,0.00,,---,0.00,VWS V13.01,2013-02-04 09:11:00,
2013-02-04 05:12:00,72.8,64.0,29.91,SW,225,0.0,0.0,74,0.00,,---,0.00,VWS V13.01,2013-02-04 09:12:00,
2013-02-04 05:13:00,72.8,64.0,29.91,SW,225,0.0,0.0,74,0.00,,---,0.00,VWS V13.01,2013-02-04 09:13:00,
2013-02-04 05:14:00,72.8,64.0,29.91,SW,225,0.0,0.0,74,0.00,,---,0.00,VWS V13.01,2013-02-04 09:14:00,
2013-02-04 05:15:00,72.8,64.0,29.91,West,270,0.0,0.0,74,0.00,,---,0.00,VWS V13.01,2013-02-04 09:15:00,
2013-02-04 05:16:00,72.8,64.0,29.91,West,270,0.0,0.0,74,0.00,,---,0.00,VWS V13.01,2013-02-04 09:16:00,
2013-02-04 05:17:00,72.8,64.0,29.91,WNW,292,0.0,0.0,74,0.00,,---,0.00,VWS V13.01,2013-02-04 09:17:00,
2013-02-04 05:18:00,72.8,64.0,29.91,WNW,292,0.0,0.0,74,0.00,,---,0.00,VWS V13.01,2013-02-04 09:18:00,
2013-02-04 05:19:00,72.8,64.0,29.91,WNW,292,0.0,0.0,74,0.00,,---,0.00,VWS V13.01,2013-02-04 09:19:00,
2013-02-04 05:20:00,72.8,64.0,29.91,West,270,0.0,0.0,74,0.00,,---,0.00,VWS V13.01,2013-02-04 09:20:00,
2013-02-04 05:21:00,72.8,64.0,29.92,West,270,0.0,0.0,74,0.00,,---,0.00,VWS V13.01,2013-02-04 09:21:00,
2013-02-04 05:22:00,72.8,64.0,29.92,WSW,248,0.0,0.0,74,0.00,,---,0.00,VWS V13.01,2013-02-04 09:22:00,
2013-02-04 05:23:00,72.8,64.4,29.92,West,270,0.0,0.0,75,0.00,,---,0.00,VWS V13.01,2013-02-04 09:23:00,
2013-02-04 05:24:00,72.8,64.4,29.92,WNW,292,0.0,0.0,75,0.00,,---,0.00,VWS V13.01,2013-02-04 09:24:00,
2013-02-04 05:25:00,72.8,64.4,29.92,WNW,292,0.0,0.0,75,0.00,,---,0.00,VWS V13.01,2013-02-04 09:25:00,
2013-02-04 05:26:00,72.8,64.4,29.92,West,270,0.0,0.0,75,0.00,,---,0.00,VWS V13.01,2013-02-04 09:26:00,
2013-02-04 05:27:00,73.0,64.6,29.92,WSW,248,0.0,0.0,75,0.00,,---,0.00,VWS V13.01,2013-02-04 09:27:00,
2013-02-04 05:28:00,72.8,64.4,29.92,NW,315,0.0,0.0,75,0.00,,---,0.00,VWS V13.01,2013-02-04 09:28:00,
2013-02-04 05:29:00,72.8,64.4,29.92,West,270,0.0,0.0,75,0.00,,---,0.00,VWS V13.01,2013-02-04 09:29:00,
2013-02-04 05:30:00,73.0,64.6,29.92,NW,315,0.0,0.0,75,0.00,,---,0.00,VWS V13.01,2013-02-04 09:30:00,
2013-02-04 05:31:00,73.0,64.6,29.92,NW,315,0.0,0.0,75,0.00,,---,0.00,VWS V13.01,2013-02-04 09:31:00,
2013-02-04 05:32:00,73.0,64.6,29.92,WNW,292,0.0,0.0,75,0.00,,---,0.00,VWS V13.01,2013-02-04 09:32:00,
2013-02-04 05:33:00,73.0,64.6,29.92,NW,315,0.0,0.0,75,0.00,,---,0.00,VWS V13.01,2013-02-04 09:33:00,
2013-02-04 05:34:00,73.0,64.6,29.92,West,270,0.0,0.0,75,0.00,,---,0.00,VWS V13.01,2013-02-04 09:34:00,
2013-02-04 05:35:00,73.0,64.6,29.92,West,270,0.0,0.0,75,0.00,,---,0.00,VWS V13.01,2013-02-04 09:35:00,
2013-02-04 05:36:00,72.8,64.4,29.92,West,270,0.0,0.0,75,0.00,,---,0.00,VWS V13.01,2013-02-04 09:36:00,
2013-02-04 05:37:00,73.0,64.6,29.92,West,270,0.0,0.0,75,0.00,,---,0.00,VWS V13.01,2013-02-04 09:37:00,
2013-02-04 05:38:00,72.8,64.4,29.92,West,270,0.0,0.0,75,0.00,,---,0.00,VWS V13.01,2013-02-04 09:38:00,
2013-02-04 05:39:00,72.8,64.4,29.92,WSW,248,0.0,0.0,75,0.00,,---,0.00,VWS V13.01,2013-02-04 09:39:00,
2013-02-04 05:40:00,73.0,64.6,29.92,West,270,0.0,0.0,75,0.00,,---,0.00,VWS V13.01,2013-02-04 09:40:00,
2013-02-04 05:41:00,73.0,64.6,29.92,SW,225,0.0,0.0,75,0.00,,---,0.00,VWS V13.01,2013-02-04 09:41:00,
2013-02-04 05:42:00,73.0,64.6,29.92,West,270,0.0,0.0,75,0.00,,---,0.00,VWS V13.01,2013-02-04 09:42:00,
2013-02-04 05:43:00,73.0,64.6,29.92,WSW,248,0.0,0.0,75,0.00,,---,0.00,VWS V13.01,2013-02-04 09:43:00,
2013-02-04 05:44:00,72.8,64.4,29.92,SW,225,0.0,0.0,75,0.00,,---,0.00,VWS V13.01,2013-02-04 09:44:00,
2013-02-04 05:45:00,72.8,64.4,29.92,SW,225,0.0,0.0,75,0.00,,---,0.00,VWS V13.01,2013-02-04 09:45:00,
2013-02-04 05:46:00,72.8,64.4,29.92,SW,225,0.0,0.0,75,0.00,,---,0.00,VWS V13.01,2013-02-04 09:46:00,
2013-02-04 05:47:00,72.8,64.4,29.93,SW,225,0.0,0.0,75,0.00,,---,0.00,VWS V13.01,2013-02-04 09:47:00,
2013-02-04 05:48:00,72.8,64.4,29.92,West,270,0.0,0.0,75,0.00,,---,0.00,VWS V13.01,2013-02-04 09:48:00,
2013-02-04 05:49:00,72.8,64.4,29.92,West,270,0.0,0.0,75,0.00,,---,0.00,VWS V13.01,2013-02-04 09:49:00,
2013-02-04 05:50:00,72.8,64.4,29.92,SSW,202,0.0,0.0,75,0.00,,---,0.00,VWS V13.01,2013-02-04 09:50:00,
2013-02-04 05:51:00,72.6,64.2,29.92,SSW,202,0.0,0.0,75,0.00,,---,0.00,VWS V13.01,2013-02-04 09:51:00,
2013-02-04 05:52:00,72.6,64.2,29.92,SSW,202,0.0,0.0,75,0.00,,---,0.00,VWS V13.01,2013-02-04 09:52:00,
2013-02-04 05:53:00,72.6,64.2,29.92,SW,225,0.0,0.0,75,0.00,,---,0.00,VWS V13.01,2013-02-04 09:53:00,
2013-02-04 05:54:00,72.6,64.2,29.92,SW,225,0.0,0.0,75,0.00,,---,0.00,VWS V13.01,2013-02-04 09:54:00,
2013-02-04 05:55:00,72.6,64.2,29.92,WSW,248,0.0,0.0,75,0.00,,---,0.00,VWS V13.01,2013-02-04 09:55:00,
2013-02-04 05:56:00,72.6,64.2,29.92,SW,225,0.0,0.0,75,0.00,,---,0.00,VWS V13.01,2013-02-04 09:56:00,
2013-02-04 05:57:00,72.6,64.6,29.93,South,180,0.0,0.0,76,0.00,,---,0.00,VWS V13.01,2013-02-04 09:57:00,
2013-02-04 05:58:00,72.6,64.6,29.93,WSW,248,0.0,0.0,76,0.00,,---,0.00,VWS V13.01,2013-02-04 09:58:00,
2013-02-04 05:59:00,72.6,64.6,29.92,WSW,248,0.0,0.0,76,0.00,,---,0.00,VWS V13.01,2013-02-04 09:59:00,
2013-02-04 06:00:00,72.6,64.6,29.92,WSW,248,0.0,0.0,76,0.00,,---,0.82,VWS V13.01,2013-02-04 10:00:00,
2013-02-04 06:01:00,72.6,64.6,29.93,South,180,0.0,0.0,76,0.00,,---,0.00,VWS V13.01,2013-02-04 10:01:00,
2013-02-04 06:02:00,72.6,64.6,29.93,WSW,248,0.0,0.0,76,0.00,,---,0.00,VWS V13.01,2013-02-04 10:02:00,
2013-02-04 06:03:00,72.6,65.0,29.93,SSW,202,0.0,0.0,77,0.00,,---,0.00,VWS V13.01,2013-02-04 10:03:00,
2013-02-04 06:04:00,72.6,65.0,29.93,SSW,202,0.0,0.0,77,0.00,,---,0.00,VWS V13.01,2013-02-04 10:04:00,
2013-02-04 06:05:00,72.5,64.9,29.93,South,180,0.0,0.0,77,0.00,,---,0.00,VWS V13.01,2013-02-04 10:05:00,
2013-02-04 06:06:00,72.5,64.9,29.93,South,180,0.0,0.0,77,0.00,,---,0.00,VWS V13.01,2013-02-04 10:06:00,
2013-02-04 06:07:00,72.5,64.5,29.93,WSW,248,0.0,0.0,76,0.00,,---,0.00,VWS V13.01,2013-02-04 10:07:00,
2013-02-04 06:08:00,72.5,64.5,29.93,South,180,0.0,0.0,76,0.00,,---,0.00,VWS V13.01,2013-02-04 10:08:00,
2013-02-04 06:09:00,72.5,64.5,29.93,South,180,0.0,0.0,76,0.00,,---,0.00,VWS V13.01,2013-02-04 10:09:00,
2013-02-04 06:10:00,72.3,64.3,29.93,South,180,0.0,0.0,76,0.00,,---,0.00,VWS V13.01,2013-02-04 10:10:00,
2013-02-04 06:11:00,72.3,64.7,29.93,SSW,202,0.0,0.0,77,0.00,,---,0.00,VWS V13.01,2013-02-04 10:11:00,
2013-02-04 06:12:00,72.3,64.7,29.93,SSW,202,0.0,0.0,77,0.00,,---,0.00,VWS V13.01,2013-02-04 10:12:00,
2013-02-04 06:13:00,72.3,64.7,29.93,SSW,202,0.0,0.0,77,0.00,,---,0.00,VWS V13.01,2013-02-04 10:13:00,
2013-02-04 06:14:00,72.3,64.7,29.93,SW,225,0.0,0.0,77,0.00,,---,0.00,VWS V13.01,2013-02-04 10:14:00,
2013-02-04 06:15:00,72.3,64.7,29.93,SSW,202,0.0,0.0,77,0.00,,---,0.00,VWS V13.01,2013-02-04 10:15:00,
2013-02-04 06:16:00,72.3,64.7,29.93,SW,225,0.0,0.0,77,0.00,,---,0.00,VWS V13.01,2013-02-04 10:16:00,
2013-02-04 06:17:00,72.1,64.5,29.93,SW,225,0.0,0.0,77,0.00,,---,0.00,VWS V13.01,2013-02-04 10:17:00,
2013-02-04 06:18:00,72.1,64.5,29.94,SSW,202,0.0,0.0,77,0.00,,---,0.00,VWS V13.01,2013-02-04 10:18:00,
2013-02-04 06:19:00,72.1,64.5,29.94,SW,225,0.0,0.0,77,0.00,,---,0.00,VWS V13.01,2013-02-04 10:19:00,
2013-02-04 06:20:00,72.1,64.5,29.94,SW,225,0.0,0.0,77,0.00,,---,0.00,VWS V13.01,2013-02-04 10:20:00,
2013-02-04 06:21:00,72.1,64.5,29.93,SW,225,0.0,0.0,77,0.00,,---,0.00,VWS V13.01,2013-02-04 10:21:00,
2013-02-04 06:22:00,72.1,64.5,29.93,South,180,0.0,0.0,77,0.00,,---,0.00,VWS V13.01,2013-02-04 10:22:00,
2013-02-04 06:23:00,72.1,64.5,29.94,SSW,202,0.0,0.0,77,0.00,,---,0.00,VWS V13.01,2013-02-04 10:23:00,
2013-02-04 06:24:00,72.1,64.5,29.94,West,270,0.0,0.0,77,0.00,,---,0.00,VWS V13.01,2013-02-04 10:24:00,
2013-02-04 06:25:00,72.1,64.5,29.94,SSW,202,0.0,0.0,77,0.00,,---,0.00,VWS V13.01,2013-02-04 10:25:00,
2013-02-04 06:26:00,72.1,64.5,29.93,SSW,202,1.3,1.3,77,0.00,,---,0.00,VWS V13.01,2013-02-04 10:26:00,
2013-02-04 06:27:00,72.1,64.5,29.94,SW,225,0.0,1.3,77,0.00,,---,0.00,VWS V13.01,2013-02-04 10:27:00,
2013-02-04 06:28:00,71.9,64.3,29.94,SW,225,0.0,0.0,77,0.00,,---,0.00,VWS V13.01,2013-02-04 10:28:00,
2013-02-04 06:29:00,72.1,64.5,29.94,SSW,202,0.0,0.0,77,0.00,,---,0.00,VWS V13.01,2013-02-04 10:29:00,
2013-02-04 06:30:00,71.9,64.3,29.94,SW,225,0.0,0.0,77,0.00,,---,0.00,VWS V13.01,2013-02-04 10:30:00,
2013-02-04 06:31:00,71.9,64.3,29.94,WSW,248,0.0,0.0,77,0.00,,---,0.00,VWS V13.01,2013-02-04 10:31:00,
2013-02-04 06:32:00,71.9,64.3,29.94,WSW,248,0.0,0.0,77,0.00,,---,0.00,VWS V13.01,2013-02-04 10:32:00,
2013-02-04 06:33:00,71.9,64.3,29.94,SW,225,0.0,0.0,77,0.00,,---,0.00,VWS V13.01,2013-02-04 10:33:00,
2013-02-04 06:34:00,71.9,64.3,29.94,WSW,248,0.0,0.0,77,0.00,,---,0.00,VWS V13.01,2013-02-04 10:34:00,
2013-02-04 06:35:00,71.9,64.3,29.94,West,270,0.0,0.0,77,0.00,,---,0.00,VWS V13.01,2013-02-04 10:35:00,
2013-02-04 06:36:00,71.9,64.3,29.94,West,270,0.0,0.0,77,0.00,,---,0.00,VWS V13.01,2013-02-04 10:36:00,
2013-02-04 06:37:00,71.9,64.3,29.94,WSW,248,0.0,0.0,77,0.00,,---,0.00,VWS V13.01,2013-02-04 10:37:00,
2013-02-04 06:38:00,71.9,64.3,29.94,WSW,248,0.0,0.0,77,0.00,,---,0.00,VWS V13.01,2013-02-04 10:38:00,
2013-02-04 06:39:00,71.9,64.3,29.94,West,270,0.0,0.0,77,0.00,,---,0.00,VWS V13.01,2013-02-04 10:39:00,
2013-02-04 06:40:00,71.9,64.3,29.94,South,180,0.0,0.0,77,0.00,,---,0.00,VWS V13.01,2013-02-04 10:40:00,
2013-02-04 06:41:00,71.9,64.3,29.94,South,180,0.0,0.0,77,0.00,,---,0.00,VWS V13.01,2013-02-04 10:41:00,
2013-02-04 06:42:00,71.9,64.3,29.94,SW,225,0.0,0.0,77,0.00,,---,0.00,VWS V13.01,2013-02-04 10:42:00,
2013-02-04 06:43:00,71.7,64.1,29.95,South,180,0.0,0.0,77,0.00,,---,0.00,VWS V13.01,2013-02-04 10:43:00,
2013-02-04 06:44:00,71.7,64.1,29.94,South,180,0.0,0.0,77,0.00,,---,0.00,VWS V13.01,2013-02-04 10:44:00,
2013-02-04 06:45:00,71.7,64.1,29.95,South,180,0.0,0.0,77,0.00,,---,0.00,VWS V13.01,2013-02-04 10:45:00,
2013-02-04 06:46:00,71.7,64.1,29.94,SE,135,0.0,0.0,77,0.00,,---,0.00,VWS V13.01,2013-02-04 10:46:00,
2013-02-04 06:47:00,71.7,64.1,29.94,SSW,202,0.0,0.0,77,0.00,,---,0.00,VWS V13.01,2013-02-04 10:47:00,
2013-02-04 06:48:00,71.7,64.1,29.94,WSW,248,0.0,0.0,77,0.00,,---,0.00,VWS V13.01,2013-02-04 10:48:00,
2013-02-04 06:49:00,71.7,64.1,29.94,WSW,248,0.0,0.0,77,0.00,,---,0.00,VWS V13.01,2013-02-04 10:49:00,
2013-02-04 06:50:00,71.7,64.1,29.95,South,180,0.0,0.0,77,0.00,,---,0.00,VWS V13.01,2013-02-04 10:50:00,
2013-02-04 06:51:00,71.7,64.1,29.95,South,180,0.0,0.0,77,0.00,,---,0.00,VWS V13.01,2013-02-04 10:51:00,
2013-02-04 06:52:00,71.7,64.1,29.95,South,180,0.0,0.0,77,0.00,,---,0.00,VWS V13.01,2013-02-04 10:52:00,
2013-02-04 06:53:00,71.7,64.1,29.95,South,180,0.0,0.0,77,0.00,,---,0.00,VWS V13.01,2013-02-04 10:53:00,
2013-02-04 06:54:00,71.7,64.1,29.95,South,180,0.0,0.0,77,0.00,,---,0.00,VWS V13.01,2013-02-04 10:54:00,
2013-02-04 06:55:00,71.9,64.3,29.95,South,180,0.0,0.0,77,0.00,,---,0.00,VWS V13.01,2013-02-04 10:55:00,
2013-02-04 06:56:00,71.9,64.3,29.95,South,180,0.0,0.0,77,0.00,,---,0.00,VWS V13.01,2013-02-04 10:56:00,
2013-02-04 06:57:00,71.9,64.3,29.95,South,180,0.0,0.0,77,0.00,,---,0.00,VWS V13.01,2013-02-04 10:57:00,
2013-02-04 06:58:00,71.9,64.3,29.95,SSW,202,0.0,0.0,77,0.00,,---,0.00,VWS V13.01,2013-02-04 10:58:00,
2013-02-04 06:59:00,71.9,64.3,29.95,SW,225,0.0,0.0,77,0.00,,---,0.00,VWS V13.01,2013-02-04 10:59:00,
2013-02-04 07:00:00,71.7,64.1,29.95,SW,225,0.0,0.0,77,0.00,,---,0.82,VWS V13.01,2013-02-04 11:00:00,
2013-02-04 07:01:00,71.7,64.1,29.95,SW,225,0.0,0.0,77,0.00,,---,0.00,VWS V13.01,2013-02-04 11:01:00,
2013-02-04 07:02:00,71.7,64.1,29.95,South,180,0.0,0.0,77,0.00,,---,0.00,VWS V13.01,2013-02-04 11:02:00,
2013-02-04 07:03:00,71.7,64.1,29.95,WSW,248,0.0,0.0,77,0.00,,---,0.00,VWS V13.01,2013-02-04 11:03:00,
2013-02-04 07:04:00,71.7,64.1,29.95,SW,225,0.0,0.0,77,0.00,,---,0.00,VWS V13.01,2013-02-04 11:04:00,
2013-02-04 07:05:00,71.7,64.1,29.95,West,270,0.0,0.0,77,0.00,,---,0.00,VWS V13.01,2013-02-04 11:05:00,
2013-02-04 07:06:00,71.7,64.1,29.95,SSW,202,0.0,0.0,77,0.00,,---,0.00,VWS V13.01,2013-02-04 11:06:00,
2013-02-04 07:07:00,71.7,64.1,29.95,SW,225,0.0,0.0,77,0.00,,---,0.00,VWS V13.01,2013-02-04 11:07:00,
2013-02-04 07:08:00,71.7,64.5,29.95,South,180,0.0,0.0,78,0.00,,---,0.00,VWS V13.01,2013-02-04 11:08:00,
2013-02-04 07:09:00,71.7,64.1,29.96,South,180,0.0,0.0,77,0.00,,---,0.00,VWS V13.01,2013-02-04 11:09:00,
2013-02-04 07:10:00,71.7,64.1,29.95,SSE,158,0.0,0.0,77,0.00,,---,0.00,VWS V13.01,2013-02-04 11:10:00,
2013-02-04 07:11:00,71.7,64.1,29.96,SSW,202,0.0,0.0,77,0.00,,---,0.00,VWS V13.01,2013-02-04 11:11:00,
2013-02-04 07:12:00,71.9,64.3,29.96,SSE,158,0.0,0.0,77,0.00,,---,0.00,VWS V13.01,2013-02-04 11:12:00,
2013-02-04 07:13:00,71.9,64.3,29.96,SSE,158,0.0,0.0,77,0.00,,---,0.00,VWS V13.01,2013-02-04 11:13:00,
2013-02-04 07:14:00,71.9,64.3,29.96,South,180,0.0,0.0,77,0.00,,---,0.00,VWS V13.01,2013-02-04 11:14:00,
2013-02-04 07:15:00,71.9,64.7,29.96,SSW,202,0.0,0.0,78,0.00,,---,0.00,VWS V13.01,2013-02-04 11:15:00,
2013-02-04 07:16:00,71.9,64.7,29.96,South,180,0.0,0.0,78,0.00,,---,0.00,VWS V13.01,2013-02-04 11:16:00,
2013-02-04 07:17:00,71.9,64.3,29.96,South,180,0.0,0.0,77,0.00,,---,0.00,VWS V13.01,2013-02-04 11:17:00,
2013-02-04 07:18:00,72.1,64.5,29.96,SSW,202,0.0,0.0,77,0.00,,---,0.00,VWS V13.01,2013-02-04 11:18:00,
2013-02-04 07:19:00,72.1,64.5,29.96,SSW,202,0.0,0.0,77,0.00,,---,0.00,VWS V13.01,2013-02-04 11:19:00,
2013-02-04 07:20:00,72.1,64.5,29.96,South,180,0.0,0.0,77,0.00,,---,0.00,VWS V13.01,2013-02-04 11:20:00,
2013-02-04 07:21:00,72.1,64.5,29.96,SW,225,0.0,0.0,77,0.00,,---,0.00,VWS V13.01,2013-02-04 11:21:00,
2013-02-04 07:22:00,72.1,64.5,29.96,SSW,202,0.0,0.0,77,0.00,,---,0.00,VWS V13.01,2013-02-04 11:22:00,
2013-02-04 07:23:00,72.3,64.7,29.96,South,180,0.6,0.6,77,0.00,,---,0.00,VWS V13.01,2013-02-04 11:23:00,
2013-02-04 07:24:00,72.3,64.7,29.96,South,180,0.0,0.6,77,0.00,,---,0.00,VWS V13.01,2013-02-04 11:24:00,
2013-02-04 07:25:00,72.3,64.7,29.96,ESE,112,0.0,0.0,77,0.00,,---,0.00,VWS V13.01,2013-02-04 11:25:00,
2013-02-04 07:26:00,72.3,64.7,29.96,SSW,202,0.0,0.0,77,0.00,,---,0.00,VWS V13.01,2013-02-04 11:26:00,
2013-02-04 07:27:00,72.3,64.7,29.96,South,180,0.0,0.0,77,0.00,,---,0.00,VWS V13.01,2013-02-04 11:27:00,
2013-02-04 07:28:00,72.3,64.7,29.96,SSW,202,0.0,0.0,77,0.00,,---,0.00,VWS V13.01,2013-02-04 11:28:00,
2013-02-04 07:29:00,72.3,64.7,29.96,WSW,248,0.0,0.0,77,0.00,,---,0.00,VWS V13.01,2013-02-04 11:29:00,
2013-02-04 07:30:00,72.3,64.7,29.96,SSW,202,0.0,0.0,77,0.00,,---,0.00,VWS V13.01,2013-02-04 11:30:00,
2013-02-04 07:31:00,72.5,64.9,29.96,South,180,0.0,0.0,77,0.00,,---,0.00,VWS V13.01,2013-02-04 11:31:00,
2013-02-04 07:32:00,72.5,64.9,29.96,SSW,202,0.0,0.0,77,0.00,,---,0.00,VWS V13.01,2013-02-04 11:32:00,
2013-02-04 07:33:00,72.5,64.9,29.96,South,180,0.0,0.0,77,0.00,,---,0.00,VWS V13.01,2013-02-04 11:33:00,
2013-02-04 07:34:00,72.5,64.9,29.96,SSW,202,0.0,0.0,77,0.00,,---,0.00,VWS V13.01,2013-02-04 11:34:00,
2013-02-04 07:35:00,72.6,65.0,29.96,SSW,202,0.0,0.0,77,0.00,,---,0.00,VWS V13.01,2013-02-04 11:35:00,
2013-02-04 07:36:00,72.6,65.0,29.96,WSW,248,0.0,0.0,77,0.00,,---,0.00,VWS V13.01,2013-02-04 11:36:00,
2013-02-04 07:37:00,72.6,65.0,29.96,SW,225,0.0,0.0,77,0.00,,---,0.00,VWS V13.01,2013-02-04 11:37:00,
2013-02-04 07:38:00,72.6,65.0,29.96,SSW,202,0.0,0.0,77,0.00,,---,0.00,VWS V13.01,2013-02-04 11:38:00,
2013-02-04 07:39:00,72.6,65.0,29.97,SSW,202,0.0,0.0,77,0.00,,---,0.00,VWS V13.01,2013-02-04 11:39:00,
2013-02-04 07:40:00,72.6,65.0,29.97,WSW,248,0.0,0.0,77,0.00,,---,0.00,VWS V13.01,2013-02-04 11:40:00,
2013-02-04 07:41:00,72.8,65.2,29.97,SE,135,0.0,0.0,77,0.00,,---,0.00,VWS V13.01,2013-02-04 11:41:00,
2013-02-04 07:42:00,72.6,65.0,29.97,South,180,0.0,0.0,77,0.00,,---,0.00,VWS V13.01,2013-02-04 11:42:00,
2013-02-04 07:43:00,72.8,65.2,29.97,South,180,0.0,0.0,77,0.00,,---,0.00,VWS V13.01,2013-02-04 11:43:00,
2013-02-04 07:44:00,73.0,65.4,29.97,South,180,0.0,0.0,77,0.00,,---,0.00,VWS V13.01,2013-02-04 11:44:00,
2013-02-04 07:45:00,73.0,65.4,29.97,SSW,202,0.0,0.0,77,0.00,,---,0.00,VWS V13.01,2013-02-04 11:45:00,
2013-02-04 07:46:00,73.0,65.4,29.97,SSW,202,0.0,0.0,77,0.00,,---,0.00,VWS V13.01,2013-02-04 11:46:00,
2013-02-04 07:47:00,73.0,65.4,29.97,SSW,202,0.0,0.0,77,0.00,,---,0.00,VWS V13.01,2013-02-04 11:47:00,
2013-02-04 07:48:00,73.0,65.4,29.97,South,180,0.0,0.0,77,0.00,,---,0.00,VWS V13.01,2013-02-04 11:48:00,
2013-02-04 07:49:00,73.0,65.4,29.97,SE,135,0.0,0.0,77,0.00,,---,0.00,VWS V13.01,2013-02-04 11:49:00,
2013-02-04 07:50:00,72.6,65.0,29.97,SSW,202,0.0,0.0,77,0.00,,---,0.00,VWS V13.01,2013-02-04 11:50:00,
2013-02-04 07:51:00,73.2,65.6,29.97,SE,135,0.0,0.0,77,0.00,,---,0.00,VWS V13.01,2013-02-04 11:51:00,
2013-02-04 07:52:00,73.2,65.6,29.97,South,180,0.0,0.0,77,0.00,,---,0.00,VWS V13.01,2013-02-04 11:52:00,
2013-02-04 07:53:00,73.2,65.6,29.98,SSE,158,0.0,0.0,77,0.00,,---,0.00,VWS V13.01,2013-02-04 11:53:00,
2013-02-04 07:54:00,73.2,65.6,29.97,SSE,158,0.0,0.0,77,0.00,,---,0.00,VWS V13.01,2013-02-04 11:54:00,
2013-02-04 07:55:00,73.4,65.8,29.97,SSE,158,0.0,0.0,77,0.00,,---,0.00,VWS V13.01,2013-02-04 11:55:00,
2013-02-04 07:56:00,73.4,65.8,29.98,SSE,158,0.6,0.6,77,0.00,,---,0.00,VWS V13.01,2013-02-04 11:56:00,
2013-02-04 07:57:00,73.5,65.5,29.98,SSE,158,0.0,0.6,76,0.00,,---,0.00,VWS V13.01,2013-02-04 11:57:00,
2013-02-04 07:58:00,73.5,65.5,29.98,SSE,158,0.0,0.0,76,0.00,,---,0.00,VWS V13.01,2013-02-04 11:58:00,
2013-02-04 07:59:00,73.5,65.5,29.98,South,180,2.0,2.0,76,0.00,,---,0.00,VWS V13.01,2013-02-04 11:59:00,
2013-02-04 08:00:00,73.5,65.5,29.98,SSE,158,0.0,2.0,76,0.00,,---,0.00,VWS V13.01,2013-02-04 12:00:00,
2013-02-04 08:01:00,73.7,65.7,29.98,South,180,0.0,0.0,76,0.00,,---,0.00,VWS V13.01,2013-02-04 12:01:00,
2013-02-04 08:02:00,73.9,65.9,29.97,SSE,158,0.0,0.0,76,0.00,,---,0.00,VWS V13.01,2013-02-04 12:02:00,
2013-02-04 08:03:00,73.9,65.9,29.97,SSE,158,0.0,0.0,76,0.00,,---,0.00,VWS V13.01,2013-02-04 12:03:00,
2013-02-04 08:04:00,74.1,66.1,29.97,SE,135,0.0,0.0,76,0.00,,---,0.00,VWS V13.01,2013-02-04 12:04:00,
2013-02-04 08:05:00,74.1,66.1,29.97,SSW,202,1.3,1.3,76,0.00,,---,0.00,VWS V13.01,2013-02-04 12:05:00,
2013-02-04 08:06:00,74.1,66.1,29.98,ESE,112,0.0,1.3,76,0.00,,---,0.00,VWS V13.01,2013-02-04 12:06:00,
2013-02-04 08:07:00,74.1,66.1,29.98,South,180,2.2,2.2,76,0.00,,---,0.00,VWS V13.01,2013-02-04 12:07:00,
2013-02-04 08:08:00,74.3,65.9,29.98,SSE,158,0.0,2.2,75,0.00,,---,0.00,VWS V13.01,2013-02-04 12:08:00,
2013-02-04 08:09:00,74.4,66.0,29.98,SE,135,0.0,0.0,75,0.00,,---,0.00,VWS V13.01,2013-02-04 12:09:00,
2013-02-04 08:10:00,74.4,66.0,29.98,SW,225,0.0,0.0,75,0.00,,---,0.00,VWS V13.01,2013-02-04 12:10:00,
2013-02-04 08:11:00,74.4,66.0,29.98,South,180,1.5,1.5,75,0.00,,---,0.00,VWS V13.01,2013-02-04 12:11:00,
2013-02-04 08:12:00,74.6,66.2,29.98,SSE,158,0.0,1.5,75,0.00,,---,0.00,VWS V13.01,2013-02-04 12:12:00,
2013-02-04 08:13:00,74.6,66.2,29.98,SE,135,1.1,1.1,75,0.00,,---,0.00,VWS V13.01,2013-02-04 12:13:00,
2013-02-04 08:14:00,74.8,66.3,29.98,SE,135,0.0,1.1,75,0.00,,---,0.00,VWS V13.01,2013-02-04 12:14:00,
2013-02-04 08:15:00,74.8,66.3,29.98,SSW,202,0.0,0.0,75,0.00,,---,0.00,VWS V13.01,2013-02-04 12:15:00,
2013-02-04 08:16:00,74.8,66.3,29.98,SE,135,0.0,0.0,75,0.00,,---,0.00,VWS V13.01,2013-02-04 12:16:00,
2013-02-04 08:17:00,75.0,66.6,29.98,SE,135,0.0,0.0,75,0.00,,---,0.00,VWS V13.01,2013-02-04 12:17:00,
2013-02-04 08:18:00,75.0,66.6,29.98,ESE,112,0.0,0.0,75,0.00,,---,0.00,VWS V13.01,2013-02-04 12:18:00,
2013-02-04 08:19:00,75.0,66.6,29.98,SE,135,0.0,0.0,75,0.00,,---,0.00,VWS V13.01,2013-02-04 12:19:00,
2013-02-04 08:20:00,75.0,66.6,29.98,South,180,2.0,2.0,75,0.00,,---,0.00,VWS V13.01,2013-02-04 12:20:00,
2013-02-04 08:21:00,75.0,66.6,29.98,SSW,202,0.0,2.0,75,0.00,,---,0.00,VWS V13.01,2013-02-04 12:21:00,
2013-02-04 08:22:00,75.0,66.2,29.98,South,180,0.0,0.0,74,0.00,,---,0.00,VWS V13.01,2013-02-04 12:22:00,
2013-02-04 08:23:00,75.3,66.4,29.98,SSE,158,1.5,1.5,74,0.00,,---,0.00,VWS V13.01,2013-02-04 12:23:00,
2013-02-04 08:24:00,75.3,66.4,29.98,South,180,3.5,3.5,74,0.00,,---,0.00,VWS V13.01,2013-02-04 12:24:00,
2013-02-04 08:25:00,75.3,66.4,29.98,SSE,158,1.1,3.5,74,0.00,,---,0.00,VWS V13.01,2013-02-04 12:25:00,
2013-02-04 08:26:00,75.3,66.4,29.98,SE,135,2.6,2.6,74,0.00,,---,0.00,VWS V13.01,2013-02-04 12:26:00,
2013-02-04 08:27:00,75.5,66.6,29.98,SE,135,2.9,2.9,74,0.00,,---,0.00,VWS V13.01,2013-02-04 12:27:00,
2013-02-04 08:28:00,75.5,66.6,29.98,ESE,112,0.0,2.9,74,0.00,,---,0.00,VWS V13.01,2013-02-04 12:28:00,
2013-02-04 08:29:00,75.7,66.8,29.98,SSE,158,1.1,1.1,74,0.00,,---,0.00,VWS V13.01,2013-02-04 12:29:00,
2013-02-04 08:30:00,75.7,66.4,29.98,SE,135,1.5,1.5,73,0.00,,---,0.00,VWS V13.01,2013-02-04 12:30:00,
2013-02-04 08:31:00,75.7,66.4,29.98,South,180,0.0,1.5,73,0.00,,---,0.00,VWS V13.01,2013-02-04 12:31:00,
2013-02-04 08:32:00,75.7,66.4,29.98,SSE,158,2.2,2.2,73,0.00,,---,0.00,VWS V13.01,2013-02-04 12:32:00,
2013-02-04 08:33:00,75.7,66.4,29.98,SE,135,0.0,0.0,73,0.00,,---,0.00,VWS V13.01,2013-02-04 12:33:00,
2013-02-04 08:34:00,75.7,66.4,29.98,SE,135,0.0,0.0,73,0.00,,---,0.00,VWS V13.01,2013-02-04 12:34:00,
2013-02-04 08:35:00,75.9,66.6,29.98,SSE,158,2.9,2.9,73,0.00,,---,0.00,VWS V13.01,2013-02-04 12:35:00,
2013-02-04 08:36:00,75.9,66.6,29.99,ESE,112,0.0,0.0,73,0.00,,---,0.00,VWS V13.01,2013-02-04 12:36:00,
2013-02-04 08:37:00,75.9,66.6,29.99,SSE,158,1.5,1.5,73,0.00,,---,0.00,VWS V13.01,2013-02-04 12:37:00,
2013-02-04 08:38:00,75.9,66.6,29.99,SE,135,4.9,4.9,73,0.00,,---,0.00,VWS V13.01,2013-02-04 12:38:00,
2013-02-04 08:39:00,75.9,66.6,29.99,SSW,202,2.0,2.0,73,0.00,,---,0.00,VWS V13.01,2013-02-04 12:39:00,
2013-02-04 08:40:00,76.1,66.8,29.99,SSE,158,0.0,2.0,73,0.00,,---,0.00,VWS V13.01,2013-02-04 12:40:00,
2013-02-04 08:41:00,76.1,66.8,29.99,SSE,158,3.8,3.8,73,0.00,,---,0.00,VWS V13.01,2013-02-04 12:41:00,
2013-02-04 08:42:00,76.1,66.8,29.99,SE,135,2.2,3.8,73,0.00,,---,0.00,VWS V13.01,2013-02-04 12:42:00,
2013-02-04 08:43:00,76.2,66.9,29.99,SSE,158,2.9,2.9,73,0.00,,---,0.00,VWS V13.01,2013-02-04 12:43:00,
2013-02-04 08:44:00,76.2,66.9,29.99,SSE,158,3.5,3.5,73,0.00,,---,0.00,VWS V13.01,2013-02-04 12:44:00,
2013-02-04 08:45:00,76.2,66.5,29.99,SSE,158,0.0,3.5,72,0.00,,---,0.00,VWS V13.01,2013-02-04 12:45:00,
2013-02-04 08:46:00,76.2,66.5,29.99,SE,135,0.0,0.0,72,0.00,,---,0.00,VWS V13.01,2013-02-04 12:46:00,
2013-02-04 08:47:00,76.4,66.7,29.99,SSE,158,2.4,2.4,72,0.00,,---,0.00,VWS V13.01,2013-02-04 12:47:00,
2013-02-04 08:48:00,76.2,66.5,29.99,SSE,158,0.0,2.4,72,0.00,,---,0.00,VWS V13.01,2013-02-04 12:48:00,
2013-02-04 08:49:00,76.4,66.7,29.99,SE,135,1.5,1.5,72,0.00,,---,0.00,VWS V13.01,2013-02-04 12:49:00,
2013-02-04 08:50:00,76.4,66.7,29.99,SSE,158,3.8,3.8,72,0.00,,---,0.00,VWS V13.01,2013-02-04 12:50:00,
2013-02-04 08:51:00,76.6,66.9,29.99,SSE,158,0.0,3.8,72,0.00,,---,0.00,VWS V13.01,2013-02-04 12:51:00,
2013-02-04 08:52:00,76.6,66.5,29.99,SSE,158,2.0,2.0,71,0.00,,---,0.00,VWS V13.01,2013-02-04 12:52:00,
2013-02-04 08:53:00,76.6,66.5,29.99,SE,135,2.0,2.0,71,0.00,,---,0.00,VWS V13.01,2013-02-04 12:53:00,
2013-02-04 08:54:00,76.6,66.5,29.99,SSE,158,2.2,2.2,71,0.00,,---,0.00,VWS V13.01,2013-02-04 12:54:00,
2013-02-04 08:55:00,76.6,66.5,29.99,SE,135,2.4,2.4,71,0.00,,---,0.00,VWS V13.01,2013-02-04 12:55:00,
2013-02-04 08:56:00,76.6,66.5,29.99,South,180,2.0,2.4,71,0.00,,---,0.00,VWS V13.01,2013-02-04 12:56:00,
2013-02-04 08:57:00,76.8,66.7,29.99,SE,135,0.8,2.0,71,0.00,,---,0.00,VWS V13.01,2013-02-04 12:57:00,
2013-02-04 08:58:00,76.6,66.5,29.99,ENE,68,0.0,0.8,71,0.00,,---,0.00,VWS V13.01,2013-02-04 12:58:00,
2013-02-04 08:59:00,76.8,66.7,29.99,ENE,68,0.0,0.0,71,0.00,,---,0.00,VWS V13.01,2013-02-04 12:59:00,
2013-02-04 09:00:00,76.8,66.7,29.99,South,180,0.0,0.0,71,0.00,,---,0.82,VWS V13.01,2013-02-04 13:00:00,
2013-02-04 09:01:00,76.8,66.7,29.99,ESE,112,1.5,1.5,71,0.00,,---,0.00,VWS V13.01,2013-02-04 13:01:00,
2013-02-04 09:02:00,76.8,66.7,29.99,SE,135,4.0,4.0,71,0.00,,---,0.00,VWS V13.01,2013-02-04 13:02:00,
2013-02-04 09:03:00,77.0,66.9,29.99,SSW,202,3.5,4.0,71,0.00,,---,0.00,VWS V13.01,2013-02-04 13:03:00,
2013-02-04 09:04:00,77.0,66.5,29.99,South,180,0.0,3.5,70,0.00,,---,0.00,VWS V13.01,2013-02-04 13:04:00,
2013-02-04 09:05:00,77.1,66.6,29.99,South,180,1.1,1.1,70,0.00,,---,0.00,VWS V13.01,2013-02-04 13:05:00,
2013-02-04 09:06:00,77.0,66.5,29.99,SE,135,2.6,2.6,70,0.00,,---,0.00,VWS V13.01,2013-02-04 13:06:00,
2013-02-04 09:07:00,77.0,66.5,29.99,SE,135,0.8,2.6,70,0.00,,---,0.00,VWS V13.01,2013-02-04 13:07:00,
2013-02-04 09:08:00,77.1,66.6,30.00,ESE,112,2.6,2.6,70,0.00,,---,0.00,VWS V13.01,2013-02-04 13:08:00,
2013-02-04 09:09:00,77.1,66.6,30.00,SSW,202,1.5,2.6,70,0.00,,---,0.00,VWS V13.01,2013-02-04 13:09:00,
2013-02-04 09:10:00,77.1,66.6,30.00,ESE,112,1.3,1.3,70,0.00,,---,0.00,VWS V13.01,2013-02-04 13:10:00,
2013-02-04 09:11:00,77.3,66.8,30.00,SSE,158,4.6,4.6,70,0.00,,---,0.00,VWS V13.01,2013-02-04 13:11:00,
2013-02-04 09:12:00,77.3,66.3,30.00,SSE,158,2.9,4.6,69,0.00,,---,0.00,VWS V13.01,2013-02-04 13:12:00,
2013-02-04 09:13:00,77.3,66.3,30.00,SSE,158,0.0,2.9,69,0.00,,---,0.00,VWS V13.01,2013-02-04 13:13:00,
2013-02-04 09:14:00,77.3,66.3,30.00,North,0,0.0,0.0,69,0.00,,---,0.00,VWS V13.01,2013-02-04 13:14:00,
2013-02-04 09:15:00,77.5,66.5,30.00,South,180,0.0,0.0,69,0.00,,---,0.00,VWS V13.01,2013-02-04 13:15:00,
2013-02-04 09:16:00,77.5,66.5,30.00,SSE,158,0.0,0.0,69,0.00,,---,0.00,VWS V13.01,2013-02-04 13:16:00,
2013-02-04 09:17:00,77.5,66.5,30.00,SE,135,5.3,5.3,69,0.00,,---,0.00,VWS V13.01,2013-02-04 13:17:00,
2013-02-04 09:18:00,77.5,66.5,30.00,SSE,158,3.8,5.3,69,0.00,,---,0.00,VWS V13.01,2013-02-04 13:18:00,
2013-02-04 09:19:00,77.5,66.5,30.00,SSE,158,4.0,4.0,69,0.00,,---,0.00,VWS V13.01,2013-02-04 13:19:00,
2013-02-04 09:20:00,77.7,66.7,30.00,SE,135,5.5,5.5,69,0.00,,---,0.00,VWS V13.01,2013-02-04 13:20:00,
2013-02-04 09:21:00,77.7,66.7,30.00,SSW,202,2.6,2.6,69,0.00,,---,0.00,VWS V13.01,2013-02-04 13:21:00,
2013-02-04 09:22:00,77.7,66.7,30.00,South,180,0.8,2.6,69,0.00,,---,0.00,VWS V13.01,2013-02-04 13:22:00,
2013-02-04 09:23:00,77.7,66.7,30.00,South,180,1.7,1.7,69,0.00,,---,0.00,VWS V13.01,2013-02-04 13:23:00,
2013-02-04 09:24:00,77.7,66.7,30.00,SSE,158,0.0,0.0,69,0.00,,---,0.00,VWS V13.01,2013-02-04 13:24:00,
2013-02-04 09:25:00,77.9,66.9,30.00,SE,135,6.4,6.4,69,0.00,,---,0.00,VWS V13.01,2013-02-04 13:25:00,
2013-02-04 09:26:00,77.9,66.9,30.00,SE,135,3.5,3.5,69,0.00,,---,0.00,VWS V13.01,2013-02-04 13:26:00,
2013-02-04 09:27:00,77.9,66.9,30.01,SE,135,2.4,2.4,69,0.00,,---,0.00,VWS V13.01,2013-02-04 13:27:00,
2013-02-04 09:28:00,78.0,66.6,30.00,South,180,0.6,2.4,68,0.00,,---,0.00,VWS V13.01,2013-02-04 13:28:00,
2013-02-04 09:29:00,78.0,66.6,30.00,South,180,6.0,6.0,68,0.00,,---,0.00,VWS V13.01,2013-02-04 13:29:00,
2013-02-04 09:30:00,78.0,66.6,30.00,SSE,158,4.2,6.0,68,0.00,,---,0.00,VWS V13.01,2013-02-04 13:30:00,
2013-02-04 09:31:00,78.0,66.6,30.00,South,180,4.4,4.4,68,0.00,,---,0.00,VWS V13.01,2013-02-04 13:31:00,
2013-02-04 09:32:00,78.0,66.6,30.00,SSE,158,5.1,5.1,68,0.00,,---,0.00,VWS V13.01,2013-02-04 13:32:00,
2013-02-04 09:33:00,78.0,66.6,30.00,SSE,158,4.0,5.1,68,0.00,,---,0.00,VWS V13.01,2013-02-04 13:33:00,
2013-02-04 09:34:00,78.2,66.8,30.00,South,180,3.5,4.0,68,0.00,,---,0.00,VWS V13.01,2013-02-04 13:34:00,
2013-02-04 09:35:00,78.0,66.6,30.00,SE,135,1.7,3.5,68,0.00,,---,0.00,VWS V13.01,2013-02-04 13:35:00,
2013-02-04 09:36:00,78.2,66.8,30.00,SSE,158,5.1,5.1,68,0.00,,---,0.00,VWS V13.01,2013-02-04 13:36:00,
2013-02-04 09:37:00,78.4,67.0,30.00,SSE,158,4.4,5.1,68,0.00,,---,0.00,VWS V13.01,2013-02-04 13:37:00,
2013-02-04 09:38:00,78.4,67.0,30.00,SE,135,2.4,4.4,68,0.00,,---,0.00,VWS V13.01,2013-02-04 13:38:00,
2013-02-04 09:39:00,78.4,67.0,30.00,South,180,2.2,2.4,68,0.00,,---,0.00,VWS V13.01,2013-02-04 13:39:00,
2013-02-04 09:40:00,78.4,67.0,30.00,South,180,0.0,0.0,68,0.00,,---,0.00,VWS V13.01,2013-02-04 13:40:00,
2013-02-04 09:41:00,78.4,67.0,30.00,SE,135,3.3,3.3,68,0.00,,---,0.00,VWS V13.01,2013-02-04 13:41:00,
2013-02-04 09:42:00,78.6,67.2,30.00,SE,135,0.0,3.3,68,0.00,,---,0.00,VWS V13.01,2013-02-04 13:42:00,
2013-02-04 09:43:00,78.6,67.2,30.00,SSE,158,2.4,2.4,68,0.00,,---,0.00,VWS V13.01,2013-02-04 13:43:00,
2013-02-04 09:44:00,78.6,66.7,30.00,SE,135,5.3,5.3,67,0.00,,---,0.00,VWS V13.01,2013-02-04 13:44:00,
2013-02-04 09:45:00,78.6,66.7,30.00,ESE,112,0.0,5.3,67,0.00,,---,0.00,VWS V13.01,2013-02-04 13:45:00,
2013-02-04 09:46:00,78.6,66.7,30.00,ESE,112,3.8,3.8,67,0.00,,---,0.00,VWS V13.01,2013-02-04 13:46:00,
2013-02-04 09:47:00,78.6,66.7,30.00,NE,45,6.0,6.0,67,0.00,,---,0.00,VWS V13.01,2013-02-04 13:47:00,
2013-02-04 09:48:00,78.6,66.7,30.00,ESE,112,2.0,2.0,67,0.00,,---,0.00,VWS V13.01,2013-02-04 13:48:00,
2013-02-04 09:49:00,78.6,66.7,30.00,East,90,5.1,5.1,67,0.00,,---,0.00,VWS V13.01,2013-02-04 13:49:00,
2013-02-04 09:50:00,78.8,66.9,30.00,ESE,112,6.0,6.0,67,0.00,,---,0.00,VWS V13.01,2013-02-04 13:50:00,
2013-02-04 09:51:00,78.8,66.9,30.00,ESE,112,1.3,6.0,67,0.00,,---,0.00,VWS V13.01,2013-02-04 13:51:00,
2013-02-04 09:52:00,78.6,66.7,30.00,NE,45,2.9,2.9,67,0.00,,---,0.00,VWS V13.01,2013-02-04 13:52:00,
2013-02-04 09:53:00,78.9,66.6,30.00,East,90,4.9,4.9,66,0.00,,---,0.00,VWS V13.01,2013-02-04 13:53:00,
2013-02-04 09:54:00,78.9,66.6,30.00,East,90,2.0,4.9,66,0.00,,---,0.00,VWS V13.01,2013-02-04 13:54:00,
2013-02-04 09:55:00,78.9,66.6,30.00,South,180,3.1,3.1,66,0.00,,---,0.00,VWS V13.01,2013-02-04 13:55:00,
2013-02-04 09:56:00,78.9,66.6,30.00,South,180,2.0,3.1,66,0.00,,---,0.00,VWS V13.01,2013-02-04 13:56:00,
2013-02-04 09:57:00,78.9,66.6,30.00,ESE,112,5.5,5.5,66,0.00,,---,0.00,VWS V13.01,2013-02-04 13:57:00,
2013-02-04 09:58:00,79.1,66.8,30.00,ENE,68,3.8,5.5,66,0.00,,---,0.00,VWS V13.01,2013-02-04 13:58:00,
2013-02-04 09:59:00,79.1,66.8,30.00,SE,135,2.9,3.8,66,0.00,,---,0.00,VWS V13.01,2013-02-04 13:59:00,
2013-02-04 10:00:00,79.3,67.0,30.00,East,90,0.0,2.9,66,0.00,,---,0.82,VWS V13.01,2013-02-04 14:00:00,
2013-02-04 10:01:00,79.3,67.0,30.00,SSE,158,4.6,4.6,66,0.00,,---,0.00,VWS V13.01,2013-02-04 14:01:00,
2013-02-04 10:02:00,79.3,67.0,30.00,SSE,158,4.0,4.6,66,0.00,,---,0.00,VWS V13.01,2013-02-04 14:02:00,
2013-02-04 10:03:00,79.3,67.0,30.00,SSE,158,0.0,4.0,66,0.00,,---,0.00,VWS V13.01,2013-02-04 14:03:00,
2013-02-04 10:04:00,79.3,67.0,30.00,SE,135,2.2,2.2,66,0.00,,---,0.00,VWS V13.01,2013-02-04 14:04:00,
2013-02-04 10:05:00,79.3,67.0,30.00,South,180,2.2,2.2,66,0.00,,---,0.00,VWS V13.01,2013-02-04 14:05:00,
2013-02-04 10:06:00,79.5,67.2,30.00,SE,135,4.2,4.2,66,0.00,,---,0.00,VWS V13.01,2013-02-04 14:06:00,
2013-02-04 10:07:00,79.5,67.2,30.00,ENE,68,5.3,5.3,66,0.00,,---,0.00,VWS V13.01,2013-02-04 14:07:00,
2013-02-04 10:08:00,79.5,67.2,29.99,ESE,112,1.7,5.3,66,0.00,,---,0.00,VWS V13.01,2013-02-04 14:08:00,
2013-02-04 10:09:00,79.5,67.2,30.00,East,90,4.0,4.0,66,0.00,,---,0.00,VWS V13.01,2013-02-04 14:09:00,
2013-02-04 10:10:00,79.5,67.2,30.00,NNE,22,0.0,4.0,66,0.00,,---,0.00,VWS V13.01,2013-02-04 14:10:00,
2013-02-04 10:11:00,79.5,67.2,30.00,East,90,1.5,1.5,66,0.00,,---,0.00,VWS V13.01,2013-02-04 14:11:00,
2013-02-04 10:12:00,79.5,67.2,30.00,SSE,158,0.0,0.0,66,0.00,,---,0.00,VWS V13.01,2013-02-04 14:12:00,
2013-02-04 10:13:00,79.7,67.3,30.00,SE,135,4.0,4.0,66,0.00,,---,0.00,VWS V13.01,2013-02-04 14:13:00,
2013-02-04 10:14:00,79.7,67.3,30.00,ESE,112,0.0,4.0,66,0.00,,---,0.00,VWS V13.01,2013-02-04 14:14:00,
2013-02-04 10:15:00,79.7,67.3,30.00,ESE,112,2.0,2.0,66,0.00,,---,0.00,VWS V13.01,2013-02-04 14:15:00,
2013-02-04 10:16:00,79.7,66.9,30.00,SSE,158,0.0,2.0,65,0.00,,---,0.00,VWS V13.01,2013-02-04 14:16:00,
2013-02-04 10:17:00,79.7,67.3,30.00,East,90,0.0,0.0,66,0.00,,---,0.00,VWS V13.01,2013-02-04 14:17:00,
2013-02-04 10:18:00,79.5,66.7,30.00,East,90,0.0,0.0,65,0.00,,---,0.00,VWS V13.01,2013-02-04 14:18:00,
2013-02-04 10:19:00,79.5,67.2,30.00,ESE,112,2.4,2.4,66,0.00,,---,0.00,VWS V13.01,2013-02-04 14:19:00,
2013-02-04 10:20:00,79.5,66.7,30.00,NE,45,0.0,2.4,65,0.00,,---,0.00,VWS V13.01,2013-02-04 14:20:00,
2013-02-04 10:21:00,79.5,66.7,30.00,ENE,68,2.2,2.2,65,0.00,,---,0.00,VWS V13.01,2013-02-04 14:21:00,
2013-02-04 10:22:00,79.5,66.7,29.99,East,90,5.1,5.1,65,0.00,,---,0.00,VWS V13.01,2013-02-04 14:22:00,
2013-02-04 10:23:00,79.5,66.7,30.00,North,0,0.0,5.1,65,0.00,,---,0.00,VWS V13.01,2013-02-04 14:23:00,
2013-02-04 10:24:00,79.5,66.7,30.00,ENE,68,4.2,4.2,65,0.00,,---,0.00,VWS V13.01,2013-02-04 14:24:00,
2013-02-04 10:25:00,79.3,66.5,30.00,East,90,0.8,4.2,65,0.00,,---,0.00,VWS V13.01,2013-02-04 14:25:00,
2013-02-04 10:26:00,79.3,66.5,30.00,NE,45,0.0,0.8,65,0.00,,---,0.00,VWS V13.01,2013-02-04 14:26:00,
2013-02-04 10:27:00,79.3,66.5,30.01,NNE,22,0.0,0.0,65,0.00,,---,0.00,VWS V13.01,2013-02-04 14:27:00,
2013-02-04 10:28:00,79.3,66.5,30.01,East,90,3.8,3.8,65,0.00,,---,0.00,VWS V13.01,2013-02-04 14:28:00,
2013-02-04 10:29:00,79.3,66.5,30.01,ESE,112,2.4,2.4,65,0.00,,---,0.00,VWS V13.01,2013-02-04 14:29:00,
2013-02-04 10:30:00,79.3,66.5,30.00,SE,135,2.0,2.4,65,0.00,,---,0.00,VWS V13.01,2013-02-04 14:30:00,
2013-02-04 10:31:00,79.3,66.5,30.00,East,90,1.3,2.0,65,0.00,,---,0.00,VWS V13.01,2013-02-04 14:31:00,
2013-02-04 10:32:00,79.3,67.0,30.00,NE,45,8.0,8.0,66,0.00,,---,0.00,VWS V13.01,2013-02-04 14:32:00,
2013-02-04 10:33:00,79.3,66.5,30.00,ENE,68,4.4,8.0,65,0.00,,---,0.00,VWS V13.01,2013-02-04 14:33:00,
2013-02-04 10:34:00,79.3,66.5,30.00,ENE,68,4.2,4.4,65,0.00,,---,0.00,VWS V13.01,2013-02-04 14:34:00,
2013-02-04 10:35:00,79.3,66.5,30.00,ENE,68,1.3,4.2,65,0.00,,---,0.00,VWS V13.01,2013-02-04 14:35:00,
2013-02-04 10:36:00,79.3,67.0,30.00,ENE,68,5.3,5.3,66,0.00,,---,0.00,VWS V13.01,2013-02-04 14:36:00,
2013-02-04 10:37:00,79.3,67.0,30.00,ESE,112,3.8,5.3,66,0.00,,---,0.00,VWS V13.01,2013-02-04 14:37:00,
2013-02-04 10:38:00,79.3,67.0,30.00,North,0,5.1,5.1,66,0.00,,---,0.00,VWS V13.01,2013-02-04 14:38:00,
2013-02-04 10:39:00,79.3,67.0,30.00,NE,45,6.7,6.7,66,0.00,,---,0.00,VWS V13.01,2013-02-04 14:39:00,
2013-02-04 10:40:00,79.5,67.2,30.00,East,90,6.7,6.7,66,0.00,,---,0.00,VWS V13.01,2013-02-04 14:40:00,
2013-02-04 10:41:00,79.3,67.0,30.00,NE,45,2.4,6.7,66,0.00,,---,0.00,VWS V13.01,2013-02-04 14:41:00,
2013-02-04 10:42:00,79.5,67.2,30.01,NE,45,2.0,2.4,66,0.00,,---,0.00,VWS V13.01,2013-02-04 14:42:00,
2013-02-04 10:43:00,79.5,67.2,30.00,ENE,68,6.7,6.7,66,0.00,,---,0.00,VWS V13.01,2013-02-04 14:43:00,
2013-02-04 10:44:00,79.5,67.2,30.00,ENE,68,5.5,6.7,66,0.00,,---,0.00,VWS V13.01,2013-02-04 14:44:00,
2013-02-04 10:45:00,79.5,67.2,30.00,NE,45,6.2,6.2,66,0.00,,---,0.00,VWS V13.01,2013-02-04 14:45:00,
2013-02-04 10:46:00,79.5,67.2,30.01,ESE,112,5.1,6.2,66,0.00,,---,0.00,VWS V13.01,2013-02-04 14:46:00,
2013-02-04 10:47:00,79.7,67.3,30.01,NNE,22,2.4,5.1,66,0.00,,---,0.00,VWS V13.01,2013-02-04 14:47:00,
2013-02-04 10:48:00,79.7,67.3,30.00,ENE,68,7.6,7.6,66,0.00,,---,0.00,VWS V13.01,2013-02-04 14:48:00,
2013-02-04 10:49:00,79.7,67.3,30.00,ENE,68,4.2,7.6,66,0.00,,---,0.00,VWS V13.01,2013-02-04 14:49:00,
2013-02-04 10:50:00,79.7,67.3,30.00,ENE,68,8.2,8.2,66,0.00,,---,0.00,VWS V13.01,2013-02-04 14:50:00,
2013-02-04 10:51:00,79.8,67.4,30.01,NNW,338,4.6,8.2,66,0.00,,---,0.00,VWS V13.01,2013-02-04 14:51:00,
2013-02-04 10:52:00,79.8,67.4,30.00,East,90,6.4,6.4,66,0.00,,---,0.00,VWS V13.01,2013-02-04 14:52:00,
2013-02-04 10:53:00,79.8,67.4,30.01,NNE,22,4.6,6.4,66,0.00,,---,0.00,VWS V13.01,2013-02-04 14:53:00,
2013-02-04 10:54:00,79.8,67.4,30.01,ENE,68,4.9,4.9,66,0.00,,---,0.00,VWS V13.01,2013-02-04 14:54:00,
2013-02-04 10:55:00,79.8,67.4,30.01,ESE,112,9.1,9.1,66,0.00,,---,0.00,VWS V13.01,2013-02-04 14:55:00,
2013-02-04 10:56:00,79.8,67.4,30.01,ENE,68,3.8,9.1,66,0.00,,---,0.00,VWS V13.01,2013-02-04 14:56:00,
2013-02-04 10:57:00,79.8,67.4,30.01,NNE,22,6.2,6.2,66,0.00,,---,0.00,VWS V13.01,2013-02-04 14:57:00,
2013-02-04 10:58:00,79.8,67.4,30.01,ENE,68,6.2,6.2,66,0.00,,---,0.00,VWS V13.01,2013-02-04 14:58:00,
2013-02-04 10:59:00,79.8,67.4,30.01,ENE,68,8.0,8.0,66,0.00,,---,0.00,VWS V13.01,2013-02-04 14:59:00,
2013-02-04 11:00:00,79.8,67.4,30.01,ENE,68,2.4,8.0,66,0.00,,---,0.00,VWS V13.01,2013-02-04 15:00:00,
2013-02-04 11:01:00,79.8,67.4,30.01,ENE,68,0.0,2.4,66,0.00,,---,0.00,VWS V13.01,2013-02-04 15:01:00,
2013-02-04 11:02:00,79.8,67.4,30.01,East,90,6.0,6.0,66,0.00,,---,0.00,VWS V13.01,2013-02-04 15:02:00,
2013-02-04 11:03:00,79.8,67.4,30.01,ESE,112,4.6,6.0,66,0.00,,---,0.00,VWS V13.01,2013-02-04 15:03:00,
2013-02-04 11:04:00,80.0,67.6,30.01,ESE,112,9.8,9.8,66,0.00,,---,0.00,VWS V13.01,2013-02-04 15:04:00,
2013-02-04 11:05:00,80.2,67.8,30.01,East,90,2.9,9.8,66,0.00,,---,0.00,VWS V13.01,2013-02-04 15:05:00,
2013-02-04 11:06:00,80.2,67.8,30.01,ENE,68,10.5,10.5,66,0.00,,---,0.00,VWS V13.01,2013-02-04 15:06:00,
2013-02-04 11:07:00,80.2,67.8,30.01,ENE,68,7.3,10.5,66,0.00,,---,0.00,VWS V13.01,2013-02-04 15:07:00,
2013-02-04 11:08:00,80.2,67.8,30.01,East,90,5.1,7.3,66,0.00,,---,0.00,VWS V13.01,2013-02-04 15:08:00,
2013-02-04 11:09:00,80.2,67.8,30.01,SE,135,6.4,6.4,66,0.00,,---,0.00,VWS V13.01,2013-02-04 15:09:00,
2013-02-04 11:10:00,80.2,67.8,30.01,ESE,112,2.0,2.0,66,0.00,,---,0.00,VWS V13.01,2013-02-04 15:10:00,
2013-02-04 11:11:00,80.2,67.8,30.01,East,90,0.0,2.0,66,0.00,,---,0.00,VWS V13.01,2013-02-04 15:11:00,
2013-02-04 11:12:00,80.4,68.0,30.01,SSE,158,3.1,3.1,66,0.00,,---,0.00,VWS V13.01,2013-02-04 15:12:00,
2013-02-04 11:13:00,80.4,68.4,30.01,South,180,0.0,3.1,67,0.00,,---,0.00,VWS V13.01,2013-02-04 15:13:00,
2013-02-04 11:14:00,80.2,68.3,30.01,ENE,68,0.0,0.0,67,0.00,,---,0.00,VWS V13.01,2013-02-04 15:14:00,
2013-02-04 11:15:00,80.2,68.3,30.01,SE,135,0.0,0.0,67,0.00,,---,0.00,VWS V13.01,2013-02-04 15:15:00,
2013-02-04 11:16:00,80.2,68.3,30.01,SE,135,0.0,0.0,67,0.00,,---,0.00,VWS V13.01,2013-02-04 15:16:00,
2013-02-04 11:17:00,80.2,68.3,30.01,SSE,158,0.0,0.0,67,0.00,,---,0.00,VWS V13.01,2013-02-04 15:17:00,
2013-02-04 11:18:00,80.2,68.3,30.01,NE,45,0.0,0.0,67,0.00,,---,0.00,VWS V13.01,2013-02-04 15:18:00,
2013-02-04 11:19:00,80.2,68.3,30.00,ESE,112,0.0,0.0,67,0.00,,---,0.00,VWS V13.01,2013-02-04 15:19:00,
2013-02-04 11:20:00,80.2,68.3,30.01,East,90,0.0,0.0,67,0.00,,---,0.00,VWS V13.01,2013-02-04 15:20:00,
2013-02-04 11:21:00,80.2,68.3,30.00,SE,135,0.0,0.0,67,0.00,,---,0.00,VWS V13.01,2013-02-04 15:21:00,
2013-02-04 11:22:00,80.2,68.3,30.00,ENE,68,5.1,5.1,67,0.00,,---,0.00,VWS V13.01,2013-02-04 15:22:00,
2013-02-04 11:23:00,80.2,68.3,30.00,ENE,68,0.8,5.1,67,0.00,,---,0.00,VWS V13.01,2013-02-04 15:23:00,
2013-02-04 11:24:00,80.2,68.3,30.00,NE,45,0.0,0.8,67,0.00,,---,0.00,VWS V13.01,2013-02-04 15:24:00,
2013-02-04 11:25:00,80.2,68.3,30.01,East,90,4.4,4.4,67,0.00,,---,0.00,VWS V13.01,2013-02-04 15:25:00,
2013-02-04 11:26:00,80.2,68.3,30.01,ENE,68,2.9,4.4,67,0.00,,---,0.00,VWS V13.01,2013-02-04 15:26:00,
2013-02-04 11:27:00,80.4,68.4,30.00,East,90,1.7,2.9,67,0.00,,---,0.00,VWS V13.01,2013-02-04 15:27:00,
2013-02-04 11:28:00,80.2,68.3,30.00,ENE,68,0.0,0.0,67,0.00,,---,0.00,VWS V13.01,2013-02-04 15:28:00,
2013-02-04 11:29:00,80.2,68.3,30.00,East,90,1.1,1.1,67,0.00,,---,0.00,VWS V13.01,2013-02-04 15:29:00,
2013-02-04 11:30:00,80.4,68.4,30.00,East,90,0.0,1.1,67,0.00,,---,0.00,VWS V13.01,2013-02-04 15:30:00,
2013-02-04 11:31:00,80.4,68.0,30.01,East,90,5.1,5.1,66,0.00,,---,0.00,VWS V13.01,2013-02-04 15:31:00,
2013-02-04 11:32:00,80.4,68.0,30.01,ESE,112,4.0,5.1,66,0.00,,---,0.00,VWS V13.01,2013-02-04 15:32:00,
2013-02-04 11:33:00,80.4,68.0,30.00,ENE,68,2.6,4.0,66,0.00,,---,0.00,VWS V13.01,2013-02-04 15:33:00,
2013-02-04 11:34:00,80.4,68.0,30.00,SSE,158,0.0,2.6,66,0.00,,---,0.00,VWS V13.01,2013-02-04 15:34:00,
2013-02-04 11:35:00,80.4,68.0,30.00,ESE,112,0.0,0.0,66,0.00,,---,0.00,VWS V13.01,2013-02-04 15:35:00,
2013-02-04 11:36:00,80.4,68.0,30.00,ESE,112,0.0,0.0,66,0.00,,---,0.00,VWS V13.01,2013-02-04 15:36:00,
2013-02-04 11:37:00,80.4,68.0,30.00,NE,45,2.2,2.2,66,0.00,,---,0.00,VWS V13.01,2013-02-04 15:37:00,
2013-02-04 11:38:00,80.4,68.0,30.00,ENE,68,2.2,2.2,66,0.00,,---,0.00,VWS V13.01,2013-02-04 15:38:00,
2013-02-04 11:39:00,80.4,68.0,30.00,ENE,68,2.2,2.2,66,0.00,,---,0.00,VWS V13.01,2013-02-04 15:39:00,
2013-02-04 11:40:00,80.4,68.0,30.00,ENE,68,5.3,5.3,66,0.00,,---,0.00,VWS V13.01,2013-02-04 15:40:00,
2013-02-04 11:41:00,80.4,68.0,30.00,ESE,112,4.2,5.3,66,0.00,,---,0.00,VWS V13.01,2013-02-04 15:41:00,
2013-02-04 11:42:00,80.4,68.0,30.00,ENE,68,2.2,4.2,66,0.00,,---,0.00,VWS V13.01,2013-02-04 15:42:00,
2013-02-04 11:43:00,80.4,68.0,30.00,ENE,68,0.6,0.6,66,0.00,,---,0.00,VWS V13.01,2013-02-04 15:43:00,
2013-02-04 11:44:00,80.4,68.0,30.00,ENE,68,0.0,0.6,66,0.00,,---,0.00,VWS V13.01,2013-02-04 15:44:00,
2013-02-04 11:45:00,80.4,68.0,30.00,NNE,22,2.4,2.4,66,0.00,,---,0.00,VWS V13.01,2013-02-04 15:45:00,
2013-02-04 11:46:00,80.4,68.0,29.99,East,90,2.0,2.4,66,0.00,,---,0.00,VWS V13.01,2013-02-04 15:46:00,
2013-02-04 11:47:00,80.4,68.0,29.99,ENE,68,0.0,2.0,66,0.00,,---,0.00,VWS V13.01,2013-02-04 15:47:00,
2013-02-04 11:48:00,80.4,68.0,29.99,NE,45,0.8,0.8,66,0.00,,---,0.00,VWS V13.01,2013-02-04 15:48:00,
2013-02-04 11:49:00,80.4,68.0,30.00,ENE,68,6.0,6.0,66,0.00,,---,0.00,VWS V13.01,2013-02-04 15:49:00,
2013-02-04 11:50:00,80.6,68.2,30.00,East,90,3.5,6.0,66,0.00,,---,0.00,VWS V13.01,2013-02-04 15:50:00,
2013-02-04 11:51:00,80.6,68.2,30.00,ENE,68,4.9,4.9,66,0.00,,---,0.00,VWS V13.01,2013-02-04 15:51:00,
2013-02-04 11:52:00,80.7,68.3,29.99,NE,45,6.2,6.2,66,0.00,,---,0.00,VWS V13.01,2013-02-04 15:52:00,
2013-02-04 11:53:00,80.7,68.3,29.99,East,90,5.5,6.2,66,0.00,,---,0.00,VWS V13.01,2013-02-04 15:53:00,
2013-02-04 11:54:00,80.7,68.3,29.99,ENE,68,9.3,9.3,66,0.00,,---,0.00,VWS V13.01,2013-02-04 15:54:00,
2013-02-04 11:55:00,80.7,68.3,29.99,ENE,68,8.2,8.2,66,0.00,,---,0.00,VWS V13.01,2013-02-04 15:55:00,
2013-02-04 11:56:00,80.9,68.5,29.99,NE,45,4.2,8.2,66,0.00,,---,0.00,VWS V13.01,2013-02-04 15:56:00,
2013-02-04 11:57:00,80.9,68.5,29.99,NE,45,5.3,5.3,66,0.00,,---,0.00,VWS V13.01,2013-02-04 15:57:00,
2013-02-04 11:58:00,81.1,68.7,29.99,ENE,68,6.2,6.2,66,0.00,,---,0.00,VWS V13.01,2013-02-04 15:58:00,
2013-02-04 11:59:00,81.1,68.2,29.99,ENE,68,2.6,6.2,65,0.00,,---,0.00,VWS V13.01,2013-02-04 15:59:00,
2013-02-04 12:00:00,81.3,68.4,29.99,East,90,1.3,2.6,65,0.00,,---,0.82,VWS V13.01,2013-02-04 16:00:00,
2013-02-04 12:01:00,81.3,68.4,29.99,NE,45,5.5,5.5,65,0.00,,---,0.00,VWS V13.01,2013-02-04 16:01:00,
2013-02-04 12:02:00,81.3,68.4,29.99,ENE,68,6.9,6.9,65,0.00,,---,0.00,VWS V13.01,2013-02-04 16:02:00,
2013-02-04 12:03:00,81.3,68.4,29.99,East,90,5.3,6.9,65,0.00,,---,0.00,VWS V13.01,2013-02-04 16:03:00,
2013-02-04 12:04:00,81.5,68.6,29.99,ESE,112,3.5,5.3,65,0.00,,---,0.00,VWS V13.01,2013-02-04 16:04:00,
2013-02-04 12:05:00,81.6,68.7,29.99,East,90,2.0,3.5,65,0.00,,---,0.00,VWS V13.01,2013-02-04 16:05:00,
2013-02-04 12:06:00,81.6,68.7,29.99,NNW,338,4.4,4.4,65,0.00,,---,0.00,VWS V13.01,2013-02-04 16:06:00,
2013-02-04 12:07:00,81.6,68.7,29.99,NE,45,8.0,8.0,65,0.00,,---,0.00,VWS V13.01,2013-02-04 16:07:00,
2013-02-04 12:08:00,81.6,68.7,29.99,NE,45,3.8,3.8,65,0.00,,---,0.00,VWS V13.01,2013-02-04 16:08:00,
2013-02-04 12:09:00,81.6,68.7,29.99,East,90,3.8,3.8,65,0.00,,---,0.00,VWS V13.01,2013-02-04 16:09:00,
2013-02-04 12:10:00,81.6,68.7,29.99,ENE,68,2.2,3.8,65,0.00,,---,0.00,VWS V13.01,2013-02-04 16:10:00,
2013-02-04 12:11:00,81.8,68.9,29.99,ENE,68,3.5,3.5,65,0.00,,---,0.00,VWS V13.01,2013-02-04 16:11:00,
2013-02-04 12:12:00,81.8,68.9,29.98,East,90,4.4,4.4,65,0.00,,---,0.00,VWS V13.01,2013-02-04 16:12:00,
2013-02-04 12:13:00,82.0,69.1,29.98,NE,45,6.7,6.7,65,0.00,,---,0.00,VWS V13.01,2013-02-04 16:13:00,
2013-02-04 12:14:00,82.0,69.1,29.98,NNE,22,2.0,6.7,65,0.00,,---,0.00,VWS V13.01,2013-02-04 16:14:00,
2013-02-04 12:15:00,82.0,69.1,29.98,ENE,68,7.1,7.1,65,0.00,,---,0.00,VWS V13.01,2013-02-04 16:15:00,
2013-02-04 12:16:00,82.0,69.1,29.98,NE,45,3.8,7.1,65,0.00,,---,0.00,VWS V13.01,2013-02-04 16:16:00,
2013-02-04 12:17:00,82.0,68.6,29.98,ENE,68,0.0,3.8,64,0.00,,---,0.00,VWS V13.01,2013-02-04 16:17:00,
2013-02-04 12:18:00,82.0,68.6,29.98,ENE,68,8.5,8.5,64,0.00,,---,0.00,VWS V13.01,2013-02-04 16:18:00,
2013-02-04 12:19:00,82.0,68.6,29.98,NE,45,7.3,8.5,64,0.00,,---,0.00,VWS V13.01,2013-02-04 16:19:00,
2013-02-04 12:20:00,82.0,69.1,29.98,NNE,22,10.2,10.2,65,0.00,,---,0.00,VWS V13.01,2013-02-04 16:20:00,
2013-02-04 12:21:00,82.0,69.1,29.98,East,90,6.4,10.2,65,0.00,,---,0.00,VWS V13.01,2013-02-04 16:21:00,
2013-02-04 12:22:00,82.0,69.1,29.98,NE,45,0.0,6.4,65,0.00,,---,0.00,VWS V13.01,2013-02-04 16:22:00,
2013-02-04 12:23:00,82.0,69.1,29.98,NE,45,1.3,1.3,65,0.00,,---,0.00,VWS V13.01,2013-02-04 16:23:00,
2013-02-04 12:24:00,82.0,68.6,29.98,NE,45,0.0,0.0,64,0.00,,---,0.00,VWS V13.01,2013-02-04 16:24:00,
2013-02-04 12:25:00,82.2,68.8,29.98,ENE,68,2.6,2.6,64,0.00,,---,0.00,VWS V13.01,2013-02-04 16:25:00,
2013-02-04 12:26:00,82.2,68.8,29.98,NE,45,6.9,6.9,64,0.00,,---,0.00,VWS V13.01,2013-02-04 16:26:00,
2013-02-04 12:27:00,82.2,69.3,29.98,ESE,112,2.4,6.9,65,0.00,,---,0.00,VWS V13.01,2013-02-04 16:27:00,
2013-02-04 12:28:00,82.2,69.3,29.98,ENE,68,5.8,5.8,65,0.00,,---,0.00,VWS V13.01,2013-02-04 16:28:00,
2013-02-04 12:29:00,82.2,69.3,29.98,ENE,68,4.6,5.8,65,0.00,,---,0.00,VWS V13.01,2013-02-04 16:29:00,
2013-02-04 12:30:00,82.4,69.5,29.98,ENE,68,5.8,5.8,65,0.00,,---,0.00,VWS V13.01,2013-02-04 16:30:00,
2013-02-04 12:31:00,82.5,69.1,29.98,East,90,3.8,5.8,64,0.00,,---,0.00,VWS V13.01,2013-02-04 16:31:00,
2013-02-04 12:32:00,82.5,69.1,29.98,NE,45,7.1,7.1,64,0.00,,---,0.00,VWS V13.01,2013-02-04 16:32:00,
2013-02-04 12:33:00,82.5,69.1,29.98,ENE,68,1.3,7.1,64,0.00,,---,0.00,VWS V13.01,2013-02-04 16:33:00,
2013-02-04 12:34:00,82.7,69.3,29.98,East,90,4.4,4.4,64,0.00,,---,0.00,VWS V13.01,2013-02-04 16:34:00,
2013-02-04 12:35:00,82.7,69.3,29.98,East,90,2.2,4.4,64,0.00,,---,0.00,VWS V13.01,2013-02-04 16:35:00,
2013-02-04 12:36:00,82.9,69.5,29.97,ENE,68,2.4,2.4,64,0.00,,---,0.00,VWS V13.01,2013-02-04 16:36:00,
2013-02-04 12:37:00,82.9,69.5,29.97,ENE,68,4.9,4.9,64,0.00,,---,0.00,VWS V13.01,2013-02-04 16:37:00,
2013-02-04 12:38:00,82.9,69.5,29.97,East,90,6.0,6.0,64,0.00,,---,0.00,VWS V13.01,2013-02-04 16:38:00,
2013-02-04 12:39:00,82.9,69.0,29.97,ENE,68,3.3,6.0,63,0.00,,---,0.00,VWS V13.01,2013-02-04 16:39:00,
2013-02-04 12:40:00,83.1,69.2,29.97,East,90,3.8,3.8,63,0.00,,---,0.00,VWS V13.01,2013-02-04 16:40:00,
2013-02-04 12:41:00,83.1,69.2,29.97,East,90,6.7,6.7,63,0.00,,---,0.00,VWS V13.01,2013-02-04 16:41:00,
2013-02-04 12:42:00,83.1,69.2,29.97,East,90,3.5,6.7,63,0.00,,---,0.00,VWS V13.01,2013-02-04 16:42:00,
2013-02-04 12:43:00,83.3,69.4,29.96,North,0,0.0,3.5,63,0.00,,---,0.00,VWS V13.01,2013-02-04 16:43:00,
2013-02-04 12:44:00,83.3,69.4,29.97,ENE,68,9.1,9.1,63,0.00,,---,0.00,VWS V13.01,2013-02-04 16:44:00,
2013-02-04 12:45:00,83.3,69.4,29.97,ESE,112,5.8,9.1,63,0.00,,---,0.00,VWS V13.01,2013-02-04 16:45:00,
2013-02-04 12:46:00,83.4,69.5,29.97,ENE,68,7.6,7.6,63,0.00,,---,0.00,VWS V13.01,2013-02-04 16:46:00,
2013-02-04 12:47:00,83.4,69.5,29.97,NE,45,7.3,7.6,63,0.00,,---,0.00,VWS V13.01,2013-02-04 16:47:00,
2013-02-04 12:48:00,83.4,69.5,29.97,ENE,68,7.1,7.1,63,0.00,,---,0.00,VWS V13.01,2013-02-04 16:48:00,
2013-02-04 12:49:00,83.4,69.5,29.97,NE,45,7.3,7.3,63,0.00,,---,0.00,VWS V13.01,2013-02-04 16:49:00,
2013-02-04 12:50:00,83.4,69.5,29.96,NE,45,10.2,10.2,63,0.00,,---,0.00,VWS V13.01,2013-02-04 16:50:00,
2013-02-04 12:51:00,83.4,69.5,29.96,East,90,10.7,10.7,63,0.00,,---,0.00,VWS V13.01,2013-02-04 16:51:00,
2013-02-04 12:52:00,83.6,69.7,29.96,East,90,8.7,10.7,63,0.00,,---,0.00,VWS V13.01,2013-02-04 16:52:00,
2013-02-04 12:53:00,83.6,69.7,29.96,SE,135,5.8,5.8,63,0.00,,---,0.00,VWS V13.01,2013-02-04 16:53:00,
2013-02-04 12:54:00,83.8,69.4,29.96,East,90,7.6,7.6,62,0.00,,---,0.00,VWS V13.01,2013-02-04 16:54:00,
2013-02-04 12:55:00,83.8,69.4,29.96,ENE,68,12.5,12.5,62,0.00,,---,0.00,VWS V13.01,2013-02-04 16:55:00,
2013-02-04 12:56:00,83.8,69.4,29.96,ENE,68,0.0,12.5,62,0.00,,---,0.00,VWS V13.01,2013-02-04 16:56:00,
2013-02-04 12:57:00,84.0,69.1,29.96,ESE,112,8.9,8.9,61,0.00,,---,0.00,VWS V13.01,2013-02-04 16:57:00,
2013-02-04 12:58:00,84.0,69.1,29.95,SSE,158,3.3,8.9,61,0.00,,---,0.00,VWS V13.01,2013-02-04 16:58:00,
2013-02-04 12:59:00,84.0,69.1,29.95,ENE,68,5.1,5.1,61,0.00,,---,0.00,VWS V13.01,2013-02-04 16:59:00,
2013-02-04 13:00:00,84.2,69.3,29.95,ESE,112,1.7,5.1,61,0.00,,---,0.82,VWS V13.01,2013-02-04 17:00:00,
2013-02-04 13:01:00,84.2,68.8,29.96,East,90,6.4,6.4,60,0.00,,---,0.00,VWS V13.01,2013-02-04 17:01:00,
2013-02-04 13:02:00,84.3,68.9,29.96,ENE,68,6.7,6.7,60,0.00,,---,0.00,VWS V13.01,2013-02-04 17:02:00,
2013-02-04 13:03:00,84.3,68.9,29.96,ESE,112,8.9,8.9,60,0.00,,---,0.00,VWS V13.01,2013-02-04 17:03:00,
2013-02-04 13:04:00,84.3,68.9,29.96,NE,45,0.0,0.0,60,0.00,,---,0.00,VWS V13.01,2013-02-04 17:04:00,
2013-02-04 13:05:00,84.3,68.4,29.96,ENE,68,4.6,4.6,59,0.00,,---,0.00,VWS V13.01,2013-02-04 17:05:00,
2013-02-04 13:06:00,84.3,68.4,29.96,ENE,68,7.6,7.6,59,0.00,,---,0.00,VWS V13.01,2013-02-04 17:06:00,
2013-02-04 13:07:00,84.3,68.4,29.95,ENE,68,11.4,11.4,59,0.00,,---,0.00,VWS V13.01,2013-02-04 17:07:00,
2013-02-04 13:08:00,84.5,68.6,29.95,ESE,112,8.9,8.9,59,0.00,,---,0.00,VWS V13.01,2013-02-04 17:08:00,
2013-02-04 13:09:00,84.5,68.6,29.95,ENE,68,5.8,8.9,59,0.00,,---,0.00,VWS V13.01,2013-02-04 17:09:00,
2013-02-04 13:10:00,84.5,68.1,29.95,East,90,2.4,5.8,58,0.00,,---,0.00,VWS V13.01,2013-02-04 17:10:00,
2013-02-04 13:11:00,84.5,68.1,29.95,ENE,68,10.5,10.5,58,0.00,,---,0.00,VWS V13.01,2013-02-04 17:11:00,
2013-02-04 13:12:00,84.5,68.1,29.95,ESE,112,2.2,10.5,58,0.00,,---,0.00,VWS V13.01,2013-02-04 17:12:00,
2013-02-04 13:13:00,84.7,68.3,29.95,SSE,158,2.0,2.2,58,0.00,,---,0.00,VWS V13.01,2013-02-04 17:13:00,
2013-02-04 13:14:00,84.7,68.3,29.95,East,90,5.5,5.5,58,0.00,,---,0.00,VWS V13.01,2013-02-04 17:14:00,
2013-02-04 13:15:00,84.7,68.3,29.95,SE,135,0.0,0.0,58,0.00,,---,0.00,VWS V13.01,2013-02-04 17:15:00,
2013-02-04 13:16:00,84.7,68.3,29.95,SSE,158,7.3,7.3,58,0.00,,---,0.00,VWS V13.01,2013-02-04 17:16:00,
2013-02-04 13:17:00,84.7,68.3,29.95,ENE,68,0.0,7.3,58,0.00,,---,0.00,VWS V13.01,2013-02-04 17:17:00,
2013-02-04 13:18:00,84.7,68.3,29.95,SE,135,2.0,2.0,58,0.00,,---,0.00,VWS V13.01,2013-02-04 17:18:00,
2013-02-04 13:19:00,84.9,68.5,29.95,ENE,68,4.9,4.9,58,0.00,,---,0.00,VWS V13.01,2013-02-04 17:19:00,
2013-02-04 13:20:00,84.9,68.5,29.95,ENE,68,6.7,6.7,58,0.00,,---,0.00,VWS V13.01,2013-02-04 17:20:00,
2013-02-04 13:21:00,84.9,68.5,29.95,ENE,68,4.6,6.7,58,0.00,,---,0.00,VWS V13.01,2013-02-04 17:21:00,
2013-02-04 13:22:00,85.1,68.7,29.95,ENE,68,10.7,10.7,58,0.00,,---,0.00,VWS V13.01,2013-02-04 17:22:00,
2013-02-04 13:23:00,85.1,68.7,29.94,East,90,11.8,11.8,58,0.00,,---,0.00,VWS V13.01,2013-02-04 17:23:00,
2013-02-04 13:24:00,85.1,68.2,29.94,ENE,68,9.1,11.8,57,0.00,,---,0.00,VWS V13.01,2013-02-04 17:24:00,
2013-02-04 13:25:00,85.1,68.2,29.94,ENE,68,5.3,9.1,57,0.00,,---,0.00,VWS V13.01,2013-02-04 17:25:00,
2013-02-04 13:26:00,85.1,68.2,29.94,East,90,8.5,8.5,57,0.00,,---,0.00,VWS V13.01,2013-02-04 17:26:00,
2013-02-04 13:27:00,85.1,68.2,29.94,ESE,112,2.9,8.5,57,0.00,,---,0.00,VWS V13.01,2013-02-04 17:27:00,
2013-02-04 13:28:00,85.2,68.3,29.94,East,90,0.0,2.9,57,0.00,,---,0.00,VWS V13.01,2013-02-04 17:28:00,
2013-02-04 13:29:00,85.1,68.2,29.94,North,0,4.0,4.0,57,0.00,,---,0.00,VWS V13.01,2013-02-04 17:29:00,
2013-02-04 13:30:00,85.1,68.2,29.94,SE,135,7.6,7.6,57,0.00,,---,0.00,VWS V13.01,2013-02-04 17:30:00,
2013-02-04 13:31:00,85.2,68.3,29.94,East,90,2.6,7.6,57,0.00,,---,0.00,VWS V13.01,2013-02-04 17:31:00,
2013-02-04 13:32:00,85.2,68.3,29.94,East,90,7.6,7.6,57,0.00,,---,0.00,VWS V13.01,2013-02-04 17:32:00,
2013-02-04 13:33:00,85.2,68.3,29.94,ENE,68,6.9,7.6,57,0.00,,---,0.00,VWS V13.01,2013-02-04 17:33:00,
2013-02-04 13:34:00,85.2,68.3,29.94,ENE,68,5.1,5.1,57,0.00,,---,0.00,VWS V13.01,2013-02-04 17:34:00,
2013-02-04 13:35:00,85.2,68.3,29.94,ESE,112,5.3,5.3,57,0.00,,---,0.00,VWS V13.01,2013-02-04 17:35:00,
2013-02-04 13:36:00,85.2,68.8,29.94,ENE,68,1.7,1.7,58,0.00,,---,0.00,VWS V13.01,2013-02-04 17:36:00,
2013-02-04 13:37:00,85.2,68.3,29.94,ENE,68,1.7,1.7,57,0.00,,---,0.00,VWS V13.01,2013-02-04 17:37:00,
2013-02-04 13:38:00,85.2,68.3,29.94,ESE,112,7.6,7.6,57,0.00,,---,0.00,VWS V13.01,2013-02-04 17:38:00,
2013-02-04 13:39:00,85.2,68.3,29.94,SSE,158,4.2,7.6,57,0.00,,---,0.00,VWS V13.01,2013-02-04 17:39:00,
2013-02-04 13:40:00,85.2,68.3,29.93,ESE,112,6.7,6.7,57,0.00,,---,0.00,VWS V13.01,2013-02-04 17:40:00,
2013-02-04 13:41:00,85.2,68.3,29.93,ENE,68,4.2,6.7,57,0.00,,---,0.00,VWS V13.01,2013-02-04 17:41:00,
2013-02-04 13:42:00,85.2,67.8,29.93,ENE,68,9.8,9.8,56,0.00,,---,0.00,VWS V13.01,2013-02-04 17:42:00,
2013-02-04 13:43:00,85.2,67.8,29.94,East,90,4.0,9.8,56,0.00,,---,0.00,VWS V13.01,2013-02-04 17:43:00,
2013-02-04 13:44:00,85.2,67.8,29.93,ENE,68,9.8,9.8,56,0.00,,---,0.00,VWS V13.01,2013-02-04 17:44:00,
2013-02-04 13:45:00,85.2,67.8,29.93,East,90,16.3,16.3,56,0.00,,---,0.00,VWS V13.01,2013-02-04 17:45:00,
2013-02-04 13:46:00,85.2,67.8,29.93,ENE,68,5.1,16.3,56,0.00,,---,0.00,VWS V13.01,2013-02-04 17:46:00,
2013-02-04 13:47:00,85.2,67.8,29.93,ESE,112,8.0,8.0,56,0.00,,---,0.00,VWS V13.01,2013-02-04 17:47:00,
2013-02-04 13:48:00,85.2,67.8,29.93,ESE,112,4.4,8.0,56,0.00,,---,0.00,VWS V13.01,2013-02-04 17:48:00,
2013-02-04 13:49:00,85.4,67.9,29.93,NE,45,8.2,8.2,56,0.00,,---,0.00,VWS V13.01,2013-02-04 17:49:00,
2013-02-04 13:50:00,85.2,67.8,29.93,SE,135,10.0,10.0,56,0.00,,---,0.00,VWS V13.01,2013-02-04 17:50:00,
2013-02-04 13:51:00,85.6,68.1,29.93,ENE,68,3.8,10.0,56,0.00,,---,0.00,VWS V13.01,2013-02-04 17:51:00,
2013-02-04 13:52:00,85.6,68.1,29.93,East,90,5.8,5.8,56,0.00,,---,0.00,VWS V13.01,2013-02-04 17:52:00,
2013-02-04 13:53:00,85.6,68.1,29.93,ENE,68,6.9,6.9,56,0.00,,---,0.00,VWS V13.01,2013-02-04 17:53:00,
2013-02-04 13:54:00,85.6,68.1,29.93,ESE,112,7.1,7.1,56,0.00,,---,0.00,VWS V13.01,2013-02-04 17:54:00,
2013-02-04 13:55:00,85.8,68.3,29.93,SSW,202,4.6,7.1,56,0.00,,---,0.00,VWS V13.01,2013-02-04 17:55:00,
2013-02-04 13:56:00,85.8,68.3,29.93,ESE,112,5.8,5.8,56,0.00,,---,0.00,VWS V13.01,2013-02-04 17:56:00,
2013-02-04 13:57:00,85.8,68.3,29.93,East,90,0.0,0.0,56,0.00,,---,0.00,VWS V13.01,2013-02-04 17:57:00,
2013-02-04 13:58:00,85.8,68.3,29.93,NE,45,9.6,9.6,56,0.00,,---,0.00,VWS V13.01,2013-02-04 17:58:00,
2013-02-04 13:59:00,85.8,67.8,29.93,ENE,68,11.4,11.4,55,0.00,,---,0.00,VWS V13.01,2013-02-04 17:59:00,
2013-02-04 14:00:00,85.8,67.8,29.92,ENE,68,6.9,11.4,55,0.00,,---,0.00,VWS V13.01,2013-02-04 18:00:00,
2013-02-04 14:01:00,85.8,67.8,29.92,ENE,68,9.3,9.3,55,0.00,,---,0.00,VWS V13.01,2013-02-04 18:01:00,
2013-02-04 14:02:00,85.8,67.8,29.92,ENE,68,12.3,12.3,55,0.00,,---,0.00,VWS V13.01,2013-02-04 18:02:00,
2013-02-04 14:03:00,85.8,67.8,29.92,ENE,68,11.6,12.3,55,0.00,,---,0.00,VWS V13.01,2013-02-04 18:03:00,
2013-02-04 14:04:00,86.0,68.0,29.92,NE,45,8.0,11.6,55,0.00,,---,0.00,VWS V13.01,2013-02-04 18:04:00,
2013-02-04 14:05:00,86.1,68.1,29.93,ENE,68,14.5,14.5,55,0.00,,---,0.00,VWS V13.01,2013-02-04 18:05:00,
2013-02-04 14:06:00,85.8,67.8,29.93,East,90,2.4,14.5,55,0.00,,---,0.00,VWS V13.01,2013-02-04 18:06:00,
2013-02-04 14:07:00,86.1,68.1,29.92,ENE,68,3.8,3.8,55,0.00,,---,0.00,VWS V13.01,2013-02-04 18:07:00,
2013-02-04 14:08:00,86.1,68.1,29.92,ESE,112,5.3,5.3,55,0.00,,---,0.00,VWS V13.01,2013-02-04 18:08:00,
2013-02-04 14:09:00,86.1,67.5,29.92,ENE,68,6.7,6.7,54,0.00,,---,0.00,VWS V13.01,2013-02-04 18:09:00,
2013-02-04 14:10:00,86.1,67.5,29.92,East,90,17.2,17.2,54,0.00,,---,0.00,VWS V13.01,2013-02-04 18:10:00,
2013-02-04 14:11:00,86.1,67.5,29.92,ENE,68,7.8,17.2,54,0.00,,---,0.00,VWS V13.01,2013-02-04 18:11:00,
2013-02-04 14:12:00,86.1,67.5,29.92,East,90,10.7,10.7,54,0.00,,---,0.00,VWS V13.01,2013-02-04 18:12:00,
2013-02-04 14:13:00,86.1,67.5,29.92,NE,45,8.5,10.7,54,0.00,,---,0.00,VWS V13.01,2013-02-04 18:13:00,
2013-02-04 14:16:00,86.1,68.1,29.92,ESE,112,2.9,2.9,55,0.00,,---,0.00,VWS V13.01,2013-02-04 18:16:00,
2013-02-04 14:17:00,86.1,68.1,29.92,ENE,68,9.8,9.8,55,0.00,,---,0.00,VWS V13.01,2013-02-04 18:17:00,
2013-02-04 14:18:00,86.1,67.5,29.92,East,90,8.5,9.8,54,0.00,,---,0.00,VWS V13.01,2013-02-04 18:18:00,
2013-02-04 14:19:00,86.0,67.4,29.92,ENE,68,15.8,15.8,54,0.00,,---,0.00,VWS V13.01,2013-02-04 18:19:00,
2013-02-04 14:20:00,86.1,67.5,29.92,East,90,10.5,15.8,54,0.00,,---,0.00,VWS V13.01,2013-02-04 18:20:00,
2013-02-04 14:21:00,86.1,67.5,29.92,ESE,112,6.9,6.9,54,0.00,,---,0.00,VWS V13.01,2013-02-04 18:21:00,
2013-02-04 14:22:00,86.1,67.5,29.92,East,90,14.5,14.5,54,0.00,,---,0.00,VWS V13.01,2013-02-04 18:22:00,
2013-02-04 14:23:00,86.1,67.5,29.92,East,90,3.5,14.5,54,0.00,,---,0.00,VWS V13.01,2013-02-04 18:23:00,
2013-02-04 14:24:00,86.1,67.5,29.92,ENE,68,9.1,9.1,54,0.00,,---,0.00,VWS V13.01,2013-02-04 18:24:00,
2013-02-04 14:25:00,86.0,67.4,29.92,ENE,68,2.2,9.1,54,0.00,,---,0.00,VWS V13.01,2013-02-04 18:25:00,
2013-02-04 14:26:00,86.1,67.5,29.92,ENE,68,0.0,2.2,54,0.00,,---,0.00,VWS V13.01,2013-02-04 18:26:00,
2013-02-04 14:27:00,86.1,68.1,29.92,ESE,112,2.9,2.9,55,0.00,,---,0.00,VWS V13.01,2013-02-04 18:27:00,
2013-02-04 14:28:00,86.1,67.5,29.92,ESE,112,4.0,4.0,54,0.00,,---,0.00,VWS V13.01,2013-02-04 18:28:00,
2013-02-04 14:29:00,86.1,67.5,29.92,East,90,6.0,6.0,54,0.00,,---,0.00,VWS V13.01,2013-02-04 18:29:00,
2013-02-04 14:30:00,86.1,67.5,29.92,ESE,112,4.4,6.0,54,0.00,,---,0.00,VWS V13.01,2013-02-04 18:30:00,
2013-02-04 14:31:00,86.1,67.5,29.92,NE,45,3.5,3.5,54,0.00,,---,0.00,VWS V13.01,2013-02-04 18:31:00,
2013-02-04 14:32:00,86.1,67.5,29.92,ENE,68,6.4,6.4,54,0.00,,---,0.00,VWS V13.01,2013-02-04 18:32:00,
2013-02-04 14:33:00,86.3,67.2,29.92,North,0,0.0,6.4,53,0.00,,---,0.00,VWS V13.01,2013-02-04 18:33:00,
2013-02-04 14:34:00,86.3,67.2,29.92,NNE,22,7.6,7.6,53,0.00,,---,0.00,VWS V13.01,2013-02-04 18:34:00,
2013-02-04 14:35:00,86.3,67.7,29.92,ESE,112,3.1,7.6,54,0.00,,---,0.00,VWS V13.01,2013-02-04 18:35:00,
2013-02-04 14:36:00,86.5,67.9,29.92,NE,45,4.0,4.0,54,0.00,,---,0.00,VWS V13.01,2013-02-04 18:36:00,
2013-02-04 14:37:00,86.1,67.5,29.92,ENE,68,0.0,0.0,54,0.00,,---,0.00,VWS V13.01,2013-02-04 18:37:00,
2013-02-04 14:38:00,86.5,67.3,29.91,NE,45,12.0,12.0,53,0.00,,---,0.00,VWS V13.01,2013-02-04 18:38:00,
2013-02-04 14:39:00,86.7,67.5,29.91,ESE,112,5.5,12.0,53,0.00,,---,0.00,VWS V13.01,2013-02-04 18:39:00,
2013-02-04 14:40:00,86.7,67.5,29.91,ESE,112,3.3,5.5,53,0.00,,---,0.00,VWS V13.01,2013-02-04 18:40:00,
2013-02-04 14:41:00,86.7,67.5,29.91,East,90,3.3,3.3,53,0.00,,---,0.00,VWS V13.01,2013-02-04 18:41:00,
2013-02-04 14:42:00,86.7,67.5,29.92,ESE,112,4.6,4.6,53,0.00,,---,0.00,VWS V13.01,2013-02-04 18:42:00,
2013-02-04 14:43:00,86.7,67.5,29.92,ESE,112,14.3,14.3,53,0.00,,---,0.00,VWS V13.01,2013-02-04 18:43:00,
2013-02-04 14:44:00,86.7,67.5,29.92,ENE,68,8.9,14.3,53,0.00,,---,0.00,VWS V13.01,2013-02-04 18:44:00,
2013-02-04 14:45:00,86.7,67.5,29.91,NE,45,6.4,8.9,53,0.00,,---,0.00,VWS V13.01,2013-02-04 18:45:00,
2013-02-04 14:46:00,86.9,67.7,29.91,East,90,4.2,6.4,53,0.00,,---,0.00,VWS V13.01,2013-02-04 18:46:00,
2013-02-04 14:47:00,86.9,67.2,29.91,ENE,68,3.8,4.2,52,0.00,,---,0.00,VWS V13.01,2013-02-04 18:47:00,
2013-02-04 14:48:00,87.0,67.3,29.91,NE,45,5.8,5.8,52,0.00,,---,0.00,VWS V13.01,2013-02-04 18:48:00,
2013-02-04 14:49:00,86.9,67.2,29.91,NE,45,5.5,5.8,52,0.00,,---,0.00,VWS V13.01,2013-02-04 18:49:00,
2013-02-04 14:50:00,86.9,67.2,29.92,SE,135,5.8,5.8,52,0.00,,---,0.00,VWS V13.01,2013-02-04 18:50:00,
2013-02-04 14:51:00,87.0,67.3,29.91,NE,45,2.0,5.8,52,0.00,,---,0.00,VWS V13.01,2013-02-04 18:51:00,
2013-02-04 14:52:00,87.0,67.8,29.91,East,90,5.3,5.3,53,0.00,,---,0.00,VWS V13.01,2013-02-04 18:52:00,
2013-02-04 14:53:00,87.0,67.8,29.92,ENE,68,11.1,11.1,53,0.00,,---,0.00,VWS V13.01,2013-02-04 18:53:00,
2013-02-04 14:54:00,87.0,67.8,29.91,ENE,68,5.8,5.8,53,0.00,,---,0.00,VWS V13.01,2013-02-04 18:54:00,
2013-02-04 14:55:00,87.0,67.8,29.91,ENE,68,7.1,7.1,53,0.00,,---,0.00,VWS V13.01,2013-02-04 18:55:00,
2013-02-04 14:56:00,87.0,67.3,29.91,ENE,68,7.6,7.6,52,0.00,,---,0.00,VWS V13.01,2013-02-04 18:56:00,
2013-02-04 14:57:00,87.0,67.3,29.91,NNE,22,1.7,7.6,52,0.00,,---,0.00,VWS V13.01,2013-02-04 18:57:00,
2013-02-04 14:58:00,86.9,67.2,29.91,ENE,68,1.3,1.7,52,0.00,,---,0.00,VWS V13.01,2013-02-04 18:58:00,
2013-02-04 14:59:00,86.9,67.2,29.91,ESE,112,5.1,5.1,52,0.00,,---,0.00,VWS V13.01,2013-02-04 18:59:00,
2013-02-04 15:00:00,86.9,67.2,29.91,East,90,5.8,5.8,52,0.00,,---,0.00,VWS V13.01,2013-02-04 19:00:00,
2013-02-04 15:01:00,86.9,67.2,29.91,ESE,112,4.4,5.8,52,0.00,,---,0.00,VWS V13.01,2013-02-04 19:01:00,
2013-02-04 15:02:00,87.0,67.3,29.91,SE,135,0.8,4.4,52,0.00,,---,0.00,VWS V13.01,2013-02-04 19:02:00,
2013-02-04 15:03:00,87.0,67.3,29.91,ENE,68,7.3,7.3,52,0.00,,---,0.00,VWS V13.01,2013-02-04 19:03:00,
2013-02-04 15:04:00,87.0,67.3,29.91,East,90,6.7,6.7,52,0.00,,---,0.00,VWS V13.01,2013-02-04 19:04:00,
2013-02-04 15:05:00,87.0,67.3,29.91,SE,135,2.4,6.7,52,0.00,,---,0.00,VWS V13.01,2013-02-04 19:05:00,
2013-02-04 15:06:00,87.0,67.3,29.91,NE,45,9.3,9.3,52,0.00,,---,0.00,VWS V13.01,2013-02-04 19:06:00,
2013-02-04 15:07:00,86.9,67.2,29.91,ENE,68,10.0,10.0,52,0.00,,---,0.00,VWS V13.01,2013-02-04 19:07:00,
2013-02-04 15:08:00,87.0,67.3,29.91,ENE,68,7.1,10.0,52,0.00,,---,0.00,VWS V13.01,2013-02-04 19:08:00,
2013-02-04 15:09:00,87.0,67.3,29.91,East,90,5.3,7.1,52,0.00,,---,0.00,VWS V13.01,2013-02-04 19:09:00,
2013-02-04 15:10:00,86.9,67.2,29.91,East,90,7.6,7.6,52,0.00,,---,0.00,VWS V13.01,2013-02-04 19:10:00,
2013-02-04 15:11:00,87.0,67.3,29.91,ENE,68,8.5,8.5,52,0.00,,---,0.00,VWS V13.01,2013-02-04 19:11:00,
2013-02-04 15:12:00,86.9,67.2,29.91,ENE,68,12.0,12.0,52,0.00,,---,0.00,VWS V13.01,2013-02-04 19:12:00,
2013-02-04 15:13:00,86.9,67.2,29.91,ENE,68,0.0,12.0,52,0.00,,---,0.00,VWS V13.01,2013-02-04 19:13:00,
2013-02-04 15:14:00,86.9,67.7,29.91,East,90,8.5,8.5,53,0.00,,---,0.00,VWS V13.01,2013-02-04 19:14:00,
2013-02-04 15:15:00,86.9,67.2,29.91,ENE,68,9.1,9.1,52,0.00,,---,0.00,VWS V13.01,2013-02-04 19:15:00,
2013-02-04 15:16:00,86.9,67.2,29.91,NE,45,0.0,9.1,52,0.00,,---,0.00,VWS V13.01,2013-02-04 19:16:00,
2013-02-04 15:17:00,86.9,67.2,29.91,ESE,112,0.0,0.0,52,0.00,,---,0.00,VWS V13.01,2013-02-04 19:17:00,
2013-02-04 15:18:00,86.9,67.2,29.91,ENE,68,15.6,15.6,52,0.00,,---,0.00,VWS V13.01,2013-02-04 19:18:00,
2013-02-04 15:19:00,86.9,67.2,29.91,ENE,68,3.5,15.6,52,0.00,,---,0.00,VWS V13.01,2013-02-04 19:19:00,
2013-02-04 15:20:00,86.9,67.2,29.91,East,90,5.3,5.3,52,0.00,,---,0.00,VWS V13.01,2013-02-04 19:20:00,
2013-02-04 15:21:00,86.9,67.2,29.91,WSW,248,0.8,0.8,52,0.00,,---,0.00,VWS V13.01,2013-02-04 19:21:00,
2013-02-04 15:22:00,86.9,67.2,29.91,NE,45,10.2,10.2,52,0.00,,---,0.00,VWS V13.01,2013-02-04 19:22:00,
2013-02-04 15:23:00,86.9,67.2,29.91,ENE,68,2.9,10.2,52,0.00,,---,0.00,VWS V13.01,2013-02-04 19:23:00,
2013-02-04 15:24:00,86.9,67.2,29.91,ESE,112,5.1,5.1,52,0.00,,---,0.00,VWS V13.01,2013-02-04 19:24:00,
2013-02-04 15:25:00,86.9,67.2,29.91,SSE,158,3.3,3.3,52,0.00,,---,0.00,VWS V13.01,2013-02-04 19:25:00,
2013-02-04 15:26:00,87.0,67.3,29.91,East,90,9.6,9.6,52,0.00,,---,0.00,VWS V13.01,2013-02-04 19:26:00,
2013-02-04 15:27:00,86.9,67.2,29.91,ENE,68,8.5,9.6,52,0.00,,---,0.00,VWS V13.01,2013-02-04 19:27:00,
2013-02-04 15:28:00,87.0,67.3,29.91,ESE,112,5.5,5.5,52,0.00,,---,0.00,VWS V13.01,2013-02-04 19:28:00,
2013-02-04 15:29:00,86.9,67.2,29.91,ESE,112,10.7,10.7,52,0.00,,---,0.00,VWS V13.01,2013-02-04 19:29:00,
2013-02-04 15:30:00,87.0,67.3,29.91,East,90,8.0,8.0,52,0.00,,---,0.00,VWS V13.01,2013-02-04 19:30:00,
2013-02-04 15:31:00,87.0,67.3,29.91,East,90,3.8,8.0,52,0.00,,---,0.00,VWS V13.01,2013-02-04 19:31:00,
2013-02-04 15:32:00,87.0,67.3,29.91,SE,135,0.0,3.8,52,0.00,,---,0.00,VWS V13.01,2013-02-04 19:32:00,
2013-02-04 15:33:00,87.0,67.3,29.91,ESE,112,5.5,5.5,52,0.00,,---,0.00,VWS V13.01,2013-02-04 19:33:00,
2013-02-04 15:34:00,87.0,67.3,29.91,NE,45,6.9,6.9,52,0.00,,---,0.00,VWS V13.01,2013-02-04 19:34:00,
2013-02-04 15:35:00,87.0,67.3,29.91,East,90,0.8,6.9,52,0.00,,---,0.00,VWS V13.01,2013-02-04 19:35:00,
2013-02-04 15:36:00,87.0,67.3,29.91,ESE,112,2.4,2.4,52,0.00,,---,0.00,VWS V13.01,2013-02-04 19:36:00,
2013-02-04 15:37:00,87.2,67.4,29.91,ESE,112,2.4,2.4,52,0.00,,---,0.00,VWS V13.01,2013-02-04 19:37:00,
2013-02-04 15:38:00,87.0,67.3,29.91,ENE,68,5.8,5.8,52,0.00,,---,0.00,VWS V13.01,2013-02-04 19:38:00,
2013-02-04 15:39:00,87.0,67.3,29.91,East,90,1.3,5.8,52,0.00,,---,0.00,VWS V13.01,2013-02-04 19:39:00,
2013-02-04 15:40:00,87.0,67.3,29.91,ENE,68,10.5,10.5,52,0.00,,---,0.00,VWS V13.01,2013-02-04 19:40:00,
2013-02-04 15:41:00,87.0,67.3,29.91,East,90,3.5,3.5,52,0.00,,---,0.00,VWS V13.01,2013-02-04 19:41:00,
2013-02-04 15:42:00,87.0,67.3,29.91,SE,135,7.3,7.3,52,0.00,,---,0.00,VWS V13.01,2013-02-04 19:42:00,
2013-02-04 15:43:00,87.0,67.3,29.91,ESE,112,1.5,7.3,52,0.00,,---,0.00,VWS V13.01,2013-02-04 19:43:00,
2013-02-04 15:44:00,87.2,68.0,29.91,ENE,68,4.0,4.0,53,0.00,,---,0.00,VWS V13.01,2013-02-04 19:44:00,
2013-02-04 15:45:00,87.2,68.0,29.90,NW,315,0.0,4.0,53,0.00,,---,0.00,VWS V13.01,2013-02-04 19:45:00,
2013-02-04 15:46:00,87.2,68.0,29.90,ENE,68,4.9,4.9,53,0.00,,---,0.00,VWS V13.01,2013-02-04 19:46:00,
2013-02-04 15:47:00,87.2,68.0,29.91,East,90,10.0,10.0,53,0.00,,---,0.00,VWS V13.01,2013-02-04 19:47:00,
2013-02-04 15:48:00,87.2,68.0,29.90,SSE,158,9.8,10.0,53,0.00,,---,0.00,VWS V13.01,2013-02-04 19:48:00,
2013-02-04 15:49:00,87.0,67.8,29.90,ESE,112,10.2,10.2,53,0.00,,---,0.00,VWS V13.01,2013-02-04 19:49:00,
2013-02-04 15:50:00,87.2,68.0,29.91,ENE,68,6.9,10.2,53,0.00,,---,0.00,VWS V13.01,2013-02-04 19:50:00,
2013-02-04 15:51:00,87.0,67.8,29.90,ESE,112,1.5,6.9,53,0.00,,---,0.00,VWS V13.01,2013-02-04 19:51:00,
2013-02-04 15:52:00,87.2,68.0,29.90,East,90,11.8,11.8,53,0.00,,---,0.00,VWS V13.01,2013-02-04 19:52:00,
2013-02-04 15:53:00,87.2,68.0,29.90,SE,135,5.1,11.8,53,0.00,,---,0.00,VWS V13.01,2013-02-04 19:53:00,
2013-02-04 15:54:00,87.2,68.0,29.90,ENE,68,4.9,5.1,53,0.00,,---,0.00,VWS V13.01,2013-02-04 19:54:00,
2013-02-04 15:55:00,87.2,68.0,29.90,ENE,68,0.6,4.9,53,0.00,,---,0.00,VWS V13.01,2013-02-04 19:55:00,
2013-02-04 15:56:00,87.4,68.2,29.90,SE,135,2.4,2.4,53,0.00,,---,0.00,VWS V13.01,2013-02-04 19:56:00,
2013-02-04 15:57:00,87.4,68.2,29.90,ENE,68,11.4,11.4,53,0.00,,---,0.00,VWS V13.01,2013-02-04 19:57:00,
2013-02-04 15:58:00,87.2,68.0,29.90,East,90,1.3,1.3,53,0.00,,---,0.00,VWS V13.01,2013-02-04 19:58:00,
2013-02-04 15:59:00,87.2,68.0,29.90,ESE,112,4.6,4.6,53,0.00,,---,0.00,VWS V13.01,2013-02-04 19:59:00,
2013-02-04 16:00:00,87.4,68.2,29.90,East,90,4.9,4.9,53,0.00,,---,0.00,VWS V13.01,2013-02-04 20:00:00,
2013-02-04 16:01:00,87.4,68.2,29.90,SE,135,1.1,1.1,53,0.00,,---,0.00,VWS V13.01,2013-02-04 20:01:00,
2013-02-04 16:02:00,87.4,68.2,29.90,ENE,68,7.3,7.3,53,0.00,,---,0.00,VWS V13.01,2013-02-04 20:02:00,
2013-02-04 16:03:00,87.4,68.2,29.90,North,0,2.2,7.3,53,0.00,,---,0.00,VWS V13.01,2013-02-04 20:03:00,
2013-02-04 16:04:00,87.0,67.8,29.90,ESE,112,6.2,6.2,53,0.00,,---,0.00,VWS V13.01,2013-02-04 20:04:00,
2013-02-04 16:05:00,87.0,67.8,29.90,East,90,5.8,5.8,53,0.00,,---,0.00,VWS V13.01,2013-02-04 20:05:00,
2013-02-04 16:06:00,87.0,67.8,29.90,ESE,112,5.5,5.8,53,0.00,,---,0.00,VWS V13.01,2013-02-04 20:06:00,
2013-02-04 16:07:00,87.0,67.8,29.90,East,90,5.3,5.5,53,0.00,,---,0.00,VWS V13.01,2013-02-04 20:07:00,
2013-02-04 16:08:00,87.0,67.8,29.91,ENE,68,9.3,9.3,53,0.00,,---,0.00,VWS V13.01,2013-02-04 20:08:00,
2013-02-04 16:09:00,87.0,67.3,29.91,ENE,68,6.2,9.3,52,0.00,,---,0.00,VWS V13.01,2013-02-04 20:09:00,
2013-02-04 16:10:00,87.0,67.3,29.91,East,90,3.5,6.2,52,0.00,,---,0.00,VWS V13.01,2013-02-04 20:10:00,
2013-02-04 16:11:00,87.0,67.3,29.91,East,90,7.6,7.6,52,0.00,,---,0.00,VWS V13.01,2013-02-04 20:11:00,
2013-02-04 16:12:00,87.0,67.3,29.91,East,90,6.2,7.6,52,0.00,,---,0.00,VWS V13.01,2013-02-04 20:12:00,
2013-02-04 16:13:00,87.2,67.4,29.91,ESE,112,0.0,6.2,52,0.00,,---,0.00,VWS V13.01,2013-02-04 20:13:00,
2013-02-04 16:14:00,87.4,67.6,29.91,SE,135,2.2,2.2,52,0.00,,---,0.00,VWS V13.01,2013-02-04 20:14:00,
2013-02-04 16:15:00,87.4,67.6,29.91,ENE,68,8.9,8.9,52,0.00,,---,0.00,VWS V13.01,2013-02-04 20:15:00,
2013-02-04 16:16:00,87.4,67.1,29.91,East,90,1.5,8.9,51,0.00,,---,0.00,VWS V13.01,2013-02-04 20:16:00,
2013-02-04 16:17:00,87.4,67.6,29.91,ESE,112,6.4,6.4,52,0.00,,---,0.00,VWS V13.01,2013-02-04 20:17:00,
2013-02-04 16:18:00,87.4,67.6,29.91,ENE,68,4.9,6.4,52,0.00,,---,0.00,VWS V13.01,2013-02-04 20:18:00,
2013-02-04 16:19:00,87.4,67.1,29.91,NE,45,1.7,1.7,51,0.00,,---,0.00,VWS V13.01,2013-02-04 20:19:00,
2013-02-04 16:20:00,87.6,67.2,29.91,ESE,112,7.6,7.6,51,0.00,,---,0.00,VWS V13.01,2013-02-04 20:20:00,
2013-02-04 16:21:00,87.6,67.2,29.91,East,90,6.0,7.6,51,0.00,,---,0.00,VWS V13.01,2013-02-04 20:21:00,
2013-02-04 16:22:00,87.6,67.2,29.91,East,90,4.9,6.0,51,0.00,,---,0.00,VWS V13.01,2013-02-04 20:22:00,
2013-02-04 16:23:00,87.6,66.7,29.91,East,90,8.9,8.9,50,0.00,,---,0.00,VWS V13.01,2013-02-04 20:23:00,
2013-02-04 16:24:00,87.6,66.7,29.91,SE,135,6.7,8.9,50,0.00,,---,0.00,VWS V13.01,2013-02-04 20:24:00,
2013-02-04 16:25:00,87.6,66.7,29.91,ENE,68,11.4,11.4,50,0.00,,---,0.00,VWS V13.01,2013-02-04 20:25:00,
2013-02-04 16:26:00,87.6,67.2,29.91,ENE,68,2.2,11.4,51,0.00,,---,0.00,VWS V13.01,2013-02-04 20:26:00,
2013-02-04 16:27:00,87.6,67.2,29.91,ESE,112,8.9,8.9,51,0.00,,---,0.00,VWS V13.01,2013-02-04 20:27:00,
2013-02-04 16:28:00,87.4,67.1,29.91,ESE,112,2.0,8.9,51,0.00,,---,0.00,VWS V13.01,2013-02-04 20:28:00,
2013-02-04 16:29:00,87.4,67.1,29.91,SSE,158,0.0,2.0,51,0.00,,---,0.00,VWS V13.01,2013-02-04 20:29:00,
2013-02-04 16:30:00,87.4,66.5,29.91,SE,135,5.3,5.3,50,0.00,,---,0.00,VWS V13.01,2013-02-04 20:30:00,
2013-02-04 16:31:00,87.4,66.5,29.91,ENE,68,5.1,5.3,50,0.00,,---,0.00,VWS V13.01,2013-02-04 20:31:00,
2013-02-04 16:32:00,87.4,66.5,29.91,ENE,68,4.4,5.1,50,0.00,,---,0.00,VWS V13.01,2013-02-04 20:32:00,
2013-02-04 16:33:00,87.0,66.1,29.90,East,90,8.9,8.9,50,0.00,,---,0.00,VWS V13.01,2013-02-04 20:33:00,
2013-02-04 16:34:00,87.0,66.1,29.90,SSE,158,1.7,1.7,50,0.00,,---,0.00,VWS V13.01,2013-02-04 20:34:00,
2013-02-04 16:35:00,87.0,66.1,29.90,ENE,68,4.2,4.2,50,0.00,,---,0.00,VWS V13.01,2013-02-04 20:35:00,
2013-02-04 16:36:00,87.0,66.1,29.90,ENE,68,5.8,5.8,50,0.00,,---,0.00,VWS V13.01,2013-02-04 20:36:00,
2013-02-04 16:37:00,87.0,66.7,29.90,ENE,68,5.3,5.8,51,0.00,,---,0.00,VWS V13.01,2013-02-04 20:37:00,
2013-02-04 16:38:00,87.0,66.7,29.90,East,90,6.0,6.0,51,0.00,,---,0.00,VWS V13.01,2013-02-04 20:38:00,
2013-02-04 16:39:00,87.0,66.7,29.90,ENE,68,0.0,6.0,51,0.00,,---,0.00,VWS V13.01,2013-02-04 20:39:00,
2013-02-04 16:40:00,87.0,66.7,29.90,SE,135,5.1,5.1,51,0.00,,---,0.00,VWS V13.01,2013-02-04 20:40:00,
2013-02-04 16:41:00,87.0,66.7,29.90,ENE,68,4.9,5.1,51,0.00,,---,0.00,VWS V13.01,2013-02-04 20:41:00,
2013-02-04 16:42:00,87.0,66.7,29.90,SE,135,4.2,4.9,51,0.00,,---,0.00,VWS V13.01,2013-02-04 20:42:00,
2013-02-04 16:43:00,87.0,66.7,29.90,ENE,68,3.8,4.2,51,0.00,,---,0.00,VWS V13.01,2013-02-04 20:43:00,
2013-02-04 16:44:00,87.0,66.7,29.91,East,90,3.1,3.1,51,0.00,,---,0.00,VWS V13.01,2013-02-04 20:44:00,
2013-02-04 16:45:00,87.0,66.7,29.91,ESE,112,4.9,4.9,51,0.00,,---,0.00,VWS V13.01,2013-02-04 20:45:00,
2013-02-04 16:46:00,87.0,66.7,29.91,ESE,112,7.6,7.6,51,0.00,,---,0.00,VWS V13.01,2013-02-04 20:46:00,
2013-02-04 16:47:00,87.0,66.7,29.91,ENE,68,10.9,10.9,51,0.00,,---,0.00,VWS V13.01,2013-02-04 20:47:00,
2013-02-04 16:48:00,86.9,66.6,29.91,ESE,112,3.8,10.9,51,0.00,,---,0.00,VWS V13.01,2013-02-04 20:48:00,
2013-02-04 16:49:00,87.0,66.7,29.90,SE,135,0.0,0.0,51,0.00,,---,0.00,VWS V13.01,2013-02-04 20:49:00,
2013-02-04 16:50:00,87.0,66.7,29.90,ESE,112,4.0,4.0,51,0.00,,---,0.00,VWS V13.01,2013-02-04 20:50:00,
2013-02-04 16:51:00,87.0,66.7,29.90,SE,135,6.9,6.9,51,0.00,,---,0.00,VWS V13.01,2013-02-04 20:51:00,
2013-02-04 16:52:00,87.0,66.7,29.90,ESE,112,2.9,2.9,51,0.00,,---,0.00,VWS V13.01,2013-02-04 20:52:00,
2013-02-04 16:53:00,86.9,66.6,29.90,East,90,0.0,2.9,51,0.00,,---,0.00,VWS V13.01,2013-02-04 20:53:00,
2013-02-04 16:54:00,86.9,66.6,29.91,ESE,112,6.7,6.7,51,0.00,,---,0.00,VWS V13.01,2013-02-04 20:54:00,
2013-02-04 16:55:00,86.9,66.6,29.91,ENE,68,7.1,7.1,51,0.00,,---,0.00,VWS V13.01,2013-02-04 20:55:00,
2013-02-04 16:56:00,87.0,66.7,29.91,East,90,10.5,10.5,51,0.00,,---,0.00,VWS V13.01,2013-02-04 20:56:00,
2013-02-04 16:57:00,86.9,66.6,29.91,ENE,68,5.8,10.5,51,0.00,,---,0.00,VWS V13.01,2013-02-04 20:57:00,
2013-02-04 16:58:00,86.9,66.6,29.90,East,90,5.1,5.8,51,0.00,,---,0.00,VWS V13.01,2013-02-04 20:58:00,
2013-02-04 16:59:00,86.9,66.6,29.90,NE,45,0.8,5.1,51,0.00,,---,0.00,VWS V13.01,2013-02-04 20:59:00,
2013-02-04 17:00:00,86.9,66.0,29.90,NNE,22,5.3,5.3,50,0.00,,---,0.82,VWS V13.01,2013-02-04 21:00:00,
2013-02-04 17:01:00,86.9,66.0,29.90,ENE,68,13.6,13.6,50,0.00,,---,0.00,VWS V13.01,2013-02-04 21:01:00,
2013-02-04 17:02:00,86.9,66.0,29.90,ENE,68,4.0,13.6,50,0.00,,---,0.00,VWS V13.01,2013-02-04 21:02:00,
2013-02-04 17:03:00,86.7,65.9,29.90,ESE,112,2.4,2.4,50,0.00,,---,0.00,VWS V13.01,2013-02-04 21:03:00,
2013-02-04 17:04:00,86.7,65.9,29.90,ESE,112,6.7,6.7,50,0.00,,---,0.00,VWS V13.01,2013-02-04 21:04:00,
2013-02-04 17:05:00,86.7,65.9,29.90,ESE,112,1.5,1.5,50,0.00,,---,0.00,VWS V13.01,2013-02-04 21:05:00,
2013-02-04 17:06:00,86.7,65.9,29.90,ENE,68,4.0,4.0,50,0.00,,---,0.00,VWS V13.01,2013-02-04 21:06:00,
2013-02-04 17:07:00,86.7,65.9,29.90,ESE,112,6.4,6.4,50,0.00,,---,0.00,VWS V13.01,2013-02-04 21:07:00,
2013-02-04 17:08:00,86.7,65.9,29.90,ENE,68,6.4,6.4,50,0.00,,---,0.00,VWS V13.01,2013-02-04 21:08:00,
2013-02-04 17:09:00,86.9,66.0,29.91,ENE,68,6.4,6.4,50,0.00,,---,0.00,VWS V13.01,2013-02-04 21:09:00,
2013-02-04 17:10:00,86.9,66.0,29.91,East,90,9.3,9.3,50,0.00,,---,0.00,VWS V13.01,2013-02-04 21:10:00,
2013-02-04 17:11:00,86.9,66.0,29.91,SE,135,3.1,9.3,50,0.00,,---,0.00,VWS V13.01,2013-02-04 21:11:00,
2013-02-04 17:12:00,86.9,66.0,29.91,ENE,68,3.8,3.8,50,0.00,,---,0.00,VWS V13.01,2013-02-04 21:12:00,
2013-02-04 17:13:00,86.9,66.0,29.91,ENE,68,8.9,8.9,50,0.00,,---,0.00,VWS V13.01,2013-02-04 21:13:00,
2013-02-04 17:14:00,86.9,66.0,29.91,ENE,68,10.0,10.0,50,0.00,,---,0.00,VWS V13.01,2013-02-04 21:14:00,
2013-02-04 17:15:00,86.9,66.0,29.91,SE,135,0.0,10.0,50,0.00,,---,0.00,VWS V13.01,2013-02-04 21:15:00,
2013-02-04 17:16:00,86.9,66.0,29.91,SSE,158,4.4,4.4,50,0.00,,---,0.00,VWS V13.01,2013-02-04 21:16:00,
2013-02-04 17:17:00,86.9,66.0,29.91,ESE,112,4.0,4.4,50,0.00,,---,0.00,VWS V13.01,2013-02-04 21:17:00,
2013-02-04 17:18:00,86.7,65.9,29.91,ESE,112,4.9,4.9,50,0.00,,---,0.00,VWS V13.01,2013-02-04 21:18:00,
2013-02-04 17:19:00,86.7,65.9,29.91,ESE,112,2.2,4.9,50,0.00,,---,0.00,VWS V13.01,2013-02-04 21:19:00,
2013-02-04 17:20:00,86.7,66.4,29.91,ESE,112,0.0,0.0,51,0.00,,---,0.00,VWS V13.01,2013-02-04 21:20:00,
2013-02-04 17:21:00,86.7,65.9,29.91,SE,135,6.9,6.9,50,0.00,,---,0.00,VWS V13.01,2013-02-04 21:21:00,
2013-02-04 17:22:00,86.5,65.7,29.91,East,90,0.0,6.9,50,0.00,,---,0.00,VWS V13.01,2013-02-04 21:22:00,
2013-02-04 17:23:00,86.5,65.7,29.91,East,90,0.8,0.8,50,0.00,,---,0.00,VWS V13.01,2013-02-04 21:23:00,
2013-02-04 17:24:00,86.5,65.7,29.91,ESE,112,0.0,0.8,50,0.00,,---,0.00,VWS V13.01,2013-02-04 21:24:00,
2013-02-04 17:25:00,86.5,65.7,29.91,NE,45,3.1,3.1,50,0.00,,---,0.00,VWS V13.01,2013-02-04 21:25:00,
2013-02-04 17:26:00,86.5,65.7,29.91,South,180,0.0,0.0,50,0.00,,---,0.00,VWS V13.01,2013-02-04 21:26:00,
2013-02-04 17:27:00,86.5,65.7,29.91,SE,135,4.4,4.4,50,0.00,,---,0.00,VWS V13.01,2013-02-04 21:27:00,
2013-02-04 17:28:00,86.5,65.7,29.91,NE,45,3.5,4.4,50,0.00,,---,0.00,VWS V13.01,2013-02-04 21:28:00,
2013-02-04 17:29:00,86.5,65.7,29.91,NNE,22,2.2,2.2,50,0.00,,---,0.00,VWS V13.01,2013-02-04 21:29:00,
2013-02-04 17:30:00,86.3,65.5,29.91,East,90,3.5,3.5,50,0.00,,---,0.00,VWS V13.01,2013-02-04 21:30:00,
2013-02-04 17:31:00,86.3,65.5,29.91,ENE,68,2.2,2.2,50,0.00,,---,0.00,VWS V13.01,2013-02-04 21:31:00,
2013-02-04 17:32:00,86.3,65.5,29.91,NNE,22,0.0,2.2,50,0.00,,---,0.00,VWS V13.01,2013-02-04 21:32:00,
2013-02-04 17:33:00,86.3,65.5,29.91,East,90,2.0,2.0,50,0.00,,---,0.00,VWS V13.01,2013-02-04 21:33:00,
2013-02-04 17:34:00,86.3,65.5,29.91,East,90,5.8,5.8,50,0.00,,---,0.00,VWS V13.01,2013-02-04 21:34:00,
2013-02-04 17:35:00,86.5,65.7,29.91,East,90,0.0,5.8,50,0.00,,---,0.00,VWS V13.01,2013-02-04 21:35:00,
2013-02-04 17:36:00,86.3,65.5,29.91,ESE,112,4.6,4.6,50,0.00,,---,0.00,VWS V13.01,2013-02-04 21:36:00,
2013-02-04 17:37:00,86.3,65.5,29.91,ENE,68,4.6,4.6,50,0.00,,---,0.00,VWS V13.01,2013-02-04 21:37:00,
2013-02-04 17:38:00,86.3,65.5,29.91,NE,45,0.0,0.0,50,0.00,,---,0.00,VWS V13.01,2013-02-04 21:38:00,
2013-02-04 17:39:00,86.1,65.3,29.91,ESE,112,2.0,2.0,50,0.00,,---,0.00,VWS V13.01,2013-02-04 21:39:00,
2013-02-04 17:40:00,86.1,64.7,29.91,East,90,2.0,2.0,49,0.00,,---,0.00,VWS V13.01,2013-02-04 21:40:00,
2013-02-04 17:41:00,86.1,64.7,29.91,SE,135,0.0,0.0,49,0.00,,---,0.00,VWS V13.01,2013-02-04 21:41:00,
2013-02-04 17:42:00,86.0,64.6,29.91,ENE,68,2.2,2.2,49,0.00,,---,0.00,VWS V13.01,2013-02-04 21:42:00,
2013-02-04 17:43:00,85.8,64.4,29.91,ENE,68,3.5,3.5,49,0.00,,---,0.00,VWS V13.01,2013-02-04 21:43:00,
2013-02-04 17:44:00,85.8,64.4,29.91,SSE,158,0.0,3.5,49,0.00,,---,0.00,VWS V13.01,2013-02-04 21:44:00,
2013-02-04 17:45:00,85.6,64.3,29.91,ENE,68,0.6,0.6,49,0.00,,---,0.00,VWS V13.01,2013-02-04 21:45:00,
2013-02-04 17:46:00,85.6,64.3,29.91,East,90,1.5,1.5,49,0.00,,---,0.00,VWS V13.01,2013-02-04 21:46:00,
2013-02-04 17:47:00,85.4,64.1,29.91,East,90,3.8,3.8,49,0.00,,---,0.00,VWS V13.01,2013-02-04 21:47:00,
2013-02-04 17:48:00,85.2,63.9,29.91,East,90,5.5,5.5,49,0.00,,---,0.00,VWS V13.01,2013-02-04 21:48:00,
2013-02-04 17:49:00,85.2,63.9,29.91,SSE,158,2.0,2.0,49,0.00,,---,0.00,VWS V13.01,2013-02-04 21:49:00,
2013-02-04 17:50:00,85.1,63.8,29.91,ENE,68,4.2,4.2,49,0.00,,---,0.00,VWS V13.01,2013-02-04 21:50:00,
2013-02-04 17:51:00,84.9,64.2,29.92,ESE,112,0.0,4.2,50,0.00,,---,0.00,VWS V13.01,2013-02-04 21:51:00,
2013-02-04 17:52:00,84.7,64.0,29.91,ESE,112,3.5,3.5,50,0.00,,---,0.00,VWS V13.01,2013-02-04 21:52:00,
2013-02-04 17:53:00,84.7,64.0,29.91,SSE,158,4.4,4.4,50,0.00,,---,0.00,VWS V13.01,2013-02-04 21:53:00,
2013-02-04 17:54:00,84.3,63.7,29.91,ESE,112,5.3,5.3,50,0.00,,---,0.00,VWS V13.01,2013-02-04 21:54:00,
2013-02-04 17:55:00,84.2,63.6,29.91,ESE,112,0.0,5.3,50,0.00,,---,0.00,VWS V13.01,2013-02-04 21:55:00,
2013-02-04 17:56:00,84.0,63.4,29.91,SE,135,6.4,6.4,50,0.00,,---,0.00,VWS V13.01,2013-02-04 21:56:00,
2013-02-04 17:57:00,84.0,63.4,29.91,ESE,112,3.3,6.4,50,0.00,,---,0.00,VWS V13.01,2013-02-04 21:57:00,
2013-02-04 17:58:00,84.0,62.8,29.91,ENE,68,4.0,4.0,49,0.00,,---,0.00,VWS V13.01,2013-02-04 21:58:00,
2013-02-04 17:59:00,83.8,63.2,29.92,SE,135,1.3,4.0,50,0.00,,---,0.00,VWS V13.01,2013-02-04 21:59:00,
2013-02-04 18:00:00,83.6,63.0,29.92,East,90,1.3,1.3,50,0.00,,---,0.82,VWS V13.01,2013-02-04 22:00:00,
2013-02-04 18:01:00,83.4,62.8,29.91,ENE,68,0.0,1.3,50,0.00,,---,0.00,VWS V13.01,2013-02-04 22:01:00,
2013-02-04 18:02:00,83.4,62.8,29.92,ESE,112,3.5,3.5,50,0.00,,---,0.00,VWS V13.01,2013-02-04 22:02:00,
2013-02-04 18:03:00,83.3,62.7,29.92,ENE,68,0.0,0.0,50,0.00,,---,0.00,VWS V13.01,2013-02-04 22:03:00,
2013-02-04 18:04:00,83.3,62.7,29.92,ESE,112,0.0,0.0,50,0.00,,---,0.00,VWS V13.01,2013-02-04 22:04:00,
2013-02-04 18:05:00,83.1,62.5,29.92,NE,45,0.0,0.0,50,0.00,,---,0.00,VWS V13.01,2013-02-04 22:05:00,
2013-02-04 18:06:00,83.1,62.5,29.92,ESE,112,1.1,1.1,50,0.00,,---,0.00,VWS V13.01,2013-02-04 22:06:00,
2013-02-04 18:07:00,82.9,62.4,29.92,ESE,112,4.9,4.9,50,0.00,,---,0.00,VWS V13.01,2013-02-04 22:07:00,
2013-02-04 18:08:00,82.9,62.9,29.92,ENE,68,4.0,4.9,51,0.00,,---,0.00,VWS V13.01,2013-02-04 22:08:00,
2013-02-04 18:09:00,82.9,62.9,29.92,East,90,0.0,0.0,51,0.00,,---,0.00,VWS V13.01,2013-02-04 22:09:00,
2013-02-04 18:10:00,82.7,62.8,29.92,East,90,3.3,3.3,51,0.00,,---,0.00,VWS V13.01,2013-02-04 22:10:00,
2013-02-04 18:11:00,82.7,62.8,29.92,East,90,0.0,3.3,51,0.00,,---,0.00,VWS V13.01,2013-02-04 22:11:00,
2013-02-04 18:12:00,82.7,62.8,29.92,ENE,68,0.0,0.0,51,0.00,,---,0.00,VWS V13.01,2013-02-04 22:12:00,
2013-02-04 18:13:00,82.5,62.6,29.92,East,90,0.0,0.0,51,0.00,,---,0.00,VWS V13.01,2013-02-04 22:13:00,
2013-02-04 18:14:00,82.5,62.6,29.93,SE,135,5.8,5.8,51,0.00,,---,0.00,VWS V13.01,2013-02-04 22:14:00,
2013-02-04 18:15:00,82.5,62.6,29.92,ENE,68,0.8,5.8,51,0.00,,---,0.00,VWS V13.01,2013-02-04 22:15:00,
2013-02-04 18:16:00,82.4,62.5,29.92,ENE,68,2.6,2.6,51,0.00,,---,0.00,VWS V13.01,2013-02-04 22:16:00,
2013-02-04 18:17:00,82.2,62.3,29.93,East,90,0.0,2.6,51,0.00,,---,0.00,VWS V13.01,2013-02-04 22:17:00,
2013-02-04 18:18:00,82.2,62.3,29.92,East,90,1.7,1.7,51,0.00,,---,0.00,VWS V13.01,2013-02-04 22:18:00,
2013-02-04 18:19:00,82.2,62.3,29.93,East,90,4.2,4.2,51,0.00,,---,0.00,VWS V13.01,2013-02-04 22:19:00,
2013-02-04 18:20:00,82.2,62.3,29.92,East,90,3.1,4.2,51,0.00,,---,0.00,VWS V13.01,2013-02-04 22:20:00,
2013-02-04 18:21:00,82.2,62.8,29.93,SE,135,3.5,3.5,52,0.00,,---,0.00,VWS V13.01,2013-02-04 22:21:00,
2013-02-04 18:22:00,82.0,62.7,29.93,NE,45,4.6,4.6,52,0.00,,---,0.00,VWS V13.01,2013-02-04 22:22:00,
2013-02-04 18:23:00,82.0,62.7,29.93,SE,135,2.9,4.6,52,0.00,,---,0.00,VWS V13.01,2013-02-04 22:23:00,
2013-02-04 18:24:00,82.0,62.7,29.93,ESE,112,0.0,2.9,52,0.00,,---,0.00,VWS V13.01,2013-02-04 22:24:00,
2013-02-04 18:25:00,82.0,62.7,29.93,East,90,0.0,0.0,52,0.00,,---,0.00,VWS V13.01,2013-02-04 22:25:00,
2013-02-04 18:26:00,81.6,62.3,29.93,ESE,112,6.4,6.4,52,0.00,,---,0.00,VWS V13.01,2013-02-04 22:26:00,
2013-02-04 18:27:00,81.6,62.3,29.93,SE,135,0.0,6.4,52,0.00,,---,0.00,VWS V13.01,2013-02-04 22:27:00,
2013-02-04 18:28:00,81.6,62.3,29.93,ESE,112,2.0,2.0,52,0.00,,---,0.00,VWS V13.01,2013-02-04 22:28:00,
2013-02-04 18:29:00,81.6,62.3,29.93,East,90,0.0,2.0,52,0.00,,---,0.00,VWS V13.01,2013-02-04 22:29:00,
2013-02-04 18:30:00,81.6,62.3,29.93,SE,135,0.0,0.0,52,0.00,,---,0.00,VWS V13.01,2013-02-04 22:30:00,
2013-02-04 18:31:00,81.5,62.7,29.93,ESE,112,0.0,0.0,53,0.00,,---,0.00,VWS V13.01,2013-02-04 22:31:00,
2013-02-04 18:32:00,81.5,62.7,29.93,ESE,112,0.0,0.0,53,0.00,,---,0.00,VWS V13.01,2013-02-04 22:32:00,
2013-02-04 18:33:00,81.5,62.7,29.93,ENE,68,0.0,0.0,53,0.00,,---,0.00,VWS V13.01,2013-02-04 22:33:00,
2013-02-04 18:34:00,81.5,62.7,29.93,East,90,4.2,4.2,53,0.00,,---,0.00,VWS V13.01,2013-02-04 22:34:00,
2013-02-04 18:35:00,81.3,62.5,29.93,SE,135,2.6,4.2,53,0.00,,---,0.00,VWS V13.01,2013-02-04 22:35:00,
2013-02-04 18:36:00,81.3,62.5,29.93,ENE,68,1.5,2.6,53,0.00,,---,0.00,VWS V13.01,2013-02-04 22:36:00,
2013-02-04 18:37:00,81.3,62.5,29.93,ESE,112,2.2,2.2,53,0.00,,---,0.00,VWS V13.01,2013-02-04 22:37:00,
2013-02-04 18:38:00,81.3,62.5,29.93,East,90,2.0,2.2,53,0.00,,---,0.00,VWS V13.01,2013-02-04 22:38:00,
2013-02-04 18:39:00,81.3,62.5,29.93,SE,135,0.0,2.0,53,0.00,,---,0.00,VWS V13.01,2013-02-04 22:39:00,
2013-02-04 18:40:00,81.3,62.5,29.93,ENE,68,0.0,0.0,53,0.00,,---,0.00,VWS V13.01,2013-02-04 22:40:00,
2013-02-04 18:41:00,81.1,62.4,29.93,South,180,0.0,0.0,53,0.00,,---,0.00,VWS V13.01,2013-02-04 22:41:00,
2013-02-04 18:42:00,81.1,62.4,29.93,NE,45,0.0,0.0,53,0.00,,---,0.00,VWS V13.01,2013-02-04 22:42:00,
2013-02-04 18:43:00,81.1,62.9,29.93,ESE,112,1.3,1.3,54,0.00,,---,0.00,VWS V13.01,2013-02-04 22:43:00,
2013-02-04 18:44:00,81.1,62.9,29.94,SE,135,0.0,1.3,54,0.00,,---,0.00,VWS V13.01,2013-02-04 22:44:00,
2013-02-04 18:45:00,81.1,62.9,29.94,SE,135,0.0,0.0,54,0.00,,---,0.00,VWS V13.01,2013-02-04 22:45:00,
2013-02-04 18:46:00,81.1,62.9,29.94,ENE,68,0.0,0.0,54,0.00,,---,0.00,VWS V13.01,2013-02-04 22:46:00,
2013-02-04 18:47:00,81.1,62.9,29.94,SSE,158,2.9,2.9,54,0.00,,---,0.00,VWS V13.01,2013-02-04 22:47:00,
2013-02-04 18:48:00,81.1,62.9,29.94,SE,135,1.5,2.9,54,0.00,,---,0.00,VWS V13.01,2013-02-04 22:48:00,
2013-02-04 18:49:00,80.9,62.7,29.94,East,90,3.3,3.3,54,0.00,,---,0.00,VWS V13.01,2013-02-04 22:49:00,
2013-02-04 18:50:00,80.9,62.7,29.94,South,180,0.0,0.0,54,0.00,,---,0.00,VWS V13.01,2013-02-04 22:50:00,
2013-02-04 18:51:00,80.9,62.7,29.94,ESE,112,4.4,4.4,54,0.00,,---,0.00,VWS V13.01,2013-02-04 22:51:00,
2013-02-04 18:52:00,80.7,62.5,29.94,ESE,112,0.0,0.0,54,0.00,,---,0.00,VWS V13.01,2013-02-04 22:52:00,
2013-02-04 18:53:00,80.7,62.5,29.94,SE,135,10.5,10.5,54,0.00,,---,0.00,VWS V13.01,2013-02-04 22:53:00,
2013-02-04 18:54:00,80.7,62.5,29.94,SSE,158,4.0,10.5,54,0.00,,---,0.00,VWS V13.01,2013-02-04 22:54:00,
2013-02-04 18:55:00,80.7,63.0,29.94,SE,135,0.0,4.0,55,0.00,,---,0.00,VWS V13.01,2013-02-04 22:55:00,
2013-02-04 18:56:00,80.7,63.0,29.94,SE,135,2.2,2.2,55,0.00,,---,0.00,VWS V13.01,2013-02-04 22:56:00,
2013-02-04 18:57:00,80.6,63.0,29.94,ESE,112,0.0,2.2,55,0.00,,---,0.00,VWS V13.01,2013-02-04 22:57:00,
2013-02-04 18:58:00,80.6,63.0,29.94,ESE,112,2.9,2.9,55,0.00,,---,0.00,VWS V13.01,2013-02-04 22:58:00,
2013-02-04 18:59:00,80.6,63.0,29.94,SE,135,2.9,2.9,55,0.00,,---,0.00,VWS V13.01,2013-02-04 22:59:00,
2013-02-04 19:00:00,80.4,62.8,29.94,ESE,112,0.0,0.0,55,0.00,,---,0.00,VWS V13.01,2013-02-04 23:00:00,
2013-02-04 19:01:00,80.4,62.8,29.94,SE,135,0.0,0.0,55,0.00,,---,0.00,VWS V13.01,2013-02-04 23:01:00,
2013-02-04 19:02:00,80.4,62.8,29.94,SE,135,4.0,4.0,55,0.00,,---,0.00,VWS V13.01,2013-02-04 23:02:00,
2013-02-04 19:03:00,80.4,62.8,29.94,SE,135,5.5,5.5,55,0.00,,---,0.00,VWS V13.01,2013-02-04 23:03:00,
2013-02-04 19:04:00,80.4,62.8,29.94,ESE,112,0.0,0.0,55,0.00,,---,0.00,VWS V13.01,2013-02-04 23:04:00,
2013-02-04 19:05:00,80.4,62.8,29.94,East,90,2.2,2.2,55,0.00,,---,0.00,VWS V13.01,2013-02-04 23:05:00,
2013-02-04 19:06:00,80.4,62.8,29.94,East,90,0.0,2.2,55,0.00,,---,0.00,VWS V13.01,2013-02-04 23:06:00,
2013-02-04 19:07:00,80.4,62.8,29.94,SE,135,1.3,1.3,55,0.00,,---,0.00,VWS V13.01,2013-02-04 23:07:00,
2013-02-04 19:08:00,80.4,62.8,29.95,SE,135,6.2,6.2,55,0.00,,---,0.00,VWS V13.01,2013-02-04 23:08:00,
2013-02-04 19:09:00,80.4,62.8,29.95,ENE,68,0.0,6.2,55,0.00,,---,0.00,VWS V13.01,2013-02-04 23:09:00,
2013-02-04 19:10:00,80.4,62.8,29.94,SE,135,3.8,3.8,55,0.00,,---,0.00,VWS V13.01,2013-02-04 23:10:00,
2013-02-04 19:11:00,80.2,62.6,29.94,SE,135,2.2,2.2,55,0.00,,---,0.00,VWS V13.01,2013-02-04 23:11:00,
2013-02-04 19:12:00,80.2,62.6,29.94,SE,135,3.8,3.8,55,0.00,,---,0.00,VWS V13.01,2013-02-04 23:12:00,
2013-02-04 19:13:00,80.2,62.6,29.94,ESE,112,0.6,3.8,55,0.00,,---,0.00,VWS V13.01,2013-02-04 23:13:00,
2013-02-04 19:14:00,80.2,62.6,29.95,East,90,0.0,0.6,55,0.00,,---,0.00,VWS V13.01,2013-02-04 23:14:00,
2013-02-04 19:15:00,80.2,62.6,29.94,ESE,112,3.5,3.5,55,0.00,,---,0.00,VWS V13.01,2013-02-04 23:15:00,
2013-02-04 19:16:00,80.2,62.6,29.94,SE,135,0.0,3.5,55,0.00,,---,0.00,VWS V13.01,2013-02-04 23:16:00,
2013-02-04 19:17:00,80.0,62.4,29.94,ESE,112,4.0,4.0,55,0.00,,---,0.00,VWS V13.01,2013-02-04 23:17:00,
2013-02-04 19:18:00,80.0,62.4,29.94,SE,135,0.0,0.0,55,0.00,,---,0.00,VWS V13.01,2013-02-04 23:18:00,
2013-02-04 19:19:00,80.0,62.9,29.95,SE,135,5.3,5.3,56,0.00,,---,0.00,VWS V13.01,2013-02-04 23:19:00,
2013-02-04 19:20:00,80.0,62.9,29.94,ESE,112,4.6,4.6,56,0.00,,---,0.00,VWS V13.01,2013-02-04 23:20:00,
2013-02-04 19:21:00,79.8,62.7,29.94,SSE,158,0.0,4.6,56,0.00,,---,0.00,VWS V13.01,2013-02-04 23:21:00,
2013-02-04 19:22:00,79.8,62.7,29.94,ESE,112,4.6,4.6,56,0.00,,---,0.00,VWS V13.01,2013-02-04 23:22:00,
2013-02-04 19:23:00,79.8,62.7,29.95,ESE,112,2.9,2.9,56,0.00,,---,0.00,VWS V13.01,2013-02-04 23:23:00,
2013-02-04 19:24:00,79.8,62.7,29.95,SE,135,0.0,0.0,56,0.00,,---,0.00,VWS V13.01,2013-02-04 23:24:00,
2013-02-04 19:25:00,79.8,62.7,29.95,ENE,68,0.0,0.0,56,0.00,,---,0.00,VWS V13.01,2013-02-04 23:25:00,
2013-02-04 19:26:00,79.8,62.7,29.95,SE,135,0.0,0.0,56,0.00,,---,0.00,VWS V13.01,2013-02-04 23:26:00,
2013-02-04 19:27:00,79.8,62.7,29.95,North,0,0.0,0.0,56,0.00,,---,0.00,VWS V13.01,2013-02-04 23:27:00,
2013-02-04 19:28:00,79.8,62.7,29.95,ESE,112,0.0,0.0,56,0.00,,---,0.00,VWS V13.01,2013-02-04 23:28:00,
2013-02-04 19:29:00,79.8,62.7,29.95,SE,135,2.2,2.2,56,0.00,,---,0.00,VWS V13.01,2013-02-04 23:29:00,
2013-02-04 19:30:00,79.8,63.2,29.95,ESE,112,0.0,2.2,57,0.00,,---,0.00,VWS V13.01,2013-02-04 23:30:00,
2013-02-04 19:31:00,79.8,63.2,29.95,SSE,158,0.0,0.0,57,0.00,,---,0.00,VWS V13.01,2013-02-04 23:31:00,
2013-02-04 19:32:00,79.8,63.2,29.95,East,90,0.0,0.0,57,0.00,,---,0.00,VWS V13.01,2013-02-04 23:32:00,
2013-02-04 19:33:00,79.8,63.2,29.95,SE,135,4.0,4.0,57,0.00,,---,0.00,VWS V13.01,2013-02-04 23:33:00,
2013-02-04 19:34:00,79.8,63.2,29.95,SE,135,0.0,0.0,57,0.00,,---,0.00,VWS V13.01,2013-02-04 23:34:00,
2013-02-04 19:35:00,79.8,63.2,29.95,ENE,68,0.0,0.0,57,0.00,,---,0.00,VWS V13.01,2013-02-04 23:35:00,
2013-02-04 19:36:00,79.8,63.2,29.95,ENE,68,0.0,0.0,57,0.00,,---,0.00,VWS V13.01,2013-02-04 23:36:00,
2013-02-04 19:37:00,79.8,63.2,29.95,SSW,202,0.0,0.0,57,0.00,,---,0.00,VWS V13.01,2013-02-04 23:37:00,
2013-02-04 19:38:00,79.8,63.2,29.95,SE,135,0.0,0.0,57,0.00,,---,0.00,VWS V13.01,2013-02-04 23:38:00,
2013-02-04 19:39:00,79.8,63.2,29.95,ESE,112,0.0,0.0,57,0.00,,---,0.00,VWS V13.01,2013-02-04 23:39:00,
2013-02-04 19:40:00,79.8,63.2,29.95,SE,135,0.0,0.0,57,0.00,,---,0.00,VWS V13.01,2013-02-04 23:40:00,
2013-02-04 19:41:00,79.8,63.2,29.95,East,90,0.0,0.0,57,0.00,,---,0.00,VWS V13.01,2013-02-04 23:41:00,
2013-02-04 19:42:00,79.8,63.2,29.96,South,180,0.0,0.0,57,0.00,,---,0.00,VWS V13.01,2013-02-04 23:42:00,
2013-02-04 19:43:00,79.8,63.2,29.96,SSE,158,1.7,1.7,57,0.00,,---,0.00,VWS V13.01,2013-02-04 23:43:00,
2013-02-04 19:44:00,79.7,63.1,29.96,SSE,158,0.0,1.7,57,0.00,,---,0.00,VWS V13.01,2013-02-04 23:44:00,
2013-02-04 19:45:00,79.7,63.1,29.96,ENE,68,0.0,0.0,57,0.00,,---,0.00,VWS V13.01,2013-02-04 23:45:00,
2013-02-04 19:46:00,79.7,63.1,29.96,East,90,0.0,0.0,57,0.00,,---,0.00,VWS V13.01,2013-02-04 23:46:00,
2013-02-04 19:47:00,79.7,63.1,29.96,East,90,0.0,0.0,57,0.00,,---,0.00,VWS V13.01,2013-02-04 23:47:00,
2013-02-04 19:48:00,79.7,63.1,29.95,ESE,112,1.5,1.5,57,0.00,,---,0.00,VWS V13.01,2013-02-04 23:48:00,
2013-02-04 19:49:00,79.5,63.0,29.95,SE,135,0.0,1.5,57,0.00,,---,0.00,VWS V13.01,2013-02-04 23:49:00,
2013-02-04 19:50:00,79.5,63.0,29.96,SE,135,0.0,0.0,57,0.00,,---,0.00,VWS V13.01,2013-02-04 23:50:00,
2013-02-04 19:51:00,79.5,63.0,29.96,SE,135,2.2,2.2,57,0.00,,---,0.00,VWS V13.01,2013-02-04 23:51:00,
2013-02-04 19:52:00,79.5,63.0,29.96,SE,135,0.0,2.2,57,0.00,,---,0.00,VWS V13.01,2013-02-04 23:52:00,
2013-02-04 19:53:00,79.5,63.0,29.96,SSE,158,1.5,1.5,57,0.00,,---,0.00,VWS V13.01,2013-02-04 23:53:00,
2013-02-04 19:54:00,79.5,63.0,29.96,SE,135,2.2,2.2,57,0.00,,---,0.00,VWS V13.01,2013-02-04 23:54:00,
2013-02-04 19:55:00,79.5,63.4,29.96,East,90,0.0,2.2,58,0.00,,---,0.00,VWS V13.01,2013-02-04 23:55:00,
2013-02-04 19:56:00,79.5,63.4,29.96,ESE,112,0.0,0.0,58,0.00,,---,0.00,VWS V13.01,2013-02-04 23:56:00,
2013-02-04 19:57:00,79.5,63.4,29.96,SE,135,5.3,5.3,58,0.00,,---,0.00,VWS V13.01,2013-02-04 23:57:00,
2013-02-04 19:58:00,79.5,63.4,29.96,SSE,158,0.6,0.6,58,0.00,,---,0.00,VWS V13.01,2013-02-04 23:58:00,
2013-02-04 19:59:00,79.3,63.3,29.96,ESE,112,1.7,1.7,58,0.00,,---,0.00,VWS V13.01,2013-02-04 23:59:00,
2013-02-04 20:00:00,79.3,63.3,29.96,SE,135,0.0,1.7,58,0.00,,---,0.82,VWS V13.01,2013-02-05 00:00:00,
2013-02-04 20:01:00,79.3,63.3,29.96,ESE,112,0.0,0.0,58,0.00,,---,0.00,VWS V13.01,2013-02-05 00:01:00,
2013-02-04 20:02:00,79.3,63.3,29.96,South,180,2.2,2.2,58,0.00,,---,0.00,VWS V13.01,2013-02-05 00:02:00,
2013-02-04 20:03:00,79.3,63.3,29.96,SSE,158,2.2,2.2,58,0.00,,---,0.00,VWS V13.01,2013-02-05 00:03:00,
2013-02-04 20:04:00,79.3,63.3,29.96,ESE,112,0.0,2.2,58,0.00,,---,0.00,VWS V13.01,2013-02-05 00:04:00,
2013-02-04 20:05:00,79.3,63.3,29.96,SE,135,0.0,0.0,58,0.00,,---,0.00,VWS V13.01,2013-02-05 00:05:00,
2013-02-04 20:06:00,79.1,63.1,29.97,SE,135,0.6,0.6,58,0.00,,---,0.00,VWS V13.01,2013-02-05 00:06:00,
2013-02-04 20:07:00,79.1,63.1,29.97,South,180,0.0,0.6,58,0.00,,---,0.00,VWS V13.01,2013-02-05 00:07:00,
2013-02-04 20:08:00,79.1,63.1,29.96,SSE,158,0.0,0.0,58,0.00,,---,0.00,VWS V13.01,2013-02-05 00:08:00,
2013-02-04 20:09:00,79.1,63.1,29.96,ESE,112,1.5,1.5,58,0.00,,---,0.00,VWS V13.01,2013-02-05 00:09:00,
2013-02-04 20:10:00,79.1,63.1,29.96,SE,135,1.3,1.5,58,0.00,,---,0.00,VWS V13.01,2013-02-05 00:10:00,
2013-02-04 20:11:00,79.1,63.1,29.96,SE,135,0.0,1.3,58,0.00,,---,0.00,VWS V13.01,2013-02-05 00:11:00,
2013-02-04 20:12:00,79.1,63.1,29.96,East,90,0.0,0.0,58,0.00,,---,0.00,VWS V13.01,2013-02-05 00:12:00,
2013-02-04 20:13:00,79.1,63.1,29.96,ESE,112,0.0,0.0,58,0.00,,---,0.00,VWS V13.01,2013-02-05 00:13:00,
2013-02-04 20:14:00,78.9,62.9,29.96,SSE,158,0.0,0.0,58,0.00,,---,0.00,VWS V13.01,2013-02-05 00:14:00,
2013-02-04 20:15:00,78.9,63.4,29.96,ENE,68,0.0,0.0,59,0.00,,---,0.00,VWS V13.01,2013-02-05 00:15:00,
2013-02-04 20:16:00,78.9,63.4,29.96,SE,135,0.0,0.0,59,0.00,,---,0.00,VWS V13.01,2013-02-05 00:16:00,
2013-02-04 20:17:00,78.9,63.4,29.96,SSE,158,0.0,0.0,59,0.00,,---,0.00,VWS V13.01,2013-02-05 00:17:00,
2013-02-04 20:18:00,78.9,63.4,29.97,SE,135,0.0,0.0,59,0.00,,---,0.00,VWS V13.01,2013-02-05 00:18:00,
2013-02-04 20:19:00,78.9,63.4,29.97,SSE,158,0.0,0.0,59,0.00,,---,0.00,VWS V13.01,2013-02-05 00:19:00,
2013-02-04 20:20:00,78.9,63.4,29.97,SE,135,0.0,0.0,59,0.00,,---,0.00,VWS V13.01,2013-02-05 00:20:00,
2013-02-04 20:21:00,78.9,63.4,29.97,SE,135,0.0,0.0,59,0.00,,---,0.00,VWS V13.01,2013-02-05 00:21:00,
2013-02-04 20:22:00,78.9,63.4,29.97,SSE,158,0.0,0.0,59,0.00,,---,0.00,VWS V13.01,2013-02-05 00:22:00,
2013-02-04 20:23:00,78.9,63.4,29.97,SSE,158,0.0,0.0,59,0.00,,---,0.00,VWS V13.01,2013-02-05 00:23:00,
2013-02-04 20:24:00,78.9,63.4,29.97,SE,135,0.0,0.0,59,0.00,,---,0.00,VWS V13.01,2013-02-05 00:24:00,
2013-02-04 20:25:00,78.9,63.4,29.97,SE,135,3.1,3.1,59,0.00,,---,0.00,VWS V13.01,2013-02-05 00:25:00,
2013-02-04 20:26:00,78.8,63.3,29.97,SSE,158,0.0,0.0,59,0.00,,---,0.00,VWS V13.01,2013-02-05 00:26:00,
2013-02-04 20:27:00,78.8,63.3,29.97,SSE,158,0.0,0.0,59,0.00,,---,0.00,VWS V13.01,2013-02-05 00:27:00,
2013-02-04 20:28:00,78.8,63.3,29.97,South,180,0.8,0.8,59,0.00,,---,0.00,VWS V13.01,2013-02-05 00:28:00,
2013-02-04 20:29:00,78.8,63.3,29.97,SE,135,1.3,1.3,59,0.00,,---,0.00,VWS V13.01,2013-02-05 00:29:00,
2013-02-04 20:30:00,78.8,63.3,29.97,SE,135,1.1,1.3,59,0.00,,---,0.00,VWS V13.01,2013-02-05 00:30:00,
2013-02-04 20:31:00,78.6,63.1,29.97,South,180,0.0,1.1,59,0.00,,---,0.00,VWS V13.01,2013-02-05 00:31:00,
2013-02-04 20:32:00,78.6,63.1,29.97,South,180,1.7,1.7,59,0.00,,---,0.00,VWS V13.01,2013-02-05 00:32:00,
2013-02-04 20:33:00,78.6,63.1,29.97,SSE,158,0.0,1.7,59,0.00,,---,0.00,VWS V13.01,2013-02-05 00:33:00,
2013-02-04 20:34:00,78.6,63.1,29.97,SSE,158,0.0,0.0,59,0.00,,---,0.00,VWS V13.01,2013-02-05 00:34:00,
2013-02-04 20:35:00,78.6,63.1,29.97,SE,135,0.8,0.8,59,0.00,,---,0.00,VWS V13.01,2013-02-05 00:35:00,
2013-02-04 20:36:00,78.6,63.1,29.98,SE,135,0.0,0.8,59,0.00,,---,0.00,VWS V13.01,2013-02-05 00:36:00,
2013-02-04 20:37:00,78.6,63.1,29.98,ESE,112,0.0,0.0,59,0.00,,---,0.00,VWS V13.01,2013-02-05 00:37:00,
2013-02-04 20:38:00,78.6,63.1,29.98,SSE,158,0.0,0.0,59,0.00,,---,0.00,VWS V13.01,2013-02-05 00:38:00,
2013-02-04 20:39:00,78.6,63.1,29.98,SSE,158,0.0,0.0,59,0.00,,---,0.00,VWS V13.01,2013-02-05 00:39:00,
2013-02-04 20:40:00,78.6,63.1,29.98,SE,135,0.0,0.0,59,0.00,,---,0.00,VWS V13.01,2013-02-05 00:40:00,
2013-02-04 20:41:00,78.6,63.1,29.98,SSE,158,0.0,0.0,59,0.00,,---,0.00,VWS V13.01,2013-02-05 00:41:00,
2013-02-04 20:42:00,78.6,63.6,29.98,SE,135,0.0,0.0,60,0.00,,---,0.00,VWS V13.01,2013-02-05 00:42:00,
2013-02-04 20:43:00,78.6,63.1,29.98,South,180,0.0,0.0,59,0.00,,---,0.00,VWS V13.01,2013-02-05 00:43:00,
2013-02-04 20:44:00,78.6,63.6,29.98,SE,135,0.0,0.0,60,0.00,,---,0.00,VWS V13.01,2013-02-05 00:44:00,
2013-02-04 20:45:00,78.6,63.6,29.98,SE,135,0.0,0.0,60,0.00,,---,0.00,VWS V13.01,2013-02-05 00:45:00,
2013-02-04 20:46:00,78.6,63.6,29.98,SE,135,0.0,0.0,60,0.00,,---,0.00,VWS V13.01,2013-02-05 00:46:00,
2013-02-04 20:47:00,78.6,63.6,29.98,SSE,158,1.7,1.7,60,0.00,,---,0.00,VWS V13.01,2013-02-05 00:47:00,
2013-02-04 20:48:00,78.6,63.6,29.98,SE,135,0.0,1.7,60,0.00,,---,0.00,VWS V13.01,2013-02-05 00:48:00,
2013-02-04 20:49:00,78.6,63.6,29.98,SE,135,0.0,0.0,60,0.00,,---,0.00,VWS V13.01,2013-02-05 00:49:00,
2013-02-04 20:50:00,78.6,63.6,29.98,SSE,158,0.0,0.0,60,0.00,,---,0.00,VWS V13.01,2013-02-05 00:50:00,
2013-02-04 20:51:00,78.6,63.6,29.98,SSE,158,0.0,0.0,60,0.00,,---,0.00,VWS V13.01,2013-02-05 00:51:00,
2013-02-04 20:52:00,78.6,63.6,29.98,SSE,158,0.0,0.0,60,0.00,,---,0.00,VWS V13.01,2013-02-05 00:52:00,
2013-02-04 20:53:00,78.6,63.6,29.98,SE,135,0.0,0.0,60,0.00,,---,0.00,VWS V13.01,2013-02-05 00:53:00,
2013-02-04 20:54:00,78.6,63.6,29.98,SSW,202,0.0,0.0,60,0.00,,---,0.00,VWS V13.01,2013-02-05 00:54:00,
2013-02-04 20:55:00,78.6,63.6,29.99,South,180,0.0,0.0,60,0.00,,---,0.00,VWS V13.01,2013-02-05 00:55:00,
2013-02-04 20:56:00,78.6,63.6,29.98,SSE,158,0.0,0.0,60,0.00,,---,0.00,VWS V13.01,2013-02-05 00:56:00,
2013-02-04 20:57:00,78.6,63.6,29.98,SSE,158,0.0,0.0,60,0.00,,---,0.00,VWS V13.01,2013-02-05 00:57:00,
2013-02-04 20:58:00,78.6,63.6,29.98,South,180,0.0,0.0,60,0.00,,---,0.00,VWS V13.01,2013-02-05 00:58:00,
2013-02-04 20:59:00,78.6,63.6,29.98,SSW,202,0.0,0.0,60,0.00,,---,0.00,VWS V13.01,2013-02-05 00:59:00,
2013-02-04 21:00:00,78.6,63.6,29.98,South,180,0.0,0.0,60,0.00,,---,0.00,VWS V13.01,2013-02-05 01:00:00,
2013-02-04 21:01:00,78.6,63.6,29.98,South,180,2.6,2.6,60,0.00,,---,0.00,VWS V13.01,2013-02-05 01:01:00,
2013-02-04 21:02:00,78.6,63.6,29.98,SSE,158,0.6,2.6,60,0.00,,---,0.00,VWS V13.01,2013-02-05 01:02:00,
2013-02-04 21:03:00,78.6,63.6,29.98,SSE,158,0.0,0.6,60,0.00,,---,0.00,VWS V13.01,2013-02-05 01:03:00,
2013-02-04 21:04:00,78.4,63.4,29.98,South,180,0.0,0.0,60,0.00,,---,0.00,VWS V13.01,2013-02-05 01:04:00,
2013-02-04 21:05:00,78.4,63.4,29.98,SE,135,2.0,2.0,60,0.00,,---,0.00,VWS V13.01,2013-02-05 01:05:00,
2013-02-04 21:06:00,78.4,63.4,29.98,South,180,0.0,0.0,60,0.00,,---,0.00,VWS V13.01,2013-02-05 01:06:00,
2013-02-04 21:07:00,78.4,63.4,29.98,SSE,158,0.0,0.0,60,0.00,,---,0.00,VWS V13.01,2013-02-05 01:07:00,
2013-02-04 21:08:00,78.4,63.4,29.98,South,180,0.0,0.0,60,0.00,,---,0.00,VWS V13.01,2013-02-05 01:08:00,
2013-02-04 21:09:00,78.4,63.4,29.98,SE,135,0.0,0.0,60,0.00,,---,0.00,VWS V13.01,2013-02-05 01:09:00,
2013-02-04 21:10:00,78.4,63.4,29.98,South,180,1.1,1.1,60,0.00,,---,0.00,VWS V13.01,2013-02-05 01:10:00,
2013-02-04 21:11:00,78.4,63.4,29.98,South,180,2.0,2.0,60,0.00,,---,0.00,VWS V13.01,2013-02-05 01:11:00,
2013-02-04 21:12:00,78.4,63.4,29.98,South,180,0.0,2.0,60,0.00,,---,0.00,VWS V13.01,2013-02-05 01:12:00,
2013-02-04 21:13:00,78.4,63.8,29.98,SSE,158,0.0,0.0,61,0.00,,---,0.00,VWS V13.01,2013-02-05 01:13:00,
2013-02-04 21:14:00,78.4,63.8,29.98,SSE,158,2.0,2.0,61,0.00,,---,0.00,VWS V13.01,2013-02-05 01:14:00,
2013-02-04 21:15:00,78.4,63.8,29.98,SE,135,2.2,2.2,61,0.00,,---,0.00,VWS V13.01,2013-02-05 01:15:00,
2013-02-04 21:16:00,78.4,63.8,29.98,SSE,158,2.2,2.2,61,0.00,,---,0.00,VWS V13.01,2013-02-05 01:16:00,
2013-02-04 21:17:00,78.4,63.8,29.98,South,180,0.0,2.2,61,0.00,,---,0.00,VWS V13.01,2013-02-05 01:17:00,
2013-02-04 21:18:00,78.4,63.8,29.99,SSE,158,0.0,0.0,61,0.00,,---,0.00,VWS V13.01,2013-02-05 01:18:00,
2013-02-04 21:19:00,78.2,63.7,29.99,SSW,202,1.3,1.3,61,0.00,,---,0.00,VWS V13.01,2013-02-05 01:19:00,
2013-02-04 21:20:00,78.2,63.7,29.99,South,180,0.0,1.3,61,0.00,,---,0.00,VWS V13.01,2013-02-05 01:20:00,
2013-02-04 21:21:00,78.0,63.5,29.98,South,180,2.0,2.0,61,0.00,,---,0.00,VWS V13.01,2013-02-05 01:21:00,
2013-02-04 21:22:00,78.0,63.5,29.98,SSE,158,0.6,2.0,61,0.00,,---,0.00,VWS V13.01,2013-02-05 01:22:00,
2013-02-04 21:23:00,78.0,63.5,29.99,SSE,158,0.0,0.6,61,0.00,,---,0.00,VWS V13.01,2013-02-05 01:23:00,
2013-02-04 21:24:00,78.0,63.5,29.98,SSE,158,0.0,0.0,61,0.00,,---,0.00,VWS V13.01,2013-02-05 01:24:00,
2013-02-04 21:25:00,78.0,63.5,29.98,South,180,0.0,0.0,61,0.00,,---,0.00,VWS V13.01,2013-02-05 01:25:00,
2013-02-04 21:26:00,78.0,63.5,29.98,SSE,158,0.0,0.0,61,0.00,,---,0.00,VWS V13.01,2013-02-05 01:26:00,
2013-02-04 21:27:00,77.9,63.4,29.99,SSE,158,0.0,0.0,61,0.00,,---,0.00,VWS V13.01,2013-02-05 01:27:00,
2013-02-04 21:28:00,77.9,63.4,29.98,ESE,112,0.0,0.0,61,0.00,,---,0.00,VWS V13.01,2013-02-05 01:28:00,
2013-02-04 21:29:00,77.9,63.4,29.98,SE,135,0.0,0.0,61,0.00,,---,0.00,VWS V13.01,2013-02-05 01:29:00,
2013-02-04 21:30:00,77.9,63.4,29.98,South,180,0.8,0.8,61,0.00,,---,0.00,VWS V13.01,2013-02-05 01:30:00,
2013-02-04 21:31:00,77.9,63.8,29.98,SE,135,0.0,0.0,62,0.00,,---,0.00,VWS V13.01,2013-02-05 01:31:00,
2013-02-04 21:32:00,77.9,63.8,29.98,SE,135,0.0,0.0,62,0.00,,---,0.00,VWS V13.01,2013-02-05 01:32:00,
2013-02-04 21:33:00,77.7,63.7,29.98,ESE,112,0.0,0.0,62,0.00,,---,0.00,VWS V13.01,2013-02-05 01:33:00,
2013-02-04 21:34:00,77.9,63.8,29.98,SSE,158,0.0,0.0,62,0.00,,---,0.00,VWS V13.01,2013-02-05 01:34:00,
2013-02-04 21:35:00,77.7,63.7,29.98,South,180,0.0,0.0,62,0.00,,---,0.00,VWS V13.01,2013-02-05 01:35:00,
2013-02-04 21:36:00,77.7,63.7,29.98,SSE,158,0.0,0.0,62,0.00,,---,0.00,VWS V13.01,2013-02-05 01:36:00,
2013-02-04 21:37:00,78.0,63.5,29.98,SSE,158,0.0,0.0,61,0.00,,---,0.00,VWS V13.01,2013-02-05 01:37:00,
2013-02-04 21:38:00,77.7,63.7,29.99,SE,135,0.0,2.2,62,0.00,,---,0.00,VWS V13.01,2013-02-05 01:38:00,
2013-02-04 21:39:00,77.7,63.7,29.99,SE,135,0.6,0.6,62,0.00,,---,0.00,VWS V13.01,2013-02-05 01:39:00,
2013-02-04 21:40:00,77.7,63.7,29.99,SE,135,1.1,1.1,62,0.00,,---,0.00,VWS V13.01,2013-02-05 01:40:00,
2013-02-04 21:41:00,77.7,63.7,29.99,SSE,158,0.0,1.1,62,0.00,,---,0.00,VWS V13.01,2013-02-05 01:41:00,
2013-02-04 21:42:00,77.7,63.7,29.99,South,180,0.0,0.0,62,0.00,,---,0.00,VWS V13.01,2013-02-05 01:42:00,
2013-02-04 21:43:00,77.7,63.7,29.99,ESE,112,0.0,0.0,62,0.00,,---,0.00,VWS V13.01,2013-02-05 01:43:00,
2013-02-04 21:44:00,77.7,63.7,29.99,ESE,112,1.1,1.1,62,0.00,,---,0.00,VWS V13.01,2013-02-05 01:44:00,
2013-02-04 21:45:00,77.7,63.7,29.99,SE,135,0.0,0.0,62,0.00,,---,0.00,VWS V13.01,2013-02-05 01:45:00,
2013-02-04 21:46:00,77.7,63.7,29.99,SSE,158,0.0,0.0,62,0.00,,---,0.00,VWS V13.01,2013-02-05 01:46:00,
2013-02-04 21:47:00,77.7,63.7,29.99,ESE,112,0.0,0.0,62,0.00,,---,0.00,VWS V13.01,2013-02-05 01:47:00,
2013-02-04 21:48:00,77.7,64.1,29.99,South,180,0.0,0.0,63,0.00,,---,0.00,VWS V13.01,2013-02-05 01:48:00,
2013-02-04 21:49:00,77.7,64.1,29.99,SE,135,0.0,0.0,63,0.00,,---,0.00,VWS V13.01,2013-02-05 01:49:00,
2013-02-04 21:50:00,77.7,64.1,29.99,SE,135,0.0,0.0,63,0.00,,---,0.00,VWS V13.01,2013-02-05 01:50:00,
2013-02-04 21:51:00,77.7,64.1,29.99,SSE,158,0.0,0.0,63,0.00,,---,0.00,VWS V13.01,2013-02-05 01:51:00,
2013-02-04 21:52:00,77.7,64.1,29.99,South,180,0.0,0.0,63,0.00,,---,0.00,VWS V13.01,2013-02-05 01:52:00,
2013-02-04 21:53:00,77.7,64.1,29.99,SSE,158,0.0,0.0,63,0.00,,---,0.00,VWS V13.01,2013-02-05 01:53:00,
2013-02-04 21:54:00,77.7,64.1,29.99,South,180,0.0,0.0,63,0.00,,---,0.00,VWS V13.01,2013-02-05 01:54:00,
2013-02-04 21:55:00,77.7,64.1,29.99,South,180,1.1,1.1,63,0.00,,---,0.00,VWS V13.01,2013-02-05 01:55:00,
2013-02-04 21:56:00,77.7,64.1,29.99,SSE,158,0.0,1.1,63,0.00,,---,0.00,VWS V13.01,2013-02-05 01:56:00,
2013-02-04 21:57:00,77.7,64.1,29.99,South,180,0.0,0.0,63,0.00,,---,0.00,VWS V13.01,2013-02-05 01:57:00,
2013-02-04 21:58:00,77.7,64.1,29.99,SSE,158,0.0,0.0,63,0.00,,---,0.00,VWS V13.01,2013-02-05 01:58:00,
2013-02-04 21:59:00,77.5,63.5,29.99,SE,135,0.0,0.0,62,0.00,,---,0.00,VWS V13.01,2013-02-05 01:59:00,
2013-02-04 22:00:00,77.7,64.1,29.99,SSE,158,0.0,0.0,63,0.00,,---,0.82,VWS V13.01,2013-02-05 02:00:00,
2013-02-04 22:01:00,77.5,63.9,29.99,SSE,158,1.3,1.3,63,0.00,,---,0.00,VWS V13.01,2013-02-05 02:01:00,
2013-02-04 22:02:00,77.5,63.9,29.99,SE,135,1.5,1.5,63,0.00,,---,0.00,VWS V13.01,2013-02-05 02:02:00,
2013-02-04 22:03:00,77.5,63.9,29.99,SSE,158,0.0,0.0,63,0.00,,---,0.00,VWS V13.01,2013-02-05 02:03:00,
2013-02-04 22:04:00,77.5,63.9,29.99,SE,135,0.8,0.8,63,0.00,,---,0.00,VWS V13.01,2013-02-05 02:04:00,
2013-02-04 22:05:00,77.5,63.9,29.99,SE,135,2.0,2.0,63,0.00,,---,0.00,VWS V13.01,2013-02-05 02:05:00,
2013-02-04 22:06:00,77.5,63.9,29.99,SE,135,1.7,1.7,63,0.00,,---,0.00,VWS V13.01,2013-02-05 02:06:00,
2013-02-04 22:07:00,77.5,63.9,29.99,SSE,158,0.0,1.7,63,0.00,,---,0.00,VWS V13.01,2013-02-05 02:07:00,
2013-02-04 22:08:00,77.5,63.9,29.99,SSE,158,0.0,0.0,63,0.00,,---,0.00,VWS V13.01,2013-02-05 02:08:00,
2013-02-04 22:09:00,77.5,63.9,29.99,SSE,158,0.0,0.0,63,0.00,,---,0.00,VWS V13.01,2013-02-05 02:09:00,
2013-02-04 22:10:00,77.5,63.9,29.99,SSE,158,0.0,0.0,63,0.00,,---,0.00,VWS V13.01,2013-02-05 02:10:00,
2013-02-04 22:11:00,77.5,63.9,29.99,SSE,158,0.0,0.0,63,0.00,,---,0.00,VWS V13.01,2013-02-05 02:11:00,
2013-02-04 22:12:00,77.5,63.9,29.99,SE,135,0.0,0.0,63,0.00,,---,0.00,VWS V13.01,2013-02-05 02:12:00,
2013-02-04 22:13:00,77.5,63.9,29.99,SSW,202,0.0,0.0,63,0.00,,---,0.00,VWS V13.01,2013-02-05 02:13:00,
2013-02-04 22:14:00,77.3,63.7,29.99,SSE,158,0.0,0.0,63,0.00,,---,0.00,VWS V13.01,2013-02-05 02:14:00,
2013-02-04 22:15:00,77.3,63.7,29.99,SSE,158,0.0,0.0,63,0.00,,---,0.00,VWS V13.01,2013-02-05 02:15:00,
2013-02-04 22:16:00,77.3,63.7,30.00,North,0,0.0,0.0,63,0.00,,---,0.00,VWS V13.01,2013-02-05 02:16:00,
2013-02-04 22:17:00,77.3,63.7,29.99,SE,135,0.0,0.0,63,0.00,,---,0.00,VWS V13.01,2013-02-05 02:17:00,
2013-02-04 22:18:00,77.3,63.7,30.00,SSE,158,0.0,0.0,63,0.00,,---,0.00,VWS V13.01,2013-02-05 02:18:00,
2013-02-04 22:19:00,77.3,63.7,30.00,SE,135,0.0,0.0,63,0.00,,---,0.00,VWS V13.01,2013-02-05 02:19:00,
2013-02-04 22:20:00,77.3,63.7,30.00,SSE,158,0.0,0.0,63,0.00,,---,0.00,VWS V13.01,2013-02-05 02:20:00,
2013-02-04 22:21:00,77.3,63.7,30.00,SSE,158,0.0,0.0,63,0.00,,---,0.00,VWS V13.01,2013-02-05 02:21:00,
2013-02-04 22:22:00,77.3,63.7,30.00,SSE,158,1.3,1.3,63,0.00,,---,0.00,VWS V13.01,2013-02-05 02:22:00,
2013-02-04 22:23:00,77.3,63.7,29.99,SSE,158,0.0,0.0,63,0.00,,---,0.00,VWS V13.01,2013-02-05 02:23:00,
2013-02-04 22:24:00,77.3,64.2,29.99,SSE,158,0.0,0.0,64,0.00,,---,0.00,VWS V13.01,2013-02-05 02:24:00,
2013-02-04 22:25:00,77.3,64.2,29.99,SE,135,0.0,0.0,64,0.00,,---,0.00,VWS V13.01,2013-02-05 02:25:00,
2013-02-04 22:26:00,77.3,64.2,29.99,SSE,158,0.0,0.0,64,0.00,,---,0.00,VWS V13.01,2013-02-05 02:26:00,
2013-02-04 22:27:00,77.3,64.2,29.99,SSE,158,0.0,0.0,64,0.00,,---,0.00,VWS V13.01,2013-02-05 02:27:00,
2013-02-04 22:28:00,77.3,64.2,29.99,South,180,2.4,2.4,64,0.00,,---,0.00,VWS V13.01,2013-02-05 02:28:00,
2013-02-04 22:29:00,77.3,64.2,29.99,SE,135,0.0,2.4,64,0.00,,---,0.00,VWS V13.01,2013-02-05 02:29:00,
2013-02-04 22:30:00,77.3,64.2,29.99,SE,135,0.0,0.0,64,0.00,,---,0.00,VWS V13.01,2013-02-05 02:30:00,
2013-02-04 22:31:00,77.5,64.4,29.99,SE,135,0.0,0.0,64,0.00,,---,0.00,VWS V13.01,2013-02-05 02:31:00,
2013-02-04 22:32:00,77.3,64.2,29.99,SE,135,0.0,0.0,64,0.00,,---,0.00,VWS V13.01,2013-02-05 02:32:00,
2013-02-04 22:33:00,77.3,64.2,29.99,SSE,158,0.0,0.0,64,0.00,,---,0.00,VWS V13.01,2013-02-05 02:33:00,
2013-02-04 22:34:00,77.5,64.4,29.99,South,180,0.0,0.0,64,0.00,,---,0.00,VWS V13.01,2013-02-05 02:34:00,
2013-02-04 22:35:00,77.5,64.4,29.99,SSE,158,0.0,0.0,64,0.00,,---,0.00,VWS V13.01,2013-02-05 02:35:00,
2013-02-04 22:36:00,77.3,64.2,29.99,South,180,2.2,2.2,64,0.00,,---,0.00,VWS V13.01,2013-02-05 02:36:00,
2013-02-04 22:37:00,77.5,64.4,29.99,SSE,158,0.0,2.2,64,0.00,,---,0.00,VWS V13.01,2013-02-05 02:37:00,
2013-02-04 22:38:00,77.5,64.4,29.99,SSE,158,0.0,0.0,64,0.00,,---,0.00,VWS V13.01,2013-02-05 02:38:00,
2013-02-04 22:39:00,77.3,64.2,29.99,SSW,202,0.0,0.0,64,0.00,,---,0.00,VWS V13.01,2013-02-05 02:39:00,
2013-02-04 22:40:00,77.5,64.4,29.99,ESE,112,0.0,0.0,64,0.00,,---,0.00,VWS V13.01,2013-02-05 02:40:00,
2013-02-04 22:41:00,77.5,64.4,29.99,South,180,0.0,0.0,64,0.00,,---,0.00,VWS V13.01,2013-02-05 02:41:00,
2013-02-04 22:42:00,77.5,64.4,29.99,SE,135,0.0,0.0,64,0.00,,---,0.00,VWS V13.01,2013-02-05 02:42:00,
2013-02-04 22:43:00,77.3,64.2,29.99,SSE,158,0.0,0.0,64,0.00,,---,0.00,VWS V13.01,2013-02-05 02:43:00,
2013-02-04 22:44:00,77.3,64.2,29.99,SE,135,0.0,0.0,64,0.00,,---,0.00,VWS V13.01,2013-02-05 02:44:00,
2013-02-04 22:45:00,77.3,64.2,29.99,SE,135,1.7,1.7,64,0.00,,---,0.00,VWS V13.01,2013-02-05 02:45:00,
2013-02-04 22:46:00,77.3,64.2,29.99,ESE,112,0.0,0.0,64,0.00,,---,0.00,VWS V13.01,2013-02-05 02:46:00,
2013-02-04 22:47:00,77.3,64.2,29.99,ESE,112,0.0,0.0,64,0.00,,---,0.00,VWS V13.01,2013-02-05 02:47:00,
2013-02-04 22:48:00,77.3,64.2,29.99,ESE,112,0.0,0.0,64,0.00,,---,0.00,VWS V13.01,2013-02-05 02:48:00,
2013-02-04 22:49:00,77.3,64.2,29.99,ESE,112,0.0,0.0,64,0.00,,---,0.00,VWS V13.01,2013-02-05 02:49:00,
2013-02-04 22:50:00,77.3,64.2,29.98,ESE,112,0.0,0.0,64,0.00,,---,0.00,VWS V13.01,2013-02-05 02:50:00,
2013-02-04 22:51:00,77.3,64.2,29.99,ESE,112,0.0,0.0,64,0.00,,---,0.00,VWS V13.01,2013-02-05 02:51:00,
2013-02-04 22:52:00,77.3,64.2,29.99,SE,135,0.0,0.0,64,0.00,,---,0.00,VWS V13.01,2013-02-05 02:52:00,
2013-02-04 22:53:00,77.3,64.2,29.99,SE,135,0.0,0.0,64,0.00,,---,0.00,VWS V13.01,2013-02-05 02:53:00,
2013-02-04 22:54:00,77.3,64.2,29.99,SE,135,0.0,0.0,64,0.00,,---,0.00,VWS V13.01,2013-02-05 02:54:00,
2013-02-04 22:55:00,77.3,64.2,29.99,ESE,112,0.0,0.0,64,0.00,,---,0.00,VWS V13.01,2013-02-05 02:55:00,
2013-02-04 22:56:00,77.3,64.2,29.99,ESE,112,0.0,0.0,64,0.00,,---,0.00,VWS V13.01,2013-02-05 02:56:00,
2013-02-04 22:57:00,77.3,64.2,29.99,ESE,112,0.0,0.0,64,0.00,,---,0.00,VWS V13.01,2013-02-05 02:57:00,
2013-02-04 22:58:00,77.3,64.2,29.99,SE,135,0.0,0.0,64,0.00,,---,0.00,VWS V13.01,2013-02-05 02:58:00,
2013-02-04 22:59:00,77.3,64.2,29.99,SE,135,0.0,0.0,64,0.00,,---,0.00,VWS V13.01,2013-02-05 02:59:00,
2013-02-04 23:00:00,77.3,64.2,29.99,SE,135,0.0,0.0,64,0.00,,---,0.82,VWS V13.01,2013-02-05 03:00:00,
2013-02-04 23:01:00,77.3,64.2,29.99,SE,135,0.0,0.0,64,0.00,,---,0.00,VWS V13.01,2013-02-05 03:01:00,
2013-02-04 23:02:00,77.3,64.2,29.99,SE,135,0.0,0.0,64,0.00,,---,0.00,VWS V13.01,2013-02-05 03:02:00,
2013-02-04 23:03:00,77.3,64.2,29.98,SE,135,0.0,0.0,64,0.00,,---,0.00,VWS V13.01,2013-02-05 03:03:00,
2013-02-04 23:04:00,77.3,64.2,29.98,SE,135,0.0,0.0,64,0.00,,---,0.00,VWS V13.01,2013-02-05 03:04:00,
2013-02-04 23:05:00,77.3,64.2,29.98,ESE,112,0.0,0.0,64,0.00,,---,0.00,VWS V13.01,2013-02-05 03:05:00,
2013-02-04 23:06:00,77.3,64.2,29.99,SSE,158,0.0,0.0,64,0.00,,---,0.00,VWS V13.01,2013-02-05 03:06:00,
2013-02-04 23:07:00,77.1,64.0,29.98,SSW,202,0.0,0.0,64,0.00,,---,0.00,VWS V13.01,2013-02-05 03:07:00,
2013-02-04 23:08:00,77.3,64.2,29.99,SSW,202,0.0,0.0,64,0.00,,---,0.00,VWS V13.01,2013-02-05 03:08:00,
2013-02-04 23:09:00,77.1,64.4,29.98,SSE,158,0.0,0.0,65,0.00,,---,0.00,VWS V13.01,2013-02-05 03:09:00,
2013-02-04 23:10:00,77.1,64.4,29.99,SE,135,0.0,0.0,65,0.00,,---,0.00,VWS V13.01,2013-02-05 03:10:00,
2013-02-04 23:11:00,77.1,64.4,29.98,SSE,158,0.0,0.0,65,0.00,,---,0.00,VWS V13.01,2013-02-05 03:11:00,
2013-02-04 23:12:00,77.1,64.4,29.98,South,180,0.0,0.0,65,0.00,,---,0.00,VWS V13.01,2013-02-05 03:12:00,
2013-02-04 23:13:00,77.1,64.4,29.98,SW,225,0.0,0.0,65,0.00,,---,0.00,VWS V13.01,2013-02-05 03:13:00,
2013-02-04 23:14:00,77.1,64.4,29.98,SW,225,0.0,0.0,65,0.00,,---,0.00,VWS V13.01,2013-02-05 03:14:00,
2013-02-04 23:15:00,77.1,64.4,29.98,South,180,0.0,0.0,65,0.00,,---,0.00,VWS V13.01,2013-02-05 03:15:00,
2013-02-04 23:16:00,77.1,64.4,29.98,South,180,0.0,0.0,65,0.00,,---,0.00,VWS V13.01,2013-02-05 03:16:00,
2013-02-04 23:17:00,77.0,64.3,29.98,South,180,0.0,0.0,65,0.00,,---,0.00,VWS V13.01,2013-02-05 03:17:00,
2013-02-04 23:18:00,77.0,64.3,29.98,SSW,202,0.0,0.0,65,0.00,,---,0.00,VWS V13.01,2013-02-05 03:18:00,
2013-02-04 23:19:00,77.0,64.3,29.98,SSW,202,0.0,0.0,65,0.00,,---,0.00,VWS V13.01,2013-02-05 03:19:00,
2013-02-04 23:20:00,76.8,64.2,29.98,SSW,202,0.0,0.0,65,0.00,,---,0.00,VWS V13.01,2013-02-05 03:20:00,
2013-02-04 23:21:00,76.8,64.2,29.98,North,0,0.0,0.0,65,0.00,,---,0.00,VWS V13.01,2013-02-05 03:21:00,
2013-02-04 23:22:00,76.8,64.2,29.98,SSW,202,0.0,0.0,65,0.00,,---,0.00,VWS V13.01,2013-02-05 03:22:00,
2013-02-04 23:23:00,76.8,64.2,29.98,SW,225,0.0,0.0,65,0.00,,---,0.00,VWS V13.01,2013-02-05 03:23:00,
2013-02-04 23:24:00,76.8,64.2,29.98,South,180,0.0,0.0,65,0.00,,---,0.00,VWS V13.01,2013-02-05 03:24:00,
2013-02-04 23:25:00,76.8,64.2,29.98,South,180,0.0,0.0,65,0.00,,---,0.00,VWS V13.01,2013-02-05 03:25:00,
2013-02-04 23:26:00,76.8,64.2,29.98,South,180,0.0,0.0,65,0.00,,---,0.00,VWS V13.01,2013-02-05 03:26:00,
2013-02-04 23:27:00,76.8,64.2,29.98,SSW,202,0.0,0.0,65,0.00,,---,0.00,VWS V13.01,2013-02-05 03:27:00,
2013-02-04 23:28:00,76.8,64.2,29.98,SW,225,0.0,0.0,65,0.00,,---,0.00,VWS V13.01,2013-02-05 03:28:00,
2013-02-04 23:29:00,76.8,64.2,29.98,SW,225,0.0,0.0,65,0.00,,---,0.00,VWS V13.01,2013-02-05 03:29:00,
2013-02-04 23:30:00,76.8,64.2,29.98,SSW,202,0.0,0.0,65,0.00,,---,0.00,VWS V13.01,2013-02-05 03:30:00,
2013-02-04 23:31:00,76.8,64.2,29.98,SSW,202,0.0,0.0,65,0.00,,---,0.00,VWS V13.01,2013-02-05 03:31:00,
2013-02-04 23:32:00,76.6,64.0,29.98,South,180,0.0,0.0,65,0.00,,---,0.00,VWS V13.01,2013-02-05 03:32:00,
2013-02-04 23:33:00,76.6,64.0,29.98,WSW,248,0.0,0.0,65,0.00,,---,0.00,VWS V13.01,2013-02-05 03:33:00,
2013-02-04 23:34:00,76.6,64.0,29.98,SW,225,0.0,0.0,65,0.00,,---,0.00,VWS V13.01,2013-02-05 03:34:00,
2013-02-04 23:35:00,76.6,64.0,29.98,SW,225,0.0,0.0,65,0.00,,---,0.00,VWS V13.01,2013-02-05 03:35:00,
2013-02-04 23:36:00,76.6,64.0,29.98,SW,225,0.0,0.0,65,0.00,,---,0.00,VWS V13.01,2013-02-05 03:36:00,
2013-02-04 23:37:00,76.6,64.0,29.98,SW,225,0.0,0.0,65,0.00,,---,0.00,VWS V13.01,2013-02-05 03:37:00,
2013-02-04 23:38:00,76.6,64.0,29.98,SW,225,0.0,0.0,65,0.00,,---,0.00,VWS V13.01,2013-02-05 03:38:00,
2013-02-04 23:39:00,76.6,64.0,29.98,SSW,202,0.0,0.0,65,0.00,,---,0.00,VWS V13.01,2013-02-05 03:39:00,
2013-02-04 23:40:00,76.6,64.0,29.98,SSW,202,0.0,0.0,65,0.00,,---,0.00,VWS V13.01,2013-02-05 03:40:00,
2013-02-04 23:41:00,76.4,63.8,29.98,WSW,248,0.0,0.0,65,0.00,,---,0.00,VWS V13.01,2013-02-05 03:41:00,
2013-02-04 23:42:00,76.4,63.8,29.98,SW,225,0.0,0.0,65,0.00,,---,0.00,VWS V13.01,2013-02-05 03:42:00,
2013-02-04 23:43:00,76.4,63.8,29.98,SSW,202,0.0,0.0,65,0.00,,---,0.00,VWS V13.01,2013-02-05 03:43:00,
2013-02-04 23:44:00,76.2,63.6,29.98,SSW,202,0.0,0.0,65,0.00,,---,0.00,VWS V13.01,2013-02-05 03:44:00,
2013-02-04 23:45:00,76.4,63.8,29.98,SSW,202,0.0,0.0,65,0.00,,---,0.00,VWS V13.01,2013-02-05 03:45:00,
2013-02-04 23:46:00,76.2,63.6,29.98,SW,225,0.0,0.0,65,0.00,,---,0.00,VWS V13.01,2013-02-05 03:46:00,
2013-02-04 23:47:00,76.4,63.8,29.98,SW,225,0.0,0.0,65,0.00,,---,0.00,VWS V13.01,2013-02-05 03:47:00,
2013-02-04 23:48:00,76.2,63.6,29.97,SW,225,0.0,0.0,65,0.00,,---,0.00,VWS V13.01,2013-02-05 03:48:00,
2013-02-04 23:49:00,76.2,63.6,29.97,SW,225,0.0,0.0,65,0.00,,---,0.00,VWS V13.01,2013-02-05 03:49:00,
2013-02-04 23:50:00,76.2,63.6,29.97,SSW,202,0.0,0.0,65,0.00,,---,0.00,VWS V13.01,2013-02-05 03:50:00,
2013-02-04 23:51:00,76.2,63.6,29.98,SSW,202,0.0,0.0,65,0.00,,---,0.00,VWS V13.01,2013-02-05 03:51:00,
2013-02-04 23:52:00,76.2,63.6,29.98,SW,225,0.0,0.0,65,0.00,,---,0.00,VWS V13.01,2013-02-05 03:52:00,
2013-02-04 23:53:00,76.2,63.6,29.98,SSW,202,0.0,0.0,65,0.00,,---,0.00,VWS V13.01,2013-02-05 03:53:00,
2013-02-04 23:54:00,76.2,63.6,29.98,SW,225,0.0,0.0,65,0.00,,---,0.00,VWS V13.01,2013-02-05 03:54:00,
2013-02-04 23:55:00,76.2,63.6,29.97,SW,225,0.0,0.0,65,0.00,,---,0.00,VWS V13.01,2013-02-05 03:55:00,
2013-02-04 23:56:00,76.2,63.6,29.98,SW,225,0.0,0.0,65,0.00,,---,0.00,VWS V13.01,2013-02-05 03:56:00,
2013-02-04 23:57:00,76.2,63.6,29.98,SW,225,0.0,0.0,65,0.00,,---,0.00,VWS V13.01,2013-02-05 03:57:00,
2013-02-04 23:58:00,76.2,63.6,29.97,SSW,202,0.0,0.0,65,0.00,,---,0.00,VWS V13.01,2013-02-05 03:58:00,
2013-02-04 23:59:00,76.2,63.6,29.97,SSW,202,0.0,0.0,65,0.00,,---,0.00,VWS V13.01,2013-02-05 03:59:00,